<?xml version="1.0" encoding="UTF-8" standalone="no" ?>
<gpx xmlns="http://www.topografix.com/GPX/1/1" xmlns:xsi="http://www.w3.org/2001/XMLSchema-instance" xsi:schemaLocation="http://www.topografix.com/GPX/1/1 http://www.topografix.com/GPX/1/1/gpx.xsd" version="1.1" creator="VisuGPX - https://www.visugpx.com">
  <metadata>
    <name>Le Mont Puget par l'Aiguille Guillemin et le Pas de l'Escalier</name>
    <desc><![CDATA[Les copains randonneurs du 04
Au départ de la Fac de Luminy]]></desc>
  </metadata>
  <trk>
    <name><![CDATA[PUGET02-20 14:32:39]]></name>
    <trkseg>
      <trkpt lat="43.2304" lon="5.43639">
        <ele>150.1</ele>
        <time>2020-02-20T06:45:16Z</time>
      </trkpt>
      <trkpt lat="43.2304" lon="5.43639">
        <ele>150.1</ele>
        <time>2020-02-20T06:45:18Z</time>
      </trkpt>
      <trkpt lat="43.2304" lon="5.43639">
        <ele>142.89</ele>
        <time>2020-02-20T06:45:20Z</time>
      </trkpt>
      <trkpt lat="43.2304" lon="5.43638">
        <ele>143.37</ele>
        <time>2020-02-20T06:45:23Z</time>
      </trkpt>
      <trkpt lat="43.2304" lon="5.43634">
        <ele>142.41</ele>
        <time>2020-02-20T06:45:44Z</time>
      </trkpt>
      <trkpt lat="43.23039" lon="5.43636">
        <ele>142.41</ele>
        <time>2020-02-20T06:46:07Z</time>
      </trkpt>
      <trkpt lat="43.23039" lon="5.43634">
        <ele>142.41</ele>
        <time>2020-02-20T06:46:35Z</time>
      </trkpt>
      <trkpt lat="43.2304" lon="5.43636">
        <ele>142.41</ele>
        <time>2020-02-20T06:46:52Z</time>
      </trkpt>
      <trkpt lat="43.23041" lon="5.43638">
        <ele>141.93</ele>
        <time>2020-02-20T06:47:16Z</time>
      </trkpt>
      <trkpt lat="43.23041" lon="5.43639">
        <ele>142.41</ele>
        <time>2020-02-20T06:47:43Z</time>
      </trkpt>
      <trkpt lat="43.23042" lon="5.43637">
        <ele>142.41</ele>
        <time>2020-02-20T06:48:05Z</time>
      </trkpt>
      <trkpt lat="43.23042" lon="5.43636">
        <ele>142.41</ele>
        <time>2020-02-20T06:48:19Z</time>
      </trkpt>
      <trkpt lat="43.23041" lon="5.4364">
        <ele>141.93</ele>
        <time>2020-02-20T06:48:51Z</time>
      </trkpt>
      <trkpt lat="43.23047" lon="5.43657">
        <ele>141.93</ele>
        <time>2020-02-20T06:49:07Z</time>
      </trkpt>
      <trkpt lat="43.2305" lon="5.43658">
        <ele>141.45</ele>
        <time>2020-02-20T06:49:24Z</time>
      </trkpt>
      <trkpt lat="43.23051" lon="5.43656">
        <ele>141.45</ele>
        <time>2020-02-20T06:49:49Z</time>
      </trkpt>
      <trkpt lat="43.23051" lon="5.43656">
        <ele>140.97</ele>
        <time>2020-02-20T06:50:12Z</time>
      </trkpt>
      <trkpt lat="43.23051" lon="5.43658">
        <ele>140.49</ele>
        <time>2020-02-20T06:50:32Z</time>
      </trkpt>
      <trkpt lat="43.23052" lon="5.43659">
        <ele>140.49</ele>
        <time>2020-02-20T06:50:55Z</time>
      </trkpt>
      <trkpt lat="43.23052" lon="5.43661">
        <ele>140.49</ele>
        <time>2020-02-20T06:51:18Z</time>
      </trkpt>
      <trkpt lat="43.23053" lon="5.43659">
        <ele>140.49</ele>
        <time>2020-02-20T06:51:39Z</time>
      </trkpt>
      <trkpt lat="43.23053" lon="5.43658">
        <ele>140.01</ele>
        <time>2020-02-20T06:52:06Z</time>
      </trkpt>
      <trkpt lat="43.23052" lon="5.43655">
        <ele>140.01</ele>
        <time>2020-02-20T06:52:42Z</time>
      </trkpt>
      <trkpt lat="43.23048" lon="5.43666">
        <ele>140.01</ele>
        <time>2020-02-20T06:52:58Z</time>
      </trkpt>
      <trkpt lat="43.23045" lon="5.43667">
        <ele>140.01</ele>
        <time>2020-02-20T06:53:01Z</time>
      </trkpt>
      <trkpt lat="43.23036" lon="5.43675">
        <ele>140.01</ele>
        <time>2020-02-20T06:53:14Z</time>
      </trkpt>
      <trkpt lat="43.23029" lon="5.43695">
        <ele>141.45</ele>
        <time>2020-02-20T06:53:31Z</time>
      </trkpt>
      <trkpt lat="43.23017" lon="5.43704">
        <ele>142.41</ele>
        <time>2020-02-20T06:53:46Z</time>
      </trkpt>
      <trkpt lat="43.22994" lon="5.43703">
        <ele>143.85</ele>
        <time>2020-02-20T06:54:06Z</time>
      </trkpt>
      <trkpt lat="43.22972" lon="5.43704">
        <ele>145.3</ele>
        <time>2020-02-20T06:54:26Z</time>
      </trkpt>
      <trkpt lat="43.22955" lon="5.43697">
        <ele>145.78</ele>
        <time>2020-02-20T06:54:43Z</time>
      </trkpt>
      <trkpt lat="43.22933" lon="5.43698">
        <ele>147.22</ele>
        <time>2020-02-20T06:55:04Z</time>
      </trkpt>
      <trkpt lat="43.22916" lon="5.43704">
        <ele>148.18</ele>
        <time>2020-02-20T06:55:21Z</time>
      </trkpt>
      <trkpt lat="43.2289" lon="5.43707">
        <ele>150.1</ele>
        <time>2020-02-20T06:55:44Z</time>
      </trkpt>
      <trkpt lat="43.22868" lon="5.43713">
        <ele>152.03</ele>
        <time>2020-02-20T06:56:04Z</time>
      </trkpt>
      <trkpt lat="43.22853" lon="5.43724">
        <ele>152.99</ele>
        <time>2020-02-20T06:56:21Z</time>
      </trkpt>
      <trkpt lat="43.22833" lon="5.43724">
        <ele>153.95</ele>
        <time>2020-02-20T06:56:39Z</time>
      </trkpt>
      <trkpt lat="43.2281" lon="5.43727">
        <ele>154.91</ele>
        <time>2020-02-20T06:57:00Z</time>
      </trkpt>
      <trkpt lat="43.22794" lon="5.4373">
        <ele>156.35</ele>
        <time>2020-02-20T06:57:16Z</time>
      </trkpt>
      <trkpt lat="43.22793" lon="5.43731">
        <ele>156.35</ele>
        <time>2020-02-20T06:57:17Z</time>
      </trkpt>
      <trkpt lat="43.22775" lon="5.43736">
        <ele>157.79</ele>
        <time>2020-02-20T06:57:33Z</time>
      </trkpt>
      <trkpt lat="43.22768" lon="5.43737">
        <ele>157.79</ele>
        <time>2020-02-20T06:57:40Z</time>
      </trkpt>
      <trkpt lat="43.22756" lon="5.4374">
        <ele>159.24</ele>
        <time>2020-02-20T06:57:53Z</time>
      </trkpt>
      <trkpt lat="43.22745" lon="5.43744">
        <ele>159.24</ele>
        <time>2020-02-20T06:58:05Z</time>
      </trkpt>
      <trkpt lat="43.22744" lon="5.43744">
        <ele>159.24</ele>
        <time>2020-02-20T06:58:06Z</time>
      </trkpt>
      <trkpt lat="43.22739" lon="5.43745">
        <ele>159.24</ele>
        <time>2020-02-20T06:58:10Z</time>
      </trkpt>
      <trkpt lat="43.2273" lon="5.43743">
        <ele>160.2</ele>
        <time>2020-02-20T06:58:18Z</time>
      </trkpt>
      <trkpt lat="43.22718" lon="5.43746">
        <ele>161.64</ele>
        <time>2020-02-20T06:58:32Z</time>
      </trkpt>
      <trkpt lat="43.22699" lon="5.43751">
        <ele>163.08</ele>
        <time>2020-02-20T06:58:47Z</time>
      </trkpt>
      <trkpt lat="43.22684" lon="5.43761">
        <ele>163.08</ele>
        <time>2020-02-20T06:59:00Z</time>
      </trkpt>
      <trkpt lat="43.22673" lon="5.43768">
        <ele>164.04</ele>
        <time>2020-02-20T06:59:14Z</time>
      </trkpt>
      <trkpt lat="43.22653" lon="5.43785">
        <ele>164.52</ele>
        <time>2020-02-20T06:59:32Z</time>
      </trkpt>
      <trkpt lat="43.22638" lon="5.43793">
        <ele>165</ele>
        <time>2020-02-20T06:59:46Z</time>
      </trkpt>
      <trkpt lat="43.22625" lon="5.43799">
        <ele>165</ele>
        <time>2020-02-20T06:59:57Z</time>
      </trkpt>
      <trkpt lat="43.22614" lon="5.43802">
        <ele>165</ele>
        <time>2020-02-20T07:00:09Z</time>
      </trkpt>
      <trkpt lat="43.22604" lon="5.43806">
        <ele>165</ele>
        <time>2020-02-20T07:00:23Z</time>
      </trkpt>
      <trkpt lat="43.22591" lon="5.43807">
        <ele>165</ele>
        <time>2020-02-20T07:00:35Z</time>
      </trkpt>
      <trkpt lat="43.22566" lon="5.43811">
        <ele>165</ele>
        <time>2020-02-20T07:00:52Z</time>
      </trkpt>
      <trkpt lat="43.22552" lon="5.43811">
        <ele>164.04</ele>
        <time>2020-02-20T07:01:03Z</time>
      </trkpt>
      <trkpt lat="43.22536" lon="5.43812">
        <ele>163.56</ele>
        <time>2020-02-20T07:01:15Z</time>
      </trkpt>
      <trkpt lat="43.22533" lon="5.43812">
        <ele>163.08</ele>
        <time>2020-02-20T07:01:17Z</time>
      </trkpt>
      <trkpt lat="43.22527" lon="5.43812">
        <ele>163.08</ele>
        <time>2020-02-20T07:01:22Z</time>
      </trkpt>
      <trkpt lat="43.22506" lon="5.43813">
        <ele>164.52</ele>
        <time>2020-02-20T07:01:38Z</time>
      </trkpt>
      <trkpt lat="43.22503" lon="5.43813">
        <ele>163.08</ele>
        <time>2020-02-20T07:01:41Z</time>
      </trkpt>
      <trkpt lat="43.22489" lon="5.43811">
        <ele>163.08</ele>
        <time>2020-02-20T07:01:55Z</time>
      </trkpt>
      <trkpt lat="43.22475" lon="5.43811">
        <ele>163.08</ele>
        <time>2020-02-20T07:02:09Z</time>
      </trkpt>
      <trkpt lat="43.22469" lon="5.43812">
        <ele>162.12</ele>
        <time>2020-02-20T07:02:24Z</time>
      </trkpt>
      <trkpt lat="43.22469" lon="5.43812">
        <ele>164.04</ele>
        <time>2020-02-20T07:02:27Z</time>
      </trkpt>
      <trkpt lat="43.22469" lon="5.43806">
        <ele>164.04</ele>
        <time>2020-02-20T07:02:52Z</time>
      </trkpt>
      <trkpt lat="43.22468" lon="5.43806">
        <ele>162.6</ele>
        <time>2020-02-20T07:03:14Z</time>
      </trkpt>
      <trkpt lat="43.22467" lon="5.43809">
        <ele>162.6</ele>
        <time>2020-02-20T07:03:37Z</time>
      </trkpt>
      <trkpt lat="43.22462" lon="5.43808">
        <ele>162.6</ele>
        <time>2020-02-20T07:03:58Z</time>
      </trkpt>
      <trkpt lat="43.22447" lon="5.4382">
        <ele>162.12</ele>
        <time>2020-02-20T07:04:15Z</time>
      </trkpt>
      <trkpt lat="43.22442" lon="5.43824">
        <ele>162.12</ele>
        <time>2020-02-20T07:04:21Z</time>
      </trkpt>
      <trkpt lat="43.22434" lon="5.43835">
        <ele>162.12</ele>
        <time>2020-02-20T07:04:30Z</time>
      </trkpt>
      <trkpt lat="43.22436" lon="5.43845">
        <ele>162.12</ele>
        <time>2020-02-20T07:04:35Z</time>
      </trkpt>
      <trkpt lat="43.22439" lon="5.43859">
        <ele>161.64</ele>
        <time>2020-02-20T07:04:46Z</time>
      </trkpt>
      <trkpt lat="43.22443" lon="5.43879">
        <ele>164.52</ele>
        <time>2020-02-20T07:05:02Z</time>
      </trkpt>
      <trkpt lat="43.22449" lon="5.43901">
        <ele>167.89</ele>
        <time>2020-02-20T07:05:22Z</time>
      </trkpt>
      <trkpt lat="43.22455" lon="5.43918">
        <ele>171.25</ele>
        <time>2020-02-20T07:05:39Z</time>
      </trkpt>
      <trkpt lat="43.2246" lon="5.43933">
        <ele>174.14</ele>
        <time>2020-02-20T07:05:55Z</time>
      </trkpt>
      <trkpt lat="43.22463" lon="5.43939">
        <ele>174.62</ele>
        <time>2020-02-20T07:06:00Z</time>
      </trkpt>
      <trkpt lat="43.22464" lon="5.43945">
        <ele>175.58</ele>
        <time>2020-02-20T07:06:06Z</time>
      </trkpt>
      <trkpt lat="43.22467" lon="5.43953">
        <ele>177.5</ele>
        <time>2020-02-20T07:06:13Z</time>
      </trkpt>
      <trkpt lat="43.22467" lon="5.43956">
        <ele>177.5</ele>
        <time>2020-02-20T07:06:16Z</time>
      </trkpt>
      <trkpt lat="43.22468" lon="5.43962">
        <ele>178.46</ele>
        <time>2020-02-20T07:06:22Z</time>
      </trkpt>
      <trkpt lat="43.2247" lon="5.43968">
        <ele>178.94</ele>
        <time>2020-02-20T07:06:28Z</time>
      </trkpt>
      <trkpt lat="43.22472" lon="5.43973">
        <ele>179.9</ele>
        <time>2020-02-20T07:06:32Z</time>
      </trkpt>
      <trkpt lat="43.22473" lon="5.43975">
        <ele>180.87</ele>
        <time>2020-02-20T07:06:34Z</time>
      </trkpt>
      <trkpt lat="43.22473" lon="5.43979">
        <ele>180.87</ele>
        <time>2020-02-20T07:06:38Z</time>
      </trkpt>
      <trkpt lat="43.22475" lon="5.43985">
        <ele>182.31</ele>
        <time>2020-02-20T07:06:44Z</time>
      </trkpt>
      <trkpt lat="43.22479" lon="5.44">
        <ele>184.23</ele>
        <time>2020-02-20T07:06:56Z</time>
      </trkpt>
      <trkpt lat="43.22476" lon="5.44001">
        <ele>184.23</ele>
        <time>2020-02-20T07:07:00Z</time>
      </trkpt>
      <trkpt lat="43.22473" lon="5.44001">
        <ele>184.71</ele>
        <time>2020-02-20T07:07:03Z</time>
      </trkpt>
      <trkpt lat="43.22469" lon="5.44003">
        <ele>186.63</ele>
        <time>2020-02-20T07:07:15Z</time>
      </trkpt>
      <trkpt lat="43.22468" lon="5.44004">
        <ele>186.63</ele>
        <time>2020-02-20T07:07:16Z</time>
      </trkpt>
      <trkpt lat="43.22458" lon="5.44009">
        <ele>188.56</ele>
        <time>2020-02-20T07:07:31Z</time>
      </trkpt>
      <trkpt lat="43.22453" lon="5.44018">
        <ele>191.92</ele>
        <time>2020-02-20T07:07:49Z</time>
      </trkpt>
      <trkpt lat="43.22446" lon="5.44034">
        <ele>194.8</ele>
        <time>2020-02-20T07:08:11Z</time>
      </trkpt>
      <trkpt lat="43.22438" lon="5.44053">
        <ele>196.25</ele>
        <time>2020-02-20T07:08:28Z</time>
      </trkpt>
      <trkpt lat="43.22435" lon="5.44068">
        <ele>196.73</ele>
        <time>2020-02-20T07:08:42Z</time>
      </trkpt>
      <trkpt lat="43.22419" lon="5.44082">
        <ele>198.65</ele>
        <time>2020-02-20T07:09:02Z</time>
      </trkpt>
      <trkpt lat="43.224" lon="5.44098">
        <ele>199.61</ele>
        <time>2020-02-20T07:09:21Z</time>
      </trkpt>
      <trkpt lat="43.22386" lon="5.44109">
        <ele>200.57</ele>
        <time>2020-02-20T07:09:37Z</time>
      </trkpt>
      <trkpt lat="43.22364" lon="5.4413">
        <ele>200.09</ele>
        <time>2020-02-20T07:09:59Z</time>
      </trkpt>
      <trkpt lat="43.22347" lon="5.44148">
        <ele>200.09</ele>
        <time>2020-02-20T07:10:19Z</time>
      </trkpt>
      <trkpt lat="43.22329" lon="5.44161">
        <ele>200.09</ele>
        <time>2020-02-20T07:10:39Z</time>
      </trkpt>
      <trkpt lat="43.22308" lon="5.44174">
        <ele>201.05</ele>
        <time>2020-02-20T07:11:00Z</time>
      </trkpt>
      <trkpt lat="43.2229" lon="5.44185">
        <ele>201.05</ele>
        <time>2020-02-20T07:11:16Z</time>
      </trkpt>
      <trkpt lat="43.22274" lon="5.44198">
        <ele>201.05</ele>
        <time>2020-02-20T07:11:32Z</time>
      </trkpt>
      <trkpt lat="43.22268" lon="5.44201">
        <ele>199.61</ele>
        <time>2020-02-20T07:11:38Z</time>
      </trkpt>
      <trkpt lat="43.22256" lon="5.44208">
        <ele>199.61</ele>
        <time>2020-02-20T07:11:49Z</time>
      </trkpt>
      <trkpt lat="43.22235" lon="5.44218">
        <ele>199.61</ele>
        <time>2020-02-20T07:12:08Z</time>
      </trkpt>
      <trkpt lat="43.22217" lon="5.4423">
        <ele>200.09</ele>
        <time>2020-02-20T07:12:27Z</time>
      </trkpt>
      <trkpt lat="43.22198" lon="5.44241">
        <ele>201.05</ele>
        <time>2020-02-20T07:12:46Z</time>
      </trkpt>
      <trkpt lat="43.2218" lon="5.44254">
        <ele>201.53</ele>
        <time>2020-02-20T07:13:04Z</time>
      </trkpt>
      <trkpt lat="43.22167" lon="5.4427">
        <ele>202.49</ele>
        <time>2020-02-20T07:13:20Z</time>
      </trkpt>
      <trkpt lat="43.22153" lon="5.44285">
        <ele>202.49</ele>
        <time>2020-02-20T07:13:40Z</time>
      </trkpt>
      <trkpt lat="43.22139" lon="5.44301">
        <ele>203.46</ele>
        <time>2020-02-20T07:13:57Z</time>
      </trkpt>
      <trkpt lat="43.22126" lon="5.44324">
        <ele>203.94</ele>
        <time>2020-02-20T07:14:16Z</time>
      </trkpt>
      <trkpt lat="43.22115" lon="5.44352">
        <ele>205.38</ele>
        <time>2020-02-20T07:14:38Z</time>
      </trkpt>
      <trkpt lat="43.22116" lon="5.44373">
        <ele>207.78</ele>
        <time>2020-02-20T07:14:56Z</time>
      </trkpt>
      <trkpt lat="43.22118" lon="5.44376">
        <ele>208.74</ele>
        <time>2020-02-20T07:15:06Z</time>
      </trkpt>
      <trkpt lat="43.22116" lon="5.44385">
        <ele>209.7</ele>
        <time>2020-02-20T07:15:20Z</time>
      </trkpt>
      <trkpt lat="43.22114" lon="5.44391">
        <ele>210.19</ele>
        <time>2020-02-20T07:15:29Z</time>
      </trkpt>
      <trkpt lat="43.22111" lon="5.444">
        <ele>212.59</ele>
        <time>2020-02-20T07:15:40Z</time>
      </trkpt>
      <trkpt lat="43.22109" lon="5.44404">
        <ele>212.59</ele>
        <time>2020-02-20T07:15:44Z</time>
      </trkpt>
      <trkpt lat="43.22108" lon="5.44415">
        <ele>214.03</ele>
        <time>2020-02-20T07:15:55Z</time>
      </trkpt>
      <trkpt lat="43.22108" lon="5.44427">
        <ele>214.99</ele>
        <time>2020-02-20T07:16:06Z</time>
      </trkpt>
      <trkpt lat="43.22108" lon="5.44431">
        <ele>216.43</ele>
        <time>2020-02-20T07:16:11Z</time>
      </trkpt>
      <trkpt lat="43.22109" lon="5.44445">
        <ele>218.36</ele>
        <time>2020-02-20T07:16:23Z</time>
      </trkpt>
      <trkpt lat="43.22111" lon="5.44448">
        <ele>218.84</ele>
        <time>2020-02-20T07:16:27Z</time>
      </trkpt>
      <trkpt lat="43.22113" lon="5.44453">
        <ele>219.32</ele>
        <time>2020-02-20T07:16:32Z</time>
      </trkpt>
      <trkpt lat="43.22116" lon="5.44465">
        <ele>221.24</ele>
        <time>2020-02-20T07:16:43Z</time>
      </trkpt>
      <trkpt lat="43.22118" lon="5.44481">
        <ele>223.64</ele>
        <time>2020-02-20T07:16:58Z</time>
      </trkpt>
      <trkpt lat="43.22117" lon="5.44501">
        <ele>226.53</ele>
        <time>2020-02-20T07:17:15Z</time>
      </trkpt>
      <trkpt lat="43.22122" lon="5.44513">
        <ele>227.97</ele>
        <time>2020-02-20T07:17:34Z</time>
      </trkpt>
      <trkpt lat="43.22112" lon="5.44523">
        <ele>229.89</ele>
        <time>2020-02-20T07:17:51Z</time>
      </trkpt>
      <trkpt lat="43.22113" lon="5.44539">
        <ele>233.26</ele>
        <time>2020-02-20T07:18:07Z</time>
      </trkpt>
      <trkpt lat="43.22109" lon="5.44554">
        <ele>236.14</ele>
        <time>2020-02-20T07:18:23Z</time>
      </trkpt>
      <trkpt lat="43.22108" lon="5.44557">
        <ele>236.62</ele>
        <time>2020-02-20T07:18:26Z</time>
      </trkpt>
      <trkpt lat="43.22106" lon="5.44559">
        <ele>237.1</ele>
        <time>2020-02-20T07:18:31Z</time>
      </trkpt>
      <trkpt lat="43.22105" lon="5.4457">
        <ele>239.02</ele>
        <time>2020-02-20T07:18:44Z</time>
      </trkpt>
      <trkpt lat="43.22098" lon="5.44581">
        <ele>241.91</ele>
        <time>2020-02-20T07:19:01Z</time>
      </trkpt>
      <trkpt lat="43.22104" lon="5.44597">
        <ele>244.79</ele>
        <time>2020-02-20T07:19:19Z</time>
      </trkpt>
      <trkpt lat="43.22114" lon="5.4461">
        <ele>247.2</ele>
        <time>2020-02-20T07:19:38Z</time>
      </trkpt>
      <trkpt lat="43.22115" lon="5.44616">
        <ele>247.68</ele>
        <time>2020-02-20T07:19:56Z</time>
      </trkpt>
      <trkpt lat="43.22117" lon="5.44617">
        <ele>248.16</ele>
        <time>2020-02-20T07:20:14Z</time>
      </trkpt>
      <trkpt lat="43.22122" lon="5.44621">
        <ele>248.16</ele>
        <time>2020-02-20T07:20:29Z</time>
      </trkpt>
      <trkpt lat="43.22124" lon="5.44624">
        <ele>248.16</ele>
        <time>2020-02-20T07:20:50Z</time>
      </trkpt>
      <trkpt lat="43.22124" lon="5.44627">
        <ele>247.68</ele>
        <time>2020-02-20T07:21:04Z</time>
      </trkpt>
      <trkpt lat="43.22125" lon="5.44632">
        <ele>247.68</ele>
        <time>2020-02-20T07:21:16Z</time>
      </trkpt>
      <trkpt lat="43.22126" lon="5.44641">
        <ele>247.68</ele>
        <time>2020-02-20T07:21:31Z</time>
      </trkpt>
      <trkpt lat="43.2213" lon="5.44643">
        <ele>247.68</ele>
        <time>2020-02-20T07:21:46Z</time>
      </trkpt>
      <trkpt lat="43.22133" lon="5.44642">
        <ele>247.68</ele>
        <time>2020-02-20T07:22:03Z</time>
      </trkpt>
      <trkpt lat="43.22136" lon="5.44644">
        <ele>247.68</ele>
        <time>2020-02-20T07:22:26Z</time>
      </trkpt>
      <trkpt lat="43.2213" lon="5.4464">
        <ele>247.68</ele>
        <time>2020-02-20T07:22:44Z</time>
      </trkpt>
      <trkpt lat="43.22131" lon="5.44639">
        <ele>246.72</ele>
        <time>2020-02-20T07:23:22Z</time>
      </trkpt>
      <trkpt lat="43.22131" lon="5.44639">
        <ele>246.72</ele>
        <time>2020-02-20T07:23:59Z</time>
      </trkpt>
      <trkpt lat="43.22131" lon="5.44639">
        <ele>246.72</ele>
        <time>2020-02-20T07:24:30Z</time>
      </trkpt>
      <trkpt lat="43.22129" lon="5.44638">
        <ele>247.68</ele>
        <time>2020-02-20T07:24:56Z</time>
      </trkpt>
      <trkpt lat="43.22131" lon="5.44639">
        <ele>247.68</ele>
        <time>2020-02-20T07:25:19Z</time>
      </trkpt>
      <trkpt lat="43.2213" lon="5.4464">
        <ele>247.68</ele>
        <time>2020-02-20T07:25:52Z</time>
      </trkpt>
      <trkpt lat="43.22128" lon="5.44637">
        <ele>247.68</ele>
        <time>2020-02-20T07:26:04Z</time>
      </trkpt>
      <trkpt lat="43.22129" lon="5.44639">
        <ele>247.68</ele>
        <time>2020-02-20T07:26:18Z</time>
      </trkpt>
      <trkpt lat="43.2213" lon="5.44641">
        <ele>247.68</ele>
        <time>2020-02-20T07:26:20Z</time>
      </trkpt>
      <trkpt lat="43.22133" lon="5.44651">
        <ele>246.72</ele>
        <time>2020-02-20T07:26:28Z</time>
      </trkpt>
      <trkpt lat="43.22138" lon="5.44664">
        <ele>245.27</ele>
        <time>2020-02-20T07:26:43Z</time>
      </trkpt>
      <trkpt lat="43.22142" lon="5.44677">
        <ele>242.39</ele>
        <time>2020-02-20T07:26:59Z</time>
      </trkpt>
      <trkpt lat="43.22148" lon="5.44692">
        <ele>239.99</ele>
        <time>2020-02-20T07:27:12Z</time>
      </trkpt>
      <trkpt lat="43.2215" lon="5.44694">
        <ele>239.99</ele>
        <time>2020-02-20T07:27:14Z</time>
      </trkpt>
      <trkpt lat="43.22162" lon="5.44714">
        <ele>238.54</ele>
        <time>2020-02-20T07:27:32Z</time>
      </trkpt>
      <trkpt lat="43.22168" lon="5.4473">
        <ele>238.06</ele>
        <time>2020-02-20T07:27:47Z</time>
      </trkpt>
      <trkpt lat="43.22184" lon="5.44743">
        <ele>239.51</ele>
        <time>2020-02-20T07:28:05Z</time>
      </trkpt>
      <trkpt lat="43.22189" lon="5.44762">
        <ele>240.95</ele>
        <time>2020-02-20T07:28:23Z</time>
      </trkpt>
      <trkpt lat="43.2219" lon="5.44767">
        <ele>241.43</ele>
        <time>2020-02-20T07:28:38Z</time>
      </trkpt>
      <trkpt lat="43.2219" lon="5.44774">
        <ele>241.43</ele>
        <time>2020-02-20T07:29:02Z</time>
      </trkpt>
      <trkpt lat="43.2219" lon="5.44793">
        <ele>244.31</ele>
        <time>2020-02-20T07:29:19Z</time>
      </trkpt>
      <trkpt lat="43.2219" lon="5.4481">
        <ele>246.72</ele>
        <time>2020-02-20T07:29:36Z</time>
      </trkpt>
      <trkpt lat="43.22189" lon="5.44819">
        <ele>248.64</ele>
        <time>2020-02-20T07:29:53Z</time>
      </trkpt>
      <trkpt lat="43.22185" lon="5.44823">
        <ele>250.08</ele>
        <time>2020-02-20T07:30:09Z</time>
      </trkpt>
      <trkpt lat="43.2218" lon="5.44817">
        <ele>250.08</ele>
        <time>2020-02-20T07:30:40Z</time>
      </trkpt>
      <trkpt lat="43.22179" lon="5.44834">
        <ele>250.56</ele>
        <time>2020-02-20T07:30:50Z</time>
      </trkpt>
      <trkpt lat="43.22175" lon="5.44854">
        <ele>252.48</ele>
        <time>2020-02-20T07:31:05Z</time>
      </trkpt>
      <trkpt lat="43.22172" lon="5.44874">
        <ele>254.89</ele>
        <time>2020-02-20T07:31:21Z</time>
      </trkpt>
      <trkpt lat="43.22163" lon="5.44887">
        <ele>256.33</ele>
        <time>2020-02-20T07:31:36Z</time>
      </trkpt>
      <trkpt lat="43.22147" lon="5.44881">
        <ele>258.73</ele>
        <time>2020-02-20T07:31:55Z</time>
      </trkpt>
      <trkpt lat="43.22142" lon="5.44879">
        <ele>259.69</ele>
        <time>2020-02-20T07:32:01Z</time>
      </trkpt>
      <trkpt lat="43.22124" lon="5.44875">
        <ele>261.14</ele>
        <time>2020-02-20T07:32:20Z</time>
      </trkpt>
      <trkpt lat="43.22106" lon="5.44878">
        <ele>263.06</ele>
        <time>2020-02-20T07:32:37Z</time>
      </trkpt>
      <trkpt lat="43.22092" lon="5.4489">
        <ele>264.5</ele>
        <time>2020-02-20T07:32:54Z</time>
      </trkpt>
      <trkpt lat="43.22088" lon="5.44894">
        <ele>264.98</ele>
        <time>2020-02-20T07:33:09Z</time>
      </trkpt>
      <trkpt lat="43.22078" lon="5.44903">
        <ele>266.42</ele>
        <time>2020-02-20T07:33:25Z</time>
      </trkpt>
      <trkpt lat="43.22065" lon="5.44916">
        <ele>268.35</ele>
        <time>2020-02-20T07:33:42Z</time>
      </trkpt>
      <trkpt lat="43.22055" lon="5.44923">
        <ele>269.31</ele>
        <time>2020-02-20T07:33:57Z</time>
      </trkpt>
      <trkpt lat="43.22039" lon="5.44922">
        <ele>270.75</ele>
        <time>2020-02-20T07:34:14Z</time>
      </trkpt>
      <trkpt lat="43.22022" lon="5.44918">
        <ele>272.19</ele>
        <time>2020-02-20T07:34:33Z</time>
      </trkpt>
      <trkpt lat="43.22005" lon="5.44916">
        <ele>273.63</ele>
        <time>2020-02-20T07:34:51Z</time>
      </trkpt>
      <trkpt lat="43.2199" lon="5.4492">
        <ele>275.56</ele>
        <time>2020-02-20T07:35:07Z</time>
      </trkpt>
      <trkpt lat="43.21987" lon="5.44922">
        <ele>275.56</ele>
        <time>2020-02-20T07:35:28Z</time>
      </trkpt>
      <trkpt lat="43.21988" lon="5.44918">
        <ele>275.56</ele>
        <time>2020-02-20T07:35:59Z</time>
      </trkpt>
      <trkpt lat="43.21985" lon="5.44916">
        <ele>275.56</ele>
        <time>2020-02-20T07:36:30Z</time>
      </trkpt>
      <trkpt lat="43.21986" lon="5.44939">
        <ele>276.04</ele>
        <time>2020-02-20T07:36:50Z</time>
      </trkpt>
      <trkpt lat="43.21985" lon="5.44947">
        <ele>276.52</ele>
        <time>2020-02-20T07:36:56Z</time>
      </trkpt>
      <trkpt lat="43.21985" lon="5.44953">
        <ele>276.52</ele>
        <time>2020-02-20T07:37:02Z</time>
      </trkpt>
      <trkpt lat="43.21978" lon="5.44972">
        <ele>277.96</ele>
        <time>2020-02-20T07:37:16Z</time>
      </trkpt>
      <trkpt lat="43.21972" lon="5.44977">
        <ele>277.96</ele>
        <time>2020-02-20T07:37:23Z</time>
      </trkpt>
      <trkpt lat="43.21958" lon="5.44974">
        <ele>279.4</ele>
        <time>2020-02-20T07:37:38Z</time>
      </trkpt>
      <trkpt lat="43.21953" lon="5.44977">
        <ele>279.88</ele>
        <time>2020-02-20T07:37:41Z</time>
      </trkpt>
      <trkpt lat="43.21951" lon="5.44978">
        <ele>279.88</ele>
        <time>2020-02-20T07:37:42Z</time>
      </trkpt>
      <trkpt lat="43.2195" lon="5.44979">
        <ele>279.88</ele>
        <time>2020-02-20T07:37:43Z</time>
      </trkpt>
      <trkpt lat="43.21949" lon="5.44979">
        <ele>279.88</ele>
        <time>2020-02-20T07:37:44Z</time>
      </trkpt>
      <trkpt lat="43.21945" lon="5.44981">
        <ele>280.84</ele>
        <time>2020-02-20T07:37:51Z</time>
      </trkpt>
      <trkpt lat="43.21939" lon="5.44991">
        <ele>282.28</ele>
        <time>2020-02-20T07:38:01Z</time>
      </trkpt>
      <trkpt lat="43.21939" lon="5.44994">
        <ele>282.28</ele>
        <time>2020-02-20T07:38:03Z</time>
      </trkpt>
      <trkpt lat="43.21939" lon="5.44996">
        <ele>282.77</ele>
        <time>2020-02-20T07:38:04Z</time>
      </trkpt>
      <trkpt lat="43.2194" lon="5.44999">
        <ele>282.77</ele>
        <time>2020-02-20T07:38:05Z</time>
      </trkpt>
      <trkpt lat="43.21941" lon="5.45003">
        <ele>282.77</ele>
        <time>2020-02-20T07:38:09Z</time>
      </trkpt>
      <trkpt lat="43.21947" lon="5.45021">
        <ele>284.21</ele>
        <time>2020-02-20T07:38:19Z</time>
      </trkpt>
      <trkpt lat="43.21946" lon="5.45024">
        <ele>285.17</ele>
        <time>2020-02-20T07:38:26Z</time>
      </trkpt>
      <trkpt lat="43.21947" lon="5.45026">
        <ele>285.17</ele>
        <time>2020-02-20T07:38:27Z</time>
      </trkpt>
      <trkpt lat="43.21947" lon="5.45027">
        <ele>285.17</ele>
        <time>2020-02-20T07:38:28Z</time>
      </trkpt>
      <trkpt lat="43.21946" lon="5.45031">
        <ele>285.65</ele>
        <time>2020-02-20T07:38:32Z</time>
      </trkpt>
      <trkpt lat="43.2195" lon="5.45038">
        <ele>286.61</ele>
        <time>2020-02-20T07:38:44Z</time>
      </trkpt>
      <trkpt lat="43.21955" lon="5.4504">
        <ele>289.49</ele>
        <time>2020-02-20T07:38:56Z</time>
      </trkpt>
      <trkpt lat="43.21959" lon="5.45044">
        <ele>291.9</ele>
        <time>2020-02-20T07:39:10Z</time>
      </trkpt>
      <trkpt lat="43.21965" lon="5.45049">
        <ele>294.78</ele>
        <time>2020-02-20T07:39:23Z</time>
      </trkpt>
      <trkpt lat="43.21967" lon="5.45049">
        <ele>295.26</ele>
        <time>2020-02-20T07:39:35Z</time>
      </trkpt>
      <trkpt lat="43.21976" lon="5.45047">
        <ele>298.63</ele>
        <time>2020-02-20T07:39:51Z</time>
      </trkpt>
      <trkpt lat="43.21984" lon="5.45039">
        <ele>300.07</ele>
        <time>2020-02-20T07:40:05Z</time>
      </trkpt>
      <trkpt lat="43.21987" lon="5.45036">
        <ele>301.51</ele>
        <time>2020-02-20T07:40:18Z</time>
      </trkpt>
      <trkpt lat="43.21993" lon="5.45039">
        <ele>301.99</ele>
        <time>2020-02-20T07:40:33Z</time>
      </trkpt>
      <trkpt lat="43.21992" lon="5.45038">
        <ele>302.47</ele>
        <time>2020-02-20T07:40:51Z</time>
      </trkpt>
      <trkpt lat="43.21991" lon="5.45038">
        <ele>302.47</ele>
        <time>2020-02-20T07:41:19Z</time>
      </trkpt>
      <trkpt lat="43.21987" lon="5.45047">
        <ele>302.47</ele>
        <time>2020-02-20T07:41:50Z</time>
      </trkpt>
      <trkpt lat="43.21984" lon="5.4506">
        <ele>303.43</ele>
        <time>2020-02-20T07:42:05Z</time>
      </trkpt>
      <trkpt lat="43.21988" lon="5.45072">
        <ele>305.84</ele>
        <time>2020-02-20T07:42:20Z</time>
      </trkpt>
      <trkpt lat="43.21992" lon="5.45084">
        <ele>308.24</ele>
        <time>2020-02-20T07:42:36Z</time>
      </trkpt>
      <trkpt lat="43.21993" lon="5.45084">
        <ele>309.68</ele>
        <time>2020-02-20T07:42:55Z</time>
      </trkpt>
      <trkpt lat="43.21991" lon="5.45086">
        <ele>309.2</ele>
        <time>2020-02-20T07:43:27Z</time>
      </trkpt>
      <trkpt lat="43.21992" lon="5.45091">
        <ele>309.68</ele>
        <time>2020-02-20T07:43:39Z</time>
      </trkpt>
      <trkpt lat="43.21992" lon="5.45096">
        <ele>310.16</ele>
        <time>2020-02-20T07:43:43Z</time>
      </trkpt>
      <trkpt lat="43.21991" lon="5.45101">
        <ele>311.6</ele>
        <time>2020-02-20T07:43:47Z</time>
      </trkpt>
      <trkpt lat="43.2199" lon="5.45103">
        <ele>311.6</ele>
        <time>2020-02-20T07:43:48Z</time>
      </trkpt>
      <trkpt lat="43.2199" lon="5.45108">
        <ele>312.09</ele>
        <time>2020-02-20T07:43:52Z</time>
      </trkpt>
      <trkpt lat="43.2199" lon="5.45109">
        <ele>312.57</ele>
        <time>2020-02-20T07:43:53Z</time>
      </trkpt>
      <trkpt lat="43.21997" lon="5.45123">
        <ele>314.97</ele>
        <time>2020-02-20T07:44:07Z</time>
      </trkpt>
      <trkpt lat="43.22001" lon="5.45135">
        <ele>316.89</ele>
        <time>2020-02-20T07:44:22Z</time>
      </trkpt>
      <trkpt lat="43.22005" lon="5.45139">
        <ele>318.33</ele>
        <time>2020-02-20T07:44:33Z</time>
      </trkpt>
      <trkpt lat="43.2201" lon="5.45144">
        <ele>319.78</ele>
        <time>2020-02-20T07:44:50Z</time>
      </trkpt>
      <trkpt lat="43.22012" lon="5.45144">
        <ele>320.74</ele>
        <time>2020-02-20T07:45:15Z</time>
      </trkpt>
      <trkpt lat="43.22012" lon="5.45144">
        <ele>320.74</ele>
        <time>2020-02-20T07:45:30Z</time>
      </trkpt>
      <trkpt lat="43.22011" lon="5.45144">
        <ele>320.74</ele>
        <time>2020-02-20T07:46:00Z</time>
      </trkpt>
      <trkpt lat="43.22011" lon="5.45144">
        <ele>320.74</ele>
        <time>2020-02-20T07:46:20Z</time>
      </trkpt>
      <trkpt lat="43.22013" lon="5.45144">
        <ele>320.74</ele>
        <time>2020-02-20T07:46:49Z</time>
      </trkpt>
      <trkpt lat="43.22015" lon="5.45142">
        <ele>320.74</ele>
        <time>2020-02-20T07:47:04Z</time>
      </trkpt>
      <trkpt lat="43.22026" lon="5.45138">
        <ele>322.18</ele>
        <time>2020-02-20T07:47:19Z</time>
      </trkpt>
      <trkpt lat="43.22045" lon="5.45132">
        <ele>324.1</ele>
        <time>2020-02-20T07:47:38Z</time>
      </trkpt>
      <trkpt lat="43.22066" lon="5.45126">
        <ele>326.99</ele>
        <time>2020-02-20T07:47:58Z</time>
      </trkpt>
      <trkpt lat="43.22079" lon="5.45119">
        <ele>327.95</ele>
        <time>2020-02-20T07:48:14Z</time>
      </trkpt>
      <trkpt lat="43.22083" lon="5.45118">
        <ele>328.43</ele>
        <time>2020-02-20T07:48:19Z</time>
      </trkpt>
      <trkpt lat="43.22091" lon="5.45113">
        <ele>328.91</ele>
        <time>2020-02-20T07:48:27Z</time>
      </trkpt>
      <trkpt lat="43.22105" lon="5.45102">
        <ele>330.83</ele>
        <time>2020-02-20T07:48:43Z</time>
      </trkpt>
      <trkpt lat="43.22114" lon="5.45096">
        <ele>331.79</ele>
        <time>2020-02-20T07:48:57Z</time>
      </trkpt>
      <trkpt lat="43.22126" lon="5.45096">
        <ele>332.75</ele>
        <time>2020-02-20T07:49:12Z</time>
      </trkpt>
      <trkpt lat="43.22144" lon="5.45092">
        <ele>334.68</ele>
        <time>2020-02-20T07:49:30Z</time>
      </trkpt>
      <trkpt lat="43.22154" lon="5.45093">
        <ele>336.12</ele>
        <time>2020-02-20T07:49:40Z</time>
      </trkpt>
      <trkpt lat="43.22171" lon="5.45095">
        <ele>338.04</ele>
        <time>2020-02-20T07:49:58Z</time>
      </trkpt>
      <trkpt lat="43.2219" lon="5.45096">
        <ele>339.96</ele>
        <time>2020-02-20T07:50:17Z</time>
      </trkpt>
      <trkpt lat="43.2221" lon="5.45099">
        <ele>340.92</ele>
        <time>2020-02-20T07:50:36Z</time>
      </trkpt>
      <trkpt lat="43.2223" lon="5.45103">
        <ele>342.37</ele>
        <time>2020-02-20T07:50:55Z</time>
      </trkpt>
      <trkpt lat="43.22252" lon="5.45099">
        <ele>344.29</ele>
        <time>2020-02-20T07:51:15Z</time>
      </trkpt>
      <trkpt lat="43.22267" lon="5.45091">
        <ele>346.69</ele>
        <time>2020-02-20T07:51:32Z</time>
      </trkpt>
      <trkpt lat="43.22275" lon="5.45089">
        <ele>347.17</ele>
        <time>2020-02-20T07:51:40Z</time>
      </trkpt>
      <trkpt lat="43.22293" lon="5.45089">
        <ele>348.62</ele>
        <time>2020-02-20T07:51:57Z</time>
      </trkpt>
      <trkpt lat="43.22313" lon="5.45087">
        <ele>350.54</ele>
        <time>2020-02-20T07:52:17Z</time>
      </trkpt>
      <trkpt lat="43.22332" lon="5.45085">
        <ele>352.94</ele>
        <time>2020-02-20T07:52:37Z</time>
      </trkpt>
      <trkpt lat="43.22349" lon="5.45081">
        <ele>355.34</ele>
        <time>2020-02-20T07:52:54Z</time>
      </trkpt>
      <trkpt lat="43.22352" lon="5.45081">
        <ele>355.34</ele>
        <time>2020-02-20T07:52:57Z</time>
      </trkpt>
      <trkpt lat="43.22354" lon="5.45081">
        <ele>355.83</ele>
        <time>2020-02-20T07:52:59Z</time>
      </trkpt>
      <trkpt lat="43.2237" lon="5.45078">
        <ele>357.75</ele>
        <time>2020-02-20T07:53:17Z</time>
      </trkpt>
      <trkpt lat="43.22387" lon="5.45084">
        <ele>360.15</ele>
        <time>2020-02-20T07:53:36Z</time>
      </trkpt>
      <trkpt lat="43.22395" lon="5.45091">
        <ele>362.07</ele>
        <time>2020-02-20T07:53:47Z</time>
      </trkpt>
      <trkpt lat="43.22398" lon="5.45095">
        <ele>362.55</ele>
        <time>2020-02-20T07:53:51Z</time>
      </trkpt>
      <trkpt lat="43.22403" lon="5.45102">
        <ele>362.55</ele>
        <time>2020-02-20T07:53:58Z</time>
      </trkpt>
      <trkpt lat="43.22417" lon="5.4512">
        <ele>363.52</ele>
        <time>2020-02-20T07:54:17Z</time>
      </trkpt>
      <trkpt lat="43.22433" lon="5.45139">
        <ele>365.92</ele>
        <time>2020-02-20T07:54:39Z</time>
      </trkpt>
      <trkpt lat="43.22435" lon="5.45143">
        <ele>366.88</ele>
        <time>2020-02-20T07:54:43Z</time>
      </trkpt>
      <trkpt lat="43.22445" lon="5.45157">
        <ele>367.84</ele>
        <time>2020-02-20T07:54:58Z</time>
      </trkpt>
      <trkpt lat="43.22463" lon="5.45158">
        <ele>369.28</ele>
        <time>2020-02-20T07:55:19Z</time>
      </trkpt>
      <trkpt lat="43.22478" lon="5.45156">
        <ele>372.17</ele>
        <time>2020-02-20T07:55:35Z</time>
      </trkpt>
      <trkpt lat="43.22496" lon="5.45162">
        <ele>372.65</ele>
        <time>2020-02-20T07:55:53Z</time>
      </trkpt>
      <trkpt lat="43.2251" lon="5.45165">
        <ele>374.09</ele>
        <time>2020-02-20T07:56:08Z</time>
      </trkpt>
      <trkpt lat="43.22525" lon="5.4517">
        <ele>376.01</ele>
        <time>2020-02-20T07:56:24Z</time>
      </trkpt>
      <trkpt lat="43.22529" lon="5.45167">
        <ele>376.01</ele>
        <time>2020-02-20T07:56:27Z</time>
      </trkpt>
      <trkpt lat="43.22532" lon="5.45157">
        <ele>376.01</ele>
        <time>2020-02-20T07:56:44Z</time>
      </trkpt>
      <trkpt lat="43.22532" lon="5.45158">
        <ele>376.01</ele>
        <time>2020-02-20T07:57:17Z</time>
      </trkpt>
      <trkpt lat="43.22532" lon="5.45162">
        <ele>376.49</ele>
        <time>2020-02-20T07:57:36Z</time>
      </trkpt>
      <trkpt lat="43.22532" lon="5.45163">
        <ele>376.49</ele>
        <time>2020-02-20T07:57:58Z</time>
      </trkpt>
      <trkpt lat="43.22533" lon="5.45164">
        <ele>375.05</ele>
        <time>2020-02-20T07:58:10Z</time>
      </trkpt>
      <trkpt lat="43.22538" lon="5.45175">
        <ele>375.05</ele>
        <time>2020-02-20T07:58:26Z</time>
      </trkpt>
      <trkpt lat="43.22543" lon="5.4518">
        <ele>376.49</ele>
        <time>2020-02-20T07:58:42Z</time>
      </trkpt>
      <trkpt lat="43.22546" lon="5.45185">
        <ele>376.49</ele>
        <time>2020-02-20T07:59:00Z</time>
      </trkpt>
      <trkpt lat="43.22549" lon="5.45193">
        <ele>376.49</ele>
        <time>2020-02-20T07:59:26Z</time>
      </trkpt>
      <trkpt lat="43.22562" lon="5.45212">
        <ele>375.05</ele>
        <time>2020-02-20T07:59:49Z</time>
      </trkpt>
      <trkpt lat="43.22564" lon="5.45215">
        <ele>375.53</ele>
        <time>2020-02-20T08:00:06Z</time>
      </trkpt>
      <trkpt lat="43.22563" lon="5.45224">
        <ele>375.05</ele>
        <time>2020-02-20T08:00:42Z</time>
      </trkpt>
      <trkpt lat="43.22568" lon="5.45257">
        <ele>372.17</ele>
        <time>2020-02-20T08:01:08Z</time>
      </trkpt>
      <trkpt lat="43.22562" lon="5.45266">
        <ele>372.17</ele>
        <time>2020-02-20T08:01:28Z</time>
      </trkpt>
      <trkpt lat="43.22558" lon="5.45294">
        <ele>371.21</ele>
        <time>2020-02-20T08:01:48Z</time>
      </trkpt>
      <trkpt lat="43.22557" lon="5.45298">
        <ele>371.21</ele>
        <time>2020-02-20T08:02:13Z</time>
      </trkpt>
      <trkpt lat="43.22559" lon="5.45315">
        <ele>370.73</ele>
        <time>2020-02-20T08:02:29Z</time>
      </trkpt>
      <trkpt lat="43.22566" lon="5.45336">
        <ele>370.73</ele>
        <time>2020-02-20T08:02:46Z</time>
      </trkpt>
      <trkpt lat="43.22572" lon="5.45345">
        <ele>370.73</ele>
        <time>2020-02-20T08:02:54Z</time>
      </trkpt>
      <trkpt lat="43.22573" lon="5.45352">
        <ele>370.73</ele>
        <time>2020-02-20T08:02:58Z</time>
      </trkpt>
      <trkpt lat="43.22578" lon="5.45374">
        <ele>371.21</ele>
        <time>2020-02-20T08:03:13Z</time>
      </trkpt>
      <trkpt lat="43.22583" lon="5.45381">
        <ele>371.21</ele>
        <time>2020-02-20T08:03:20Z</time>
      </trkpt>
      <trkpt lat="43.22598" lon="5.45403">
        <ele>372.17</ele>
        <time>2020-02-20T08:03:39Z</time>
      </trkpt>
      <trkpt lat="43.22602" lon="5.45404">
        <ele>372.17</ele>
        <time>2020-02-20T08:03:54Z</time>
      </trkpt>
      <trkpt lat="43.22607" lon="5.45407">
        <ele>372.17</ele>
        <time>2020-02-20T08:04:17Z</time>
      </trkpt>
      <trkpt lat="43.22603" lon="5.4541">
        <ele>372.17</ele>
        <time>2020-02-20T08:04:43Z</time>
      </trkpt>
      <trkpt lat="43.2262" lon="5.45415">
        <ele>372.17</ele>
        <time>2020-02-20T08:05:02Z</time>
      </trkpt>
      <trkpt lat="43.22632" lon="5.45422">
        <ele>372.17</ele>
        <time>2020-02-20T08:05:18Z</time>
      </trkpt>
      <trkpt lat="43.22641" lon="5.45438">
        <ele>372.17</ele>
        <time>2020-02-20T08:05:33Z</time>
      </trkpt>
      <trkpt lat="43.22657" lon="5.45446">
        <ele>372.17</ele>
        <time>2020-02-20T08:05:48Z</time>
      </trkpt>
      <trkpt lat="43.22677" lon="5.45444">
        <ele>373.61</ele>
        <time>2020-02-20T08:06:05Z</time>
      </trkpt>
      <trkpt lat="43.22691" lon="5.45447">
        <ele>375.53</ele>
        <time>2020-02-20T08:06:23Z</time>
      </trkpt>
      <trkpt lat="43.22688" lon="5.45448">
        <ele>376.01</ele>
        <time>2020-02-20T08:06:40Z</time>
      </trkpt>
      <trkpt lat="43.22704" lon="5.45462">
        <ele>376.49</ele>
        <time>2020-02-20T08:06:57Z</time>
      </trkpt>
      <trkpt lat="43.22711" lon="5.45475">
        <ele>376.49</ele>
        <time>2020-02-20T08:07:15Z</time>
      </trkpt>
      <trkpt lat="43.22714" lon="5.45498">
        <ele>376.49</ele>
        <time>2020-02-20T08:07:31Z</time>
      </trkpt>
      <trkpt lat="43.22719" lon="5.45518">
        <ele>376.97</ele>
        <time>2020-02-20T08:07:45Z</time>
      </trkpt>
      <trkpt lat="43.22738" lon="5.4552">
        <ele>378.42</ele>
        <time>2020-02-20T08:08:01Z</time>
      </trkpt>
      <trkpt lat="43.2275" lon="5.45512">
        <ele>379.38</ele>
        <time>2020-02-20T08:08:16Z</time>
      </trkpt>
      <trkpt lat="43.22769" lon="5.45501">
        <ele>382.26</ele>
        <time>2020-02-20T08:08:35Z</time>
      </trkpt>
      <trkpt lat="43.22789" lon="5.45498">
        <ele>385.15</ele>
        <time>2020-02-20T08:08:56Z</time>
      </trkpt>
      <trkpt lat="43.22792" lon="5.45497">
        <ele>385.63</ele>
        <time>2020-02-20T08:09:14Z</time>
      </trkpt>
      <trkpt lat="43.22792" lon="5.45497">
        <ele>385.63</ele>
        <time>2020-02-20T08:09:38Z</time>
      </trkpt>
      <trkpt lat="43.2279" lon="5.45502">
        <ele>385.63</ele>
        <time>2020-02-20T08:09:56Z</time>
      </trkpt>
      <trkpt lat="43.2279" lon="5.45502">
        <ele>385.63</ele>
        <time>2020-02-20T08:10:20Z</time>
      </trkpt>
      <trkpt lat="43.22791" lon="5.45501">
        <ele>385.63</ele>
        <time>2020-02-20T08:10:33Z</time>
      </trkpt>
      <trkpt lat="43.2279" lon="5.455">
        <ele>386.59</ele>
        <time>2020-02-20T08:10:54Z</time>
      </trkpt>
      <trkpt lat="43.22789" lon="5.45504">
        <ele>387.07</ele>
        <time>2020-02-20T08:11:18Z</time>
      </trkpt>
      <trkpt lat="43.22789" lon="5.45503">
        <ele>388.03</ele>
        <time>2020-02-20T08:11:34Z</time>
      </trkpt>
      <trkpt lat="43.22789" lon="5.45502">
        <ele>388.03</ele>
        <time>2020-02-20T08:11:55Z</time>
      </trkpt>
      <trkpt lat="43.22788" lon="5.45509">
        <ele>388.51</ele>
        <time>2020-02-20T08:12:13Z</time>
      </trkpt>
      <trkpt lat="43.2278" lon="5.45521">
        <ele>390.43</ele>
        <time>2020-02-20T08:12:28Z</time>
      </trkpt>
      <trkpt lat="43.22774" lon="5.45525">
        <ele>391.39</ele>
        <time>2020-02-20T08:12:34Z</time>
      </trkpt>
      <trkpt lat="43.22762" lon="5.45538">
        <ele>392.84</ele>
        <time>2020-02-20T08:12:51Z</time>
      </trkpt>
      <trkpt lat="43.22751" lon="5.45544">
        <ele>394.28</ele>
        <time>2020-02-20T08:13:07Z</time>
      </trkpt>
      <trkpt lat="43.22744" lon="5.45554">
        <ele>397.16</ele>
        <time>2020-02-20T08:13:22Z</time>
      </trkpt>
      <trkpt lat="43.22736" lon="5.45556">
        <ele>398.12</ele>
        <time>2020-02-20T08:13:33Z</time>
      </trkpt>
      <trkpt lat="43.22724" lon="5.45556">
        <ele>398.12</ele>
        <time>2020-02-20T08:13:48Z</time>
      </trkpt>
      <trkpt lat="43.22715" lon="5.45552">
        <ele>399.08</ele>
        <time>2020-02-20T08:14:00Z</time>
      </trkpt>
      <trkpt lat="43.22704" lon="5.45548">
        <ele>400.05</ele>
        <time>2020-02-20T08:14:16Z</time>
      </trkpt>
      <trkpt lat="43.22702" lon="5.45546">
        <ele>400.53</ele>
        <time>2020-02-20T08:14:19Z</time>
      </trkpt>
      <trkpt lat="43.22692" lon="5.45536">
        <ele>402.45</ele>
        <time>2020-02-20T08:14:33Z</time>
      </trkpt>
      <trkpt lat="43.2268" lon="5.45527">
        <ele>404.85</ele>
        <time>2020-02-20T08:14:50Z</time>
      </trkpt>
      <trkpt lat="43.22671" lon="5.45526">
        <ele>406.77</ele>
        <time>2020-02-20T08:15:07Z</time>
      </trkpt>
      <trkpt lat="43.22668" lon="5.45525">
        <ele>410.14</ele>
        <time>2020-02-20T08:15:21Z</time>
      </trkpt>
      <trkpt lat="43.22663" lon="5.45528">
        <ele>413.02</ele>
        <time>2020-02-20T08:15:37Z</time>
      </trkpt>
      <trkpt lat="43.22658" lon="5.45529">
        <ele>415.91</ele>
        <time>2020-02-20T08:15:50Z</time>
      </trkpt>
      <trkpt lat="43.22652" lon="5.45526">
        <ele>416.87</ele>
        <time>2020-02-20T08:16:05Z</time>
      </trkpt>
      <trkpt lat="43.2265" lon="5.45523">
        <ele>417.35</ele>
        <time>2020-02-20T08:16:24Z</time>
      </trkpt>
      <trkpt lat="43.22648" lon="5.45529">
        <ele>417.83</ele>
        <time>2020-02-20T08:16:44Z</time>
      </trkpt>
      <trkpt lat="43.22646" lon="5.45529">
        <ele>418.79</ele>
        <time>2020-02-20T08:17:08Z</time>
      </trkpt>
      <trkpt lat="43.22642" lon="5.45534">
        <ele>421.68</ele>
        <time>2020-02-20T08:17:23Z</time>
      </trkpt>
      <trkpt lat="43.22632" lon="5.45536">
        <ele>422.16</ele>
        <time>2020-02-20T08:17:38Z</time>
      </trkpt>
      <trkpt lat="43.22619" lon="5.45539">
        <ele>424.08</ele>
        <time>2020-02-20T08:17:55Z</time>
      </trkpt>
      <trkpt lat="43.22613" lon="5.45541">
        <ele>427.44</ele>
        <time>2020-02-20T08:18:09Z</time>
      </trkpt>
      <trkpt lat="43.2261" lon="5.45546">
        <ele>429.37</ele>
        <time>2020-02-20T08:18:26Z</time>
      </trkpt>
      <trkpt lat="43.22607" lon="5.45543">
        <ele>431.29</ele>
        <time>2020-02-20T08:18:43Z</time>
      </trkpt>
      <trkpt lat="43.22607" lon="5.45541">
        <ele>432.73</ele>
        <time>2020-02-20T08:19:09Z</time>
      </trkpt>
      <trkpt lat="43.22596" lon="5.45542">
        <ele>435.13</ele>
        <time>2020-02-20T08:19:26Z</time>
      </trkpt>
      <trkpt lat="43.22587" lon="5.45542">
        <ele>437.06</ele>
        <time>2020-02-20T08:19:36Z</time>
      </trkpt>
      <trkpt lat="43.2257" lon="5.4554">
        <ele>438.98</ele>
        <time>2020-02-20T08:19:55Z</time>
      </trkpt>
      <trkpt lat="43.226" lon="5.45549">
        <ele>440.42</ele>
        <time>2020-02-20T08:20:20Z</time>
      </trkpt>
      <trkpt lat="43.22597" lon="5.4555">
        <ele>443.79</ele>
        <time>2020-02-20T08:20:33Z</time>
      </trkpt>
      <trkpt lat="43.22572" lon="5.45546">
        <ele>445.23</ele>
        <time>2020-02-20T08:20:57Z</time>
      </trkpt>
      <trkpt lat="43.22568" lon="5.45551">
        <ele>446.67</ele>
        <time>2020-02-20T08:21:20Z</time>
      </trkpt>
      <trkpt lat="43.22552" lon="5.45548">
        <ele>448.59</ele>
        <time>2020-02-20T08:21:36Z</time>
      </trkpt>
      <trkpt lat="43.22548" lon="5.4555">
        <ele>447.15</ele>
        <time>2020-02-20T08:21:41Z</time>
      </trkpt>
      <trkpt lat="43.22548" lon="5.4555">
        <ele>450.52</ele>
        <time>2020-02-20T08:21:42Z</time>
      </trkpt>
      <trkpt lat="43.22547" lon="5.45549">
        <ele>449.07</ele>
        <time>2020-02-20T08:21:44Z</time>
      </trkpt>
      <trkpt lat="43.22539" lon="5.45558">
        <ele>450.52</ele>
        <time>2020-02-20T08:21:51Z</time>
      </trkpt>
      <trkpt lat="43.22537" lon="5.45561">
        <ele>452.44</ele>
        <time>2020-02-20T08:22:07Z</time>
      </trkpt>
      <trkpt lat="43.2253" lon="5.45565">
        <ele>455.32</ele>
        <time>2020-02-20T08:22:27Z</time>
      </trkpt>
      <trkpt lat="43.22526" lon="5.45558">
        <ele>458.69</ele>
        <time>2020-02-20T08:22:40Z</time>
      </trkpt>
      <trkpt lat="43.22524" lon="5.45549">
        <ele>461.09</ele>
        <time>2020-02-20T08:22:54Z</time>
      </trkpt>
      <trkpt lat="43.22523" lon="5.45548">
        <ele>461.09</ele>
        <time>2020-02-20T08:22:55Z</time>
      </trkpt>
      <trkpt lat="43.22513" lon="5.45546">
        <ele>463.49</ele>
        <time>2020-02-20T08:23:08Z</time>
      </trkpt>
      <trkpt lat="43.22536" lon="5.45557">
        <ele>465.9</ele>
        <time>2020-02-20T08:23:22Z</time>
      </trkpt>
      <trkpt lat="43.22538" lon="5.45551">
        <ele>468.3</ele>
        <time>2020-02-20T08:23:40Z</time>
      </trkpt>
      <trkpt lat="43.22543" lon="5.45535">
        <ele>469.74</ele>
        <time>2020-02-20T08:23:58Z</time>
      </trkpt>
      <trkpt lat="43.22543" lon="5.45533">
        <ele>469.74</ele>
        <time>2020-02-20T08:24:11Z</time>
      </trkpt>
      <trkpt lat="43.22548" lon="5.45534">
        <ele>471.66</ele>
        <time>2020-02-20T08:24:24Z</time>
      </trkpt>
      <trkpt lat="43.22553" lon="5.4553">
        <ele>470.22</ele>
        <time>2020-02-20T08:24:38Z</time>
      </trkpt>
      <trkpt lat="43.22548" lon="5.45529">
        <ele>470.22</ele>
        <time>2020-02-20T08:25:08Z</time>
      </trkpt>
      <trkpt lat="43.22546" lon="5.45525">
        <ele>470.22</ele>
        <time>2020-02-20T08:25:28Z</time>
      </trkpt>
      <trkpt lat="43.22542" lon="5.45522">
        <ele>470.22</ele>
        <time>2020-02-20T08:25:42Z</time>
      </trkpt>
      <trkpt lat="43.22539" lon="5.45518">
        <ele>470.7</ele>
        <time>2020-02-20T08:26:07Z</time>
      </trkpt>
      <trkpt lat="43.22538" lon="5.45526">
        <ele>470.7</ele>
        <time>2020-02-20T08:26:23Z</time>
      </trkpt>
      <trkpt lat="43.22548" lon="5.45533">
        <ele>471.66</ele>
        <time>2020-02-20T08:26:35Z</time>
      </trkpt>
      <trkpt lat="43.22546" lon="5.45529">
        <ele>473.59</ele>
        <time>2020-02-20T08:26:51Z</time>
      </trkpt>
      <trkpt lat="43.22544" lon="5.45526">
        <ele>475.99</ele>
        <time>2020-02-20T08:27:08Z</time>
      </trkpt>
      <trkpt lat="43.22541" lon="5.45524">
        <ele>476.47</ele>
        <time>2020-02-20T08:27:28Z</time>
      </trkpt>
      <trkpt lat="43.22538" lon="5.45523">
        <ele>476.47</ele>
        <time>2020-02-20T08:27:43Z</time>
      </trkpt>
      <trkpt lat="43.22538" lon="5.45526">
        <ele>478.39</ele>
        <time>2020-02-20T08:28:07Z</time>
      </trkpt>
      <trkpt lat="43.22537" lon="5.45532">
        <ele>479.84</ele>
        <time>2020-02-20T08:28:21Z</time>
      </trkpt>
      <trkpt lat="43.22534" lon="5.45532">
        <ele>481.28</ele>
        <time>2020-02-20T08:28:38Z</time>
      </trkpt>
      <trkpt lat="43.22531" lon="5.45534">
        <ele>482.24</ele>
        <time>2020-02-20T08:28:52Z</time>
      </trkpt>
      <trkpt lat="43.2253" lon="5.4553">
        <ele>482.72</ele>
        <time>2020-02-20T08:29:14Z</time>
      </trkpt>
      <trkpt lat="43.22527" lon="5.45532">
        <ele>482.72</ele>
        <time>2020-02-20T08:29:20Z</time>
      </trkpt>
      <trkpt lat="43.22523" lon="5.4554">
        <ele>485.12</ele>
        <time>2020-02-20T08:29:37Z</time>
      </trkpt>
      <trkpt lat="43.22521" lon="5.45543">
        <ele>487.53</ele>
        <time>2020-02-20T08:29:51Z</time>
      </trkpt>
      <trkpt lat="43.22521" lon="5.45544">
        <ele>488.49</ele>
        <time>2020-02-20T08:29:53Z</time>
      </trkpt>
      <trkpt lat="43.22522" lon="5.45549">
        <ele>489.93</ele>
        <time>2020-02-20T08:30:08Z</time>
      </trkpt>
      <trkpt lat="43.22515" lon="5.45552">
        <ele>492.81</ele>
        <time>2020-02-20T08:30:26Z</time>
      </trkpt>
      <trkpt lat="43.22521" lon="5.45559">
        <ele>494.26</ele>
        <time>2020-02-20T08:30:41Z</time>
      </trkpt>
      <trkpt lat="43.22525" lon="5.4556">
        <ele>496.18</ele>
        <time>2020-02-20T08:31:00Z</time>
      </trkpt>
      <trkpt lat="43.2253" lon="5.45566">
        <ele>499.06</ele>
        <time>2020-02-20T08:31:23Z</time>
      </trkpt>
      <trkpt lat="43.22527" lon="5.4557">
        <ele>501.46</ele>
        <time>2020-02-20T08:31:40Z</time>
      </trkpt>
      <trkpt lat="43.22526" lon="5.45571">
        <ele>502.43</ele>
        <time>2020-02-20T08:31:53Z</time>
      </trkpt>
      <trkpt lat="43.22524" lon="5.45573">
        <ele>503.39</ele>
        <time>2020-02-20T08:32:13Z</time>
      </trkpt>
      <trkpt lat="43.22527" lon="5.45581">
        <ele>506.27</ele>
        <time>2020-02-20T08:32:28Z</time>
      </trkpt>
      <trkpt lat="43.22528" lon="5.45582">
        <ele>507.23</ele>
        <time>2020-02-20T08:32:44Z</time>
      </trkpt>
      <trkpt lat="43.22529" lon="5.45587">
        <ele>507.71</ele>
        <time>2020-02-20T08:33:04Z</time>
      </trkpt>
      <trkpt lat="43.2253" lon="5.4559">
        <ele>507.71</ele>
        <time>2020-02-20T08:33:18Z</time>
      </trkpt>
      <trkpt lat="43.2253" lon="5.45587">
        <ele>508.19</ele>
        <time>2020-02-20T08:33:39Z</time>
      </trkpt>
      <trkpt lat="43.22526" lon="5.45587">
        <ele>508.19</ele>
        <time>2020-02-20T08:34:01Z</time>
      </trkpt>
      <trkpt lat="43.22518" lon="5.45581">
        <ele>508.19</ele>
        <time>2020-02-20T08:34:14Z</time>
      </trkpt>
      <trkpt lat="43.22508" lon="5.45568">
        <ele>510.6</ele>
        <time>2020-02-20T08:34:31Z</time>
      </trkpt>
      <trkpt lat="43.22505" lon="5.45568">
        <ele>510.6</ele>
        <time>2020-02-20T08:34:53Z</time>
      </trkpt>
      <trkpt lat="43.22502" lon="5.45574">
        <ele>509.16</ele>
        <time>2020-02-20T08:35:02Z</time>
      </trkpt>
      <trkpt lat="43.22496" lon="5.45572">
        <ele>509.16</ele>
        <time>2020-02-20T08:35:17Z</time>
      </trkpt>
      <trkpt lat="43.22502" lon="5.45574">
        <ele>509.16</ele>
        <time>2020-02-20T08:35:32Z</time>
      </trkpt>
      <trkpt lat="43.22497" lon="5.45573">
        <ele>509.16</ele>
        <time>2020-02-20T08:35:48Z</time>
      </trkpt>
      <trkpt lat="43.22496" lon="5.4557">
        <ele>508.19</ele>
        <time>2020-02-20T08:36:06Z</time>
      </trkpt>
      <trkpt lat="43.22497" lon="5.45572">
        <ele>508.19</ele>
        <time>2020-02-20T08:36:38Z</time>
      </trkpt>
      <trkpt lat="43.22497" lon="5.45571">
        <ele>508.19</ele>
        <time>2020-02-20T08:37:02Z</time>
      </trkpt>
      <trkpt lat="43.22495" lon="5.45573">
        <ele>508.19</ele>
        <time>2020-02-20T08:37:28Z</time>
      </trkpt>
      <trkpt lat="43.22495" lon="5.45572">
        <ele>508.67</ele>
        <time>2020-02-20T08:37:54Z</time>
      </trkpt>
      <trkpt lat="43.22495" lon="5.45572">
        <ele>508.67</ele>
        <time>2020-02-20T08:38:22Z</time>
      </trkpt>
      <trkpt lat="43.22495" lon="5.45571">
        <ele>508.19</ele>
        <time>2020-02-20T08:38:57Z</time>
      </trkpt>
      <trkpt lat="43.22496" lon="5.45572">
        <ele>508.19</ele>
        <time>2020-02-20T08:39:22Z</time>
      </trkpt>
      <trkpt lat="43.22497" lon="5.45571">
        <ele>508.19</ele>
        <time>2020-02-20T08:39:52Z</time>
      </trkpt>
      <trkpt lat="43.22497" lon="5.45571">
        <ele>508.19</ele>
        <time>2020-02-20T08:40:19Z</time>
      </trkpt>
      <trkpt lat="43.22497" lon="5.4557">
        <ele>508.19</ele>
        <time>2020-02-20T08:40:49Z</time>
      </trkpt>
      <trkpt lat="43.22497" lon="5.45568">
        <ele>508.19</ele>
        <time>2020-02-20T08:41:18Z</time>
      </trkpt>
      <trkpt lat="43.22497" lon="5.45568">
        <ele>508.19</ele>
        <time>2020-02-20T08:41:42Z</time>
      </trkpt>
      <trkpt lat="43.22497" lon="5.45568">
        <ele>508.19</ele>
        <time>2020-02-20T08:42:15Z</time>
      </trkpt>
      <trkpt lat="43.22497" lon="5.45568">
        <ele>508.19</ele>
        <time>2020-02-20T08:42:42Z</time>
      </trkpt>
      <trkpt lat="43.22497" lon="5.45568">
        <ele>508.19</ele>
        <time>2020-02-20T08:43:14Z</time>
      </trkpt>
      <trkpt lat="43.22498" lon="5.45566">
        <ele>508.19</ele>
        <time>2020-02-20T08:43:41Z</time>
      </trkpt>
      <trkpt lat="43.22498" lon="5.45566">
        <ele>508.19</ele>
        <time>2020-02-20T08:44:14Z</time>
      </trkpt>
      <trkpt lat="43.22497" lon="5.45568">
        <ele>508.19</ele>
        <time>2020-02-20T08:44:38Z</time>
      </trkpt>
      <trkpt lat="43.22497" lon="5.45568">
        <ele>509.16</ele>
        <time>2020-02-20T08:44:53Z</time>
      </trkpt>
      <trkpt lat="43.22495" lon="5.4557">
        <ele>509.64</ele>
        <time>2020-02-20T08:45:15Z</time>
      </trkpt>
      <trkpt lat="43.22488" lon="5.4557">
        <ele>510.12</ele>
        <time>2020-02-20T08:45:31Z</time>
      </trkpt>
      <trkpt lat="43.2248" lon="5.45568">
        <ele>511.08</ele>
        <time>2020-02-20T08:45:50Z</time>
      </trkpt>
      <trkpt lat="43.22477" lon="5.45569">
        <ele>511.08</ele>
        <time>2020-02-20T08:45:56Z</time>
      </trkpt>
      <trkpt lat="43.22463" lon="5.45573">
        <ele>512.04</ele>
        <time>2020-02-20T08:46:13Z</time>
      </trkpt>
      <trkpt lat="43.22453" lon="5.45577">
        <ele>513</ele>
        <time>2020-02-20T08:46:28Z</time>
      </trkpt>
      <trkpt lat="43.22448" lon="5.45572">
        <ele>514.92</ele>
        <time>2020-02-20T08:46:42Z</time>
      </trkpt>
      <trkpt lat="43.22444" lon="5.45564">
        <ele>518.29</ele>
        <time>2020-02-20T08:46:57Z</time>
      </trkpt>
      <trkpt lat="43.22445" lon="5.45551">
        <ele>521.17</ele>
        <time>2020-02-20T08:47:15Z</time>
      </trkpt>
      <trkpt lat="43.22447" lon="5.45547">
        <ele>522.13</ele>
        <time>2020-02-20T08:47:34Z</time>
      </trkpt>
      <trkpt lat="43.22443" lon="5.45547">
        <ele>524.54</ele>
        <time>2020-02-20T08:47:53Z</time>
      </trkpt>
      <trkpt lat="43.22433" lon="5.45555">
        <ele>523.09</ele>
        <time>2020-02-20T08:48:07Z</time>
      </trkpt>
      <trkpt lat="43.2242" lon="5.45565">
        <ele>522.61</ele>
        <time>2020-02-20T08:48:25Z</time>
      </trkpt>
      <trkpt lat="43.2242" lon="5.45563">
        <ele>524.06</ele>
        <time>2020-02-20T08:48:37Z</time>
      </trkpt>
      <trkpt lat="43.22414" lon="5.45561">
        <ele>525.5</ele>
        <time>2020-02-20T08:48:52Z</time>
      </trkpt>
      <trkpt lat="43.22413" lon="5.45558">
        <ele>527.9</ele>
        <time>2020-02-20T08:49:07Z</time>
      </trkpt>
      <trkpt lat="43.22408" lon="5.4555">
        <ele>529.34</ele>
        <time>2020-02-20T08:49:18Z</time>
      </trkpt>
      <trkpt lat="43.22401" lon="5.45545">
        <ele>531.75</ele>
        <time>2020-02-20T08:49:31Z</time>
      </trkpt>
      <trkpt lat="43.22394" lon="5.4553">
        <ele>534.15</ele>
        <time>2020-02-20T08:49:47Z</time>
      </trkpt>
      <trkpt lat="43.2239" lon="5.45513">
        <ele>536.55</ele>
        <time>2020-02-20T08:50:04Z</time>
      </trkpt>
      <trkpt lat="43.22387" lon="5.45498">
        <ele>537.99</ele>
        <time>2020-02-20T08:50:19Z</time>
      </trkpt>
      <trkpt lat="43.22383" lon="5.4548">
        <ele>540.4</ele>
        <time>2020-02-20T08:50:35Z</time>
      </trkpt>
      <trkpt lat="43.22385" lon="5.4547">
        <ele>541.84</ele>
        <time>2020-02-20T08:50:50Z</time>
      </trkpt>
      <trkpt lat="43.22381" lon="5.45468">
        <ele>542.32</ele>
        <time>2020-02-20T08:51:08Z</time>
      </trkpt>
      <trkpt lat="43.2238" lon="5.45463">
        <ele>542.32</ele>
        <time>2020-02-20T08:51:26Z</time>
      </trkpt>
      <trkpt lat="43.22384" lon="5.45464">
        <ele>542.32</ele>
        <time>2020-02-20T08:51:58Z</time>
      </trkpt>
      <trkpt lat="43.22381" lon="5.45465">
        <ele>542.32</ele>
        <time>2020-02-20T08:52:22Z</time>
      </trkpt>
      <trkpt lat="43.22381" lon="5.45466">
        <ele>541.84</ele>
        <time>2020-02-20T08:52:46Z</time>
      </trkpt>
      <trkpt lat="43.2238" lon="5.45465">
        <ele>542.8</ele>
        <time>2020-02-20T08:52:55Z</time>
      </trkpt>
      <trkpt lat="43.22381" lon="5.45474">
        <ele>540.4</ele>
        <time>2020-02-20T08:53:10Z</time>
      </trkpt>
      <trkpt lat="43.22381" lon="5.45479">
        <ele>540.4</ele>
        <time>2020-02-20T08:53:20Z</time>
      </trkpt>
      <trkpt lat="43.2238" lon="5.45476">
        <ele>540.4</ele>
        <time>2020-02-20T08:53:23Z</time>
      </trkpt>
      <trkpt lat="43.22375" lon="5.45471">
        <ele>539.92</ele>
        <time>2020-02-20T08:53:31Z</time>
      </trkpt>
      <trkpt lat="43.2237" lon="5.45464">
        <ele>540.4</ele>
        <time>2020-02-20T08:53:42Z</time>
      </trkpt>
      <trkpt lat="43.22362" lon="5.45449">
        <ele>538.96</ele>
        <time>2020-02-20T08:53:58Z</time>
      </trkpt>
      <trkpt lat="43.22356" lon="5.45446">
        <ele>538.96</ele>
        <time>2020-02-20T08:54:09Z</time>
      </trkpt>
      <trkpt lat="43.22355" lon="5.45445">
        <ele>537.51</ele>
        <time>2020-02-20T08:54:11Z</time>
      </trkpt>
      <trkpt lat="43.22347" lon="5.45438">
        <ele>536.07</ele>
        <time>2020-02-20T08:54:26Z</time>
      </trkpt>
      <trkpt lat="43.2234" lon="5.45439">
        <ele>533.67</ele>
        <time>2020-02-20T08:54:40Z</time>
      </trkpt>
      <trkpt lat="43.22335" lon="5.4544">
        <ele>533.19</ele>
        <time>2020-02-20T08:54:52Z</time>
      </trkpt>
      <trkpt lat="43.22328" lon="5.45435">
        <ele>532.23</ele>
        <time>2020-02-20T08:55:02Z</time>
      </trkpt>
      <trkpt lat="43.22326" lon="5.45439">
        <ele>532.23</ele>
        <time>2020-02-20T08:55:13Z</time>
      </trkpt>
      <trkpt lat="43.22326" lon="5.45435">
        <ele>532.23</ele>
        <time>2020-02-20T08:55:18Z</time>
      </trkpt>
      <trkpt lat="43.2232" lon="5.45424">
        <ele>530.3</ele>
        <time>2020-02-20T08:55:35Z</time>
      </trkpt>
      <trkpt lat="43.22313" lon="5.45416">
        <ele>528.86</ele>
        <time>2020-02-20T08:55:49Z</time>
      </trkpt>
      <trkpt lat="43.22313" lon="5.45421">
        <ele>527.9</ele>
        <time>2020-02-20T08:56:01Z</time>
      </trkpt>
      <trkpt lat="43.22313" lon="5.45425">
        <ele>527.9</ele>
        <time>2020-02-20T08:56:04Z</time>
      </trkpt>
      <trkpt lat="43.22315" lon="5.45437">
        <ele>526.94</ele>
        <time>2020-02-20T08:56:12Z</time>
      </trkpt>
      <trkpt lat="43.22315" lon="5.45438">
        <ele>528.86</ele>
        <time>2020-02-20T08:56:15Z</time>
      </trkpt>
      <trkpt lat="43.22315" lon="5.4544">
        <ele>528.86</ele>
        <time>2020-02-20T08:56:17Z</time>
      </trkpt>
      <trkpt lat="43.22318" lon="5.45438">
        <ele>529.34</ele>
        <time>2020-02-20T08:56:20Z</time>
      </trkpt>
      <trkpt lat="43.22321" lon="5.45438">
        <ele>529.34</ele>
        <time>2020-02-20T08:56:22Z</time>
      </trkpt>
      <trkpt lat="43.22328" lon="5.45441">
        <ele>530.79</ele>
        <time>2020-02-20T08:56:28Z</time>
      </trkpt>
      <trkpt lat="43.22329" lon="5.45448">
        <ele>532.23</ele>
        <time>2020-02-20T08:56:39Z</time>
      </trkpt>
      <trkpt lat="43.22333" lon="5.45453">
        <ele>533.19</ele>
        <time>2020-02-20T08:56:48Z</time>
      </trkpt>
      <trkpt lat="43.22332" lon="5.45453">
        <ele>534.15</ele>
        <time>2020-02-20T08:56:49Z</time>
      </trkpt>
      <trkpt lat="43.22336" lon="5.45457">
        <ele>535.11</ele>
        <time>2020-02-20T08:56:56Z</time>
      </trkpt>
      <trkpt lat="43.22339" lon="5.45459">
        <ele>535.11</ele>
        <time>2020-02-20T08:56:58Z</time>
      </trkpt>
      <trkpt lat="43.22344" lon="5.45467">
        <ele>535.59</ele>
        <time>2020-02-20T08:57:07Z</time>
      </trkpt>
      <trkpt lat="43.22346" lon="5.45471">
        <ele>536.07</ele>
        <time>2020-02-20T08:57:16Z</time>
      </trkpt>
      <trkpt lat="43.22348" lon="5.45476">
        <ele>536.07</ele>
        <time>2020-02-20T08:57:23Z</time>
      </trkpt>
      <trkpt lat="43.22354" lon="5.45485">
        <ele>536.55</ele>
        <time>2020-02-20T08:57:36Z</time>
      </trkpt>
      <trkpt lat="43.22357" lon="5.45493">
        <ele>536.07</ele>
        <time>2020-02-20T08:57:45Z</time>
      </trkpt>
      <trkpt lat="43.2236" lon="5.45514">
        <ele>535.11</ele>
        <time>2020-02-20T08:57:59Z</time>
      </trkpt>
      <trkpt lat="43.22359" lon="5.45528">
        <ele>533.67</ele>
        <time>2020-02-20T08:58:13Z</time>
      </trkpt>
      <trkpt lat="43.22357" lon="5.45543">
        <ele>533.19</ele>
        <time>2020-02-20T08:58:28Z</time>
      </trkpt>
      <trkpt lat="43.22355" lon="5.45561">
        <ele>532.71</ele>
        <time>2020-02-20T08:58:42Z</time>
      </trkpt>
      <trkpt lat="43.22355" lon="5.45576">
        <ele>532.23</ele>
        <time>2020-02-20T08:58:56Z</time>
      </trkpt>
      <trkpt lat="43.22354" lon="5.45584">
        <ele>532.23</ele>
        <time>2020-02-20T08:59:05Z</time>
      </trkpt>
      <trkpt lat="43.22349" lon="5.45595">
        <ele>532.23</ele>
        <time>2020-02-20T08:59:19Z</time>
      </trkpt>
      <trkpt lat="43.22348" lon="5.45596">
        <ele>533.67</ele>
        <time>2020-02-20T08:59:24Z</time>
      </trkpt>
      <trkpt lat="43.22346" lon="5.45608">
        <ele>534.15</ele>
        <time>2020-02-20T08:59:39Z</time>
      </trkpt>
      <trkpt lat="43.22343" lon="5.45621">
        <ele>536.07</ele>
        <time>2020-02-20T08:59:55Z</time>
      </trkpt>
      <trkpt lat="43.22339" lon="5.45633">
        <ele>538.48</ele>
        <time>2020-02-20T09:00:11Z</time>
      </trkpt>
      <trkpt lat="43.22338" lon="5.45649">
        <ele>540.88</ele>
        <time>2020-02-20T09:00:30Z</time>
      </trkpt>
      <trkpt lat="43.22337" lon="5.45663">
        <ele>543.28</ele>
        <time>2020-02-20T09:00:45Z</time>
      </trkpt>
      <trkpt lat="43.22338" lon="5.45674">
        <ele>545.69</ele>
        <time>2020-02-20T09:00:59Z</time>
      </trkpt>
      <trkpt lat="43.22333" lon="5.45679">
        <ele>547.61</ele>
        <time>2020-02-20T09:01:17Z</time>
      </trkpt>
      <trkpt lat="43.22329" lon="5.45685">
        <ele>548.57</ele>
        <time>2020-02-20T09:01:37Z</time>
      </trkpt>
      <trkpt lat="43.2232" lon="5.45698">
        <ele>550.97</ele>
        <time>2020-02-20T09:01:54Z</time>
      </trkpt>
      <trkpt lat="43.22314" lon="5.45713">
        <ele>553.86</ele>
        <time>2020-02-20T09:02:12Z</time>
      </trkpt>
      <trkpt lat="43.22311" lon="5.4572">
        <ele>554.82</ele>
        <time>2020-02-20T09:02:25Z</time>
      </trkpt>
      <trkpt lat="43.22308" lon="5.45723">
        <ele>555.78</ele>
        <time>2020-02-20T09:02:39Z</time>
      </trkpt>
      <trkpt lat="43.22307" lon="5.45726">
        <ele>556.74</ele>
        <time>2020-02-20T09:02:52Z</time>
      </trkpt>
      <trkpt lat="43.22306" lon="5.45728">
        <ele>556.74</ele>
        <time>2020-02-20T09:03:08Z</time>
      </trkpt>
      <trkpt lat="43.22305" lon="5.45727">
        <ele>556.74</ele>
        <time>2020-02-20T09:03:31Z</time>
      </trkpt>
      <trkpt lat="43.22302" lon="5.4573">
        <ele>555.78</ele>
        <time>2020-02-20T09:03:42Z</time>
      </trkpt>
      <trkpt lat="43.22297" lon="5.45738">
        <ele>555.3</ele>
        <time>2020-02-20T09:03:54Z</time>
      </trkpt>
      <trkpt lat="43.22293" lon="5.45745">
        <ele>556.26</ele>
        <time>2020-02-20T09:04:03Z</time>
      </trkpt>
      <trkpt lat="43.2229" lon="5.45751">
        <ele>557.22</ele>
        <time>2020-02-20T09:04:11Z</time>
      </trkpt>
      <trkpt lat="43.22283" lon="5.45754">
        <ele>557.22</ele>
        <time>2020-02-20T09:04:22Z</time>
      </trkpt>
      <trkpt lat="43.2228" lon="5.45755">
        <ele>555.78</ele>
        <time>2020-02-20T09:04:26Z</time>
      </trkpt>
      <trkpt lat="43.22275" lon="5.45754">
        <ele>555.78</ele>
        <time>2020-02-20T09:04:44Z</time>
      </trkpt>
      <trkpt lat="43.22276" lon="5.45758">
        <ele>555.78</ele>
        <time>2020-02-20T09:05:10Z</time>
      </trkpt>
      <trkpt lat="43.22278" lon="5.45761">
        <ele>557.22</ele>
        <time>2020-02-20T09:05:14Z</time>
      </trkpt>
      <trkpt lat="43.22281" lon="5.45775">
        <ele>557.7</ele>
        <time>2020-02-20T09:05:29Z</time>
      </trkpt>
      <trkpt lat="43.22279" lon="5.45781">
        <ele>557.7</ele>
        <time>2020-02-20T09:05:45Z</time>
      </trkpt>
      <trkpt lat="43.2228" lon="5.45785">
        <ele>557.7</ele>
        <time>2020-02-20T09:06:13Z</time>
      </trkpt>
      <trkpt lat="43.22279" lon="5.45788">
        <ele>555.78</ele>
        <time>2020-02-20T09:06:19Z</time>
      </trkpt>
      <trkpt lat="43.22274" lon="5.45798">
        <ele>554.82</ele>
        <time>2020-02-20T09:06:30Z</time>
      </trkpt>
      <trkpt lat="43.22271" lon="5.45812">
        <ele>553.86</ele>
        <time>2020-02-20T09:06:45Z</time>
      </trkpt>
      <trkpt lat="43.22268" lon="5.45826">
        <ele>553.86</ele>
        <time>2020-02-20T09:07:00Z</time>
      </trkpt>
      <trkpt lat="43.22266" lon="5.45828">
        <ele>553.86</ele>
        <time>2020-02-20T09:07:02Z</time>
      </trkpt>
      <trkpt lat="43.22259" lon="5.45837">
        <ele>553.86</ele>
        <time>2020-02-20T09:07:12Z</time>
      </trkpt>
      <trkpt lat="43.22258" lon="5.45841">
        <ele>554.34</ele>
        <time>2020-02-20T09:07:17Z</time>
      </trkpt>
      <trkpt lat="43.22256" lon="5.45842">
        <ele>554.34</ele>
        <time>2020-02-20T09:07:18Z</time>
      </trkpt>
      <trkpt lat="43.22255" lon="5.45844">
        <ele>554.34</ele>
        <time>2020-02-20T09:07:19Z</time>
      </trkpt>
      <trkpt lat="43.22249" lon="5.45848">
        <ele>555.78</ele>
        <time>2020-02-20T09:07:30Z</time>
      </trkpt>
      <trkpt lat="43.22245" lon="5.45849">
        <ele>556.26</ele>
        <time>2020-02-20T09:07:32Z</time>
      </trkpt>
      <trkpt lat="43.22237" lon="5.45848">
        <ele>557.22</ele>
        <time>2020-02-20T09:07:39Z</time>
      </trkpt>
      <trkpt lat="43.22233" lon="5.45848">
        <ele>559.14</ele>
        <time>2020-02-20T09:07:45Z</time>
      </trkpt>
      <trkpt lat="43.22226" lon="5.45854">
        <ele>560.11</ele>
        <time>2020-02-20T09:07:54Z</time>
      </trkpt>
      <trkpt lat="43.22225" lon="5.45855">
        <ele>560.11</ele>
        <time>2020-02-20T09:07:55Z</time>
      </trkpt>
      <trkpt lat="43.22224" lon="5.45855">
        <ele>560.11</ele>
        <time>2020-02-20T09:07:56Z</time>
      </trkpt>
      <trkpt lat="43.22219" lon="5.45857">
        <ele>560.59</ele>
        <time>2020-02-20T09:08:08Z</time>
      </trkpt>
      <trkpt lat="43.2222" lon="5.45856">
        <ele>561.07</ele>
        <time>2020-02-20T09:08:24Z</time>
      </trkpt>
      <trkpt lat="43.2222" lon="5.45857">
        <ele>559.62</ele>
        <time>2020-02-20T09:08:35Z</time>
      </trkpt>
      <trkpt lat="43.22221" lon="5.45857">
        <ele>561.07</ele>
        <time>2020-02-20T09:08:55Z</time>
      </trkpt>
      <trkpt lat="43.22221" lon="5.45857">
        <ele>562.03</ele>
        <time>2020-02-20T09:09:08Z</time>
      </trkpt>
      <trkpt lat="43.22221" lon="5.45856">
        <ele>560.59</ele>
        <time>2020-02-20T09:09:18Z</time>
      </trkpt>
      <trkpt lat="43.22224" lon="5.45861">
        <ele>560.59</ele>
        <time>2020-02-20T09:09:25Z</time>
      </trkpt>
      <trkpt lat="43.22224" lon="5.45863">
        <ele>559.14</ele>
        <time>2020-02-20T09:09:39Z</time>
      </trkpt>
      <trkpt lat="43.22224" lon="5.45859">
        <ele>559.14</ele>
        <time>2020-02-20T09:09:54Z</time>
      </trkpt>
      <trkpt lat="43.22218" lon="5.45867">
        <ele>560.59</ele>
        <time>2020-02-20T09:10:10Z</time>
      </trkpt>
      <trkpt lat="43.22215" lon="5.45867">
        <ele>560.59</ele>
        <time>2020-02-20T09:10:17Z</time>
      </trkpt>
      <trkpt lat="43.22204" lon="5.45874">
        <ele>557.22</ele>
        <time>2020-02-20T09:10:29Z</time>
      </trkpt>
      <trkpt lat="43.22192" lon="5.45887">
        <ele>555.78</ele>
        <time>2020-02-20T09:10:44Z</time>
      </trkpt>
      <trkpt lat="43.22178" lon="5.459">
        <ele>554.34</ele>
        <time>2020-02-20T09:11:01Z</time>
      </trkpt>
      <trkpt lat="43.22168" lon="5.45912">
        <ele>553.86</ele>
        <time>2020-02-20T09:11:15Z</time>
      </trkpt>
      <trkpt lat="43.22158" lon="5.45924">
        <ele>552.41</ele>
        <time>2020-02-20T09:11:30Z</time>
      </trkpt>
      <trkpt lat="43.22158" lon="5.45925">
        <ele>552.41</ele>
        <time>2020-02-20T09:11:31Z</time>
      </trkpt>
      <trkpt lat="43.22157" lon="5.45926">
        <ele>552.41</ele>
        <time>2020-02-20T09:11:32Z</time>
      </trkpt>
      <trkpt lat="43.22154" lon="5.45928">
        <ele>552.41</ele>
        <time>2020-02-20T09:11:35Z</time>
      </trkpt>
      <trkpt lat="43.22137" lon="5.45933">
        <ele>552.41</ele>
        <time>2020-02-20T09:11:52Z</time>
      </trkpt>
      <trkpt lat="43.22135" lon="5.45936">
        <ele>552.41</ele>
        <time>2020-02-20T09:11:56Z</time>
      </trkpt>
      <trkpt lat="43.22128" lon="5.45957">
        <ele>552.41</ele>
        <time>2020-02-20T09:12:12Z</time>
      </trkpt>
      <trkpt lat="43.22125" lon="5.45967">
        <ele>551.93</ele>
        <time>2020-02-20T09:12:21Z</time>
      </trkpt>
      <trkpt lat="43.22124" lon="5.45968">
        <ele>551.93</ele>
        <time>2020-02-20T09:12:22Z</time>
      </trkpt>
      <trkpt lat="43.2212" lon="5.45986">
        <ele>549.05</ele>
        <time>2020-02-20T09:12:38Z</time>
      </trkpt>
      <trkpt lat="43.22112" lon="5.46">
        <ele>546.65</ele>
        <time>2020-02-20T09:12:52Z</time>
      </trkpt>
      <trkpt lat="43.22108" lon="5.46006">
        <ele>545.69</ele>
        <time>2020-02-20T09:13:09Z</time>
      </trkpt>
      <trkpt lat="43.22108" lon="5.4601">
        <ele>544.72</ele>
        <time>2020-02-20T09:13:17Z</time>
      </trkpt>
      <trkpt lat="43.22104" lon="5.46022">
        <ele>542.32</ele>
        <time>2020-02-20T09:13:30Z</time>
      </trkpt>
      <trkpt lat="43.22105" lon="5.46035">
        <ele>539.92</ele>
        <time>2020-02-20T09:13:43Z</time>
      </trkpt>
      <trkpt lat="43.22104" lon="5.46044">
        <ele>538.48</ele>
        <time>2020-02-20T09:13:50Z</time>
      </trkpt>
      <trkpt lat="43.22104" lon="5.46045">
        <ele>538.48</ele>
        <time>2020-02-20T09:13:51Z</time>
      </trkpt>
      <trkpt lat="43.22098" lon="5.46062">
        <ele>535.59</ele>
        <time>2020-02-20T09:14:07Z</time>
      </trkpt>
      <trkpt lat="43.22097" lon="5.46068">
        <ele>534.63</ele>
        <time>2020-02-20T09:14:12Z</time>
      </trkpt>
      <trkpt lat="43.22097" lon="5.46072">
        <ele>534.15</ele>
        <time>2020-02-20T09:14:25Z</time>
      </trkpt>
      <trkpt lat="43.22091" lon="5.46085">
        <ele>531.27</ele>
        <time>2020-02-20T09:14:39Z</time>
      </trkpt>
      <trkpt lat="43.22086" lon="5.4609">
        <ele>529.82</ele>
        <time>2020-02-20T09:14:55Z</time>
      </trkpt>
      <trkpt lat="43.22078" lon="5.46103">
        <ele>526.94</ele>
        <time>2020-02-20T09:15:11Z</time>
      </trkpt>
      <trkpt lat="43.22074" lon="5.46118">
        <ele>524.54</ele>
        <time>2020-02-20T09:15:24Z</time>
      </trkpt>
      <trkpt lat="43.22062" lon="5.4614">
        <ele>521.65</ele>
        <time>2020-02-20T09:15:43Z</time>
      </trkpt>
      <trkpt lat="43.22052" lon="5.46161">
        <ele>520.69</ele>
        <time>2020-02-20T09:16:02Z</time>
      </trkpt>
      <trkpt lat="43.22046" lon="5.46173">
        <ele>521.17</ele>
        <time>2020-02-20T09:16:18Z</time>
      </trkpt>
      <trkpt lat="43.22045" lon="5.4618">
        <ele>522.13</ele>
        <time>2020-02-20T09:16:22Z</time>
      </trkpt>
      <trkpt lat="43.22044" lon="5.46193">
        <ele>522.13</ele>
        <time>2020-02-20T09:16:32Z</time>
      </trkpt>
      <trkpt lat="43.22044" lon="5.46194">
        <ele>522.13</ele>
        <time>2020-02-20T09:16:33Z</time>
      </trkpt>
      <trkpt lat="43.22044" lon="5.46196">
        <ele>522.13</ele>
        <time>2020-02-20T09:16:34Z</time>
      </trkpt>
      <trkpt lat="43.22043" lon="5.46222">
        <ele>522.13</ele>
        <time>2020-02-20T09:16:53Z</time>
      </trkpt>
      <trkpt lat="43.22043" lon="5.46229">
        <ele>522.13</ele>
        <time>2020-02-20T09:16:59Z</time>
      </trkpt>
      <trkpt lat="43.2204" lon="5.46252">
        <ele>522.13</ele>
        <time>2020-02-20T09:17:18Z</time>
      </trkpt>
      <trkpt lat="43.22039" lon="5.46272">
        <ele>522.61</ele>
        <time>2020-02-20T09:17:34Z</time>
      </trkpt>
      <trkpt lat="43.22037" lon="5.46287">
        <ele>523.09</ele>
        <time>2020-02-20T09:17:45Z</time>
      </trkpt>
      <trkpt lat="43.22037" lon="5.46289">
        <ele>523.09</ele>
        <time>2020-02-20T09:17:46Z</time>
      </trkpt>
      <trkpt lat="43.22036" lon="5.46293">
        <ele>523.09</ele>
        <time>2020-02-20T09:17:50Z</time>
      </trkpt>
      <trkpt lat="43.22029" lon="5.46318">
        <ele>523.09</ele>
        <time>2020-02-20T09:18:09Z</time>
      </trkpt>
      <trkpt lat="43.22028" lon="5.46323">
        <ele>523.09</ele>
        <time>2020-02-20T09:18:12Z</time>
      </trkpt>
      <trkpt lat="43.22028" lon="5.46324">
        <ele>523.09</ele>
        <time>2020-02-20T09:18:13Z</time>
      </trkpt>
      <trkpt lat="43.22028" lon="5.46326">
        <ele>523.09</ele>
        <time>2020-02-20T09:18:14Z</time>
      </trkpt>
      <trkpt lat="43.22028" lon="5.46327">
        <ele>523.09</ele>
        <time>2020-02-20T09:18:15Z</time>
      </trkpt>
      <trkpt lat="43.22027" lon="5.46333">
        <ele>522.13</ele>
        <time>2020-02-20T09:18:19Z</time>
      </trkpt>
      <trkpt lat="43.22023" lon="5.46359">
        <ele>521.17</ele>
        <time>2020-02-20T09:18:38Z</time>
      </trkpt>
      <trkpt lat="43.22019" lon="5.4637">
        <ele>524.06</ele>
        <time>2020-02-20T09:18:52Z</time>
      </trkpt>
      <trkpt lat="43.22019" lon="5.46377">
        <ele>525.5</ele>
        <time>2020-02-20T09:18:58Z</time>
      </trkpt>
      <trkpt lat="43.2202" lon="5.46382">
        <ele>525.5</ele>
        <time>2020-02-20T09:19:02Z</time>
      </trkpt>
      <trkpt lat="43.22021" lon="5.46385">
        <ele>525.5</ele>
        <time>2020-02-20T09:19:04Z</time>
      </trkpt>
      <trkpt lat="43.22022" lon="5.46386">
        <ele>525.5</ele>
        <time>2020-02-20T09:19:05Z</time>
      </trkpt>
      <trkpt lat="43.22022" lon="5.46389">
        <ele>525.5</ele>
        <time>2020-02-20T09:19:06Z</time>
      </trkpt>
      <trkpt lat="43.22022" lon="5.46394">
        <ele>525.5</ele>
        <time>2020-02-20T09:19:15Z</time>
      </trkpt>
      <trkpt lat="43.22023" lon="5.46409">
        <ele>525.98</ele>
        <time>2020-02-20T09:19:23Z</time>
      </trkpt>
      <trkpt lat="43.22026" lon="5.46416">
        <ele>525.98</ele>
        <time>2020-02-20T09:19:30Z</time>
      </trkpt>
      <trkpt lat="43.22036" lon="5.46433">
        <ele>524.54</ele>
        <time>2020-02-20T09:19:43Z</time>
      </trkpt>
      <trkpt lat="43.22046" lon="5.46448">
        <ele>522.61</ele>
        <time>2020-02-20T09:19:59Z</time>
      </trkpt>
      <trkpt lat="43.22043" lon="5.46454">
        <ele>522.61</ele>
        <time>2020-02-20T09:20:13Z</time>
      </trkpt>
      <trkpt lat="43.22042" lon="5.46455">
        <ele>523.58</ele>
        <time>2020-02-20T09:20:17Z</time>
      </trkpt>
      <trkpt lat="43.2204" lon="5.46454">
        <ele>524.54</ele>
        <time>2020-02-20T09:20:38Z</time>
      </trkpt>
      <trkpt lat="43.22039" lon="5.46456">
        <ele>524.54</ele>
        <time>2020-02-20T09:21:04Z</time>
      </trkpt>
      <trkpt lat="43.22042" lon="5.46456">
        <ele>524.54</ele>
        <time>2020-02-20T09:21:22Z</time>
      </trkpt>
      <trkpt lat="43.22043" lon="5.46456">
        <ele>525.02</ele>
        <time>2020-02-20T09:21:37Z</time>
      </trkpt>
      <trkpt lat="43.22042" lon="5.46459">
        <ele>525.02</ele>
        <time>2020-02-20T09:21:45Z</time>
      </trkpt>
      <trkpt lat="43.22042" lon="5.46461">
        <ele>525.02</ele>
        <time>2020-02-20T09:21:46Z</time>
      </trkpt>
      <trkpt lat="43.22043" lon="5.46464">
        <ele>525.02</ele>
        <time>2020-02-20T09:21:47Z</time>
      </trkpt>
      <trkpt lat="43.22043" lon="5.46467">
        <ele>525.02</ele>
        <time>2020-02-20T09:21:48Z</time>
      </trkpt>
      <trkpt lat="43.22044" lon="5.46476">
        <ele>525.02</ele>
        <time>2020-02-20T09:21:57Z</time>
      </trkpt>
      <trkpt lat="43.22044" lon="5.46479">
        <ele>523.09</ele>
        <time>2020-02-20T09:21:59Z</time>
      </trkpt>
      <trkpt lat="43.22047" lon="5.46494">
        <ele>523.09</ele>
        <time>2020-02-20T09:22:14Z</time>
      </trkpt>
      <trkpt lat="43.22047" lon="5.46496">
        <ele>523.09</ele>
        <time>2020-02-20T09:22:15Z</time>
      </trkpt>
      <trkpt lat="43.22047" lon="5.46497">
        <ele>523.09</ele>
        <time>2020-02-20T09:22:16Z</time>
      </trkpt>
      <trkpt lat="43.22049" lon="5.46516">
        <ele>521.65</ele>
        <time>2020-02-20T09:22:29Z</time>
      </trkpt>
      <trkpt lat="43.22048" lon="5.46542">
        <ele>519.73</ele>
        <time>2020-02-20T09:22:46Z</time>
      </trkpt>
      <trkpt lat="43.22051" lon="5.46564">
        <ele>519.25</ele>
        <time>2020-02-20T09:23:02Z</time>
      </trkpt>
      <trkpt lat="43.22051" lon="5.46585">
        <ele>519.25</ele>
        <time>2020-02-20T09:23:18Z</time>
      </trkpt>
      <trkpt lat="43.22051" lon="5.46589">
        <ele>519.25</ele>
        <time>2020-02-20T09:23:20Z</time>
      </trkpt>
      <trkpt lat="43.22051" lon="5.46591">
        <ele>519.25</ele>
        <time>2020-02-20T09:23:21Z</time>
      </trkpt>
      <trkpt lat="43.22048" lon="5.46602">
        <ele>519.25</ele>
        <time>2020-02-20T09:23:35Z</time>
      </trkpt>
      <trkpt lat="43.22039" lon="5.46621">
        <ele>519.25</ele>
        <time>2020-02-20T09:23:44Z</time>
      </trkpt>
      <trkpt lat="43.22038" lon="5.46622">
        <ele>519.25</ele>
        <time>2020-02-20T09:23:45Z</time>
      </trkpt>
      <trkpt lat="43.22036" lon="5.46624">
        <ele>519.25</ele>
        <time>2020-02-20T09:23:52Z</time>
      </trkpt>
      <trkpt lat="43.22035" lon="5.46626">
        <ele>519.25</ele>
        <time>2020-02-20T09:23:53Z</time>
      </trkpt>
      <trkpt lat="43.22034" lon="5.46628">
        <ele>519.25</ele>
        <time>2020-02-20T09:23:54Z</time>
      </trkpt>
      <trkpt lat="43.22032" lon="5.4663">
        <ele>519.25</ele>
        <time>2020-02-20T09:23:55Z</time>
      </trkpt>
      <trkpt lat="43.22031" lon="5.46632">
        <ele>519.25</ele>
        <time>2020-02-20T09:23:56Z</time>
      </trkpt>
      <trkpt lat="43.2203" lon="5.46634">
        <ele>519.25</ele>
        <time>2020-02-20T09:23:57Z</time>
      </trkpt>
      <trkpt lat="43.22029" lon="5.46634">
        <ele>519.25</ele>
        <time>2020-02-20T09:23:58Z</time>
      </trkpt>
      <trkpt lat="43.22026" lon="5.46638">
        <ele>519.25</ele>
        <time>2020-02-20T09:24:05Z</time>
      </trkpt>
      <trkpt lat="43.22025" lon="5.46639">
        <ele>519.25</ele>
        <time>2020-02-20T09:24:06Z</time>
      </trkpt>
      <trkpt lat="43.2201" lon="5.46651">
        <ele>520.21</ele>
        <time>2020-02-20T09:24:23Z</time>
      </trkpt>
      <trkpt lat="43.21996" lon="5.46664">
        <ele>520.21</ele>
        <time>2020-02-20T09:24:40Z</time>
      </trkpt>
      <trkpt lat="43.21979" lon="5.46681">
        <ele>520.21</ele>
        <time>2020-02-20T09:25:01Z</time>
      </trkpt>
      <trkpt lat="43.21963" lon="5.46685">
        <ele>520.69</ele>
        <time>2020-02-20T09:25:19Z</time>
      </trkpt>
      <trkpt lat="43.21957" lon="5.46685">
        <ele>520.69</ele>
        <time>2020-02-20T09:25:25Z</time>
      </trkpt>
      <trkpt lat="43.21956" lon="5.46687">
        <ele>519.25</ele>
        <time>2020-02-20T09:25:40Z</time>
      </trkpt>
      <trkpt lat="43.21955" lon="5.46689">
        <ele>519.25</ele>
        <time>2020-02-20T09:26:09Z</time>
      </trkpt>
      <trkpt lat="43.21952" lon="5.46684">
        <ele>519.25</ele>
        <time>2020-02-20T09:26:31Z</time>
      </trkpt>
      <trkpt lat="43.21937" lon="5.46685">
        <ele>518.77</ele>
        <time>2020-02-20T09:26:47Z</time>
      </trkpt>
      <trkpt lat="43.21916" lon="5.46688">
        <ele>518.29</ele>
        <time>2020-02-20T09:27:06Z</time>
      </trkpt>
      <trkpt lat="43.21893" lon="5.46693">
        <ele>517.81</ele>
        <time>2020-02-20T09:27:27Z</time>
      </trkpt>
      <trkpt lat="43.21868" lon="5.46705">
        <ele>516.37</ele>
        <time>2020-02-20T09:27:50Z</time>
      </trkpt>
      <trkpt lat="43.21847" lon="5.46714">
        <ele>515.88</ele>
        <time>2020-02-20T09:28:10Z</time>
      </trkpt>
      <trkpt lat="43.2183" lon="5.46718">
        <ele>515.4</ele>
        <time>2020-02-20T09:28:26Z</time>
      </trkpt>
      <trkpt lat="43.2181" lon="5.46726">
        <ele>514.44</ele>
        <time>2020-02-20T09:28:46Z</time>
      </trkpt>
      <trkpt lat="43.21787" lon="5.46739">
        <ele>513.96</ele>
        <time>2020-02-20T09:29:08Z</time>
      </trkpt>
      <trkpt lat="43.21767" lon="5.46752">
        <ele>514.44</ele>
        <time>2020-02-20T09:29:27Z</time>
      </trkpt>
      <trkpt lat="43.21742" lon="5.46773">
        <ele>511.56</ele>
        <time>2020-02-20T09:29:52Z</time>
      </trkpt>
      <trkpt lat="43.21723" lon="5.46793">
        <ele>511.56</ele>
        <time>2020-02-20T09:30:11Z</time>
      </trkpt>
      <trkpt lat="43.21701" lon="5.46813">
        <ele>510.6</ele>
        <time>2020-02-20T09:30:29Z</time>
      </trkpt>
      <trkpt lat="43.2169" lon="5.46814">
        <ele>510.6</ele>
        <time>2020-02-20T09:30:44Z</time>
      </trkpt>
      <trkpt lat="43.21686" lon="5.46808">
        <ele>510.6</ele>
        <time>2020-02-20T09:31:01Z</time>
      </trkpt>
      <trkpt lat="43.2168" lon="5.46808">
        <ele>508.67</ele>
        <time>2020-02-20T09:31:17Z</time>
      </trkpt>
      <trkpt lat="43.21671" lon="5.46806">
        <ele>506.27</ele>
        <time>2020-02-20T09:31:32Z</time>
      </trkpt>
      <trkpt lat="43.21668" lon="5.46804">
        <ele>504.83</ele>
        <time>2020-02-20T09:31:45Z</time>
      </trkpt>
      <trkpt lat="43.21668" lon="5.46802">
        <ele>504.83</ele>
        <time>2020-02-20T09:32:13Z</time>
      </trkpt>
      <trkpt lat="43.21668" lon="5.46803">
        <ele>504.83</ele>
        <time>2020-02-20T09:32:35Z</time>
      </trkpt>
      <trkpt lat="43.2167" lon="5.46806">
        <ele>504.83</ele>
        <time>2020-02-20T09:33:00Z</time>
      </trkpt>
      <trkpt lat="43.21676" lon="5.46811">
        <ele>507.71</ele>
        <time>2020-02-20T09:33:17Z</time>
      </trkpt>
      <trkpt lat="43.21678" lon="5.46827">
        <ele>509.64</ele>
        <time>2020-02-20T09:33:32Z</time>
      </trkpt>
      <trkpt lat="43.21677" lon="5.46828">
        <ele>509.64</ele>
        <time>2020-02-20T09:33:51Z</time>
      </trkpt>
      <trkpt lat="43.21676" lon="5.46829">
        <ele>509.16</ele>
        <time>2020-02-20T09:34:13Z</time>
      </trkpt>
      <trkpt lat="43.21673" lon="5.46835">
        <ele>509.16</ele>
        <time>2020-02-20T09:34:26Z</time>
      </trkpt>
      <trkpt lat="43.21661" lon="5.46856">
        <ele>506.75</ele>
        <time>2020-02-20T09:34:45Z</time>
      </trkpt>
      <trkpt lat="43.21658" lon="5.46858">
        <ele>506.27</ele>
        <time>2020-02-20T09:34:48Z</time>
      </trkpt>
      <trkpt lat="43.21647" lon="5.46871">
        <ele>504.83</ele>
        <time>2020-02-20T09:35:03Z</time>
      </trkpt>
      <trkpt lat="43.21642" lon="5.46878">
        <ele>503.87</ele>
        <time>2020-02-20T09:35:10Z</time>
      </trkpt>
      <trkpt lat="43.2163" lon="5.46893">
        <ele>501.95</ele>
        <time>2020-02-20T09:35:26Z</time>
      </trkpt>
      <trkpt lat="43.21618" lon="5.46901">
        <ele>501.46</ele>
        <time>2020-02-20T09:35:38Z</time>
      </trkpt>
      <trkpt lat="43.21617" lon="5.46902">
        <ele>500.98</ele>
        <time>2020-02-20T09:35:39Z</time>
      </trkpt>
      <trkpt lat="43.21604" lon="5.46913">
        <ele>500.98</ele>
        <time>2020-02-20T09:35:53Z</time>
      </trkpt>
      <trkpt lat="43.21596" lon="5.46921">
        <ele>500.98</ele>
        <time>2020-02-20T09:36:09Z</time>
      </trkpt>
      <trkpt lat="43.21597" lon="5.46921">
        <ele>500.98</ele>
        <time>2020-02-20T09:36:31Z</time>
      </trkpt>
      <trkpt lat="43.21594" lon="5.46923">
        <ele>500.98</ele>
        <time>2020-02-20T09:36:52Z</time>
      </trkpt>
      <trkpt lat="43.21594" lon="5.46922">
        <ele>500.98</ele>
        <time>2020-02-20T09:37:16Z</time>
      </trkpt>
      <trkpt lat="43.21592" lon="5.46925">
        <ele>500.5</ele>
        <time>2020-02-20T09:37:44Z</time>
      </trkpt>
      <trkpt lat="43.21578" lon="5.46938">
        <ele>500.02</ele>
        <time>2020-02-20T09:38:04Z</time>
      </trkpt>
      <trkpt lat="43.21562" lon="5.46946">
        <ele>500.02</ele>
        <time>2020-02-20T09:38:20Z</time>
      </trkpt>
      <trkpt lat="43.2155" lon="5.46954">
        <ele>500.02</ele>
        <time>2020-02-20T09:38:36Z</time>
      </trkpt>
      <trkpt lat="43.21538" lon="5.46972">
        <ele>500.02</ele>
        <time>2020-02-20T09:38:54Z</time>
      </trkpt>
      <trkpt lat="43.21533" lon="5.46979">
        <ele>498.58</ele>
        <time>2020-02-20T09:39:06Z</time>
      </trkpt>
      <trkpt lat="43.21523" lon="5.46982">
        <ele>497.62</ele>
        <time>2020-02-20T09:39:19Z</time>
      </trkpt>
      <trkpt lat="43.21525" lon="5.46982">
        <ele>497.14</ele>
        <time>2020-02-20T09:39:41Z</time>
      </trkpt>
      <trkpt lat="43.21523" lon="5.46985">
        <ele>497.14</ele>
        <time>2020-02-20T09:40:05Z</time>
      </trkpt>
      <trkpt lat="43.21518" lon="5.46978">
        <ele>497.14</ele>
        <time>2020-02-20T09:40:30Z</time>
      </trkpt>
      <trkpt lat="43.21513" lon="5.46977">
        <ele>500.5</ele>
        <time>2020-02-20T09:40:40Z</time>
      </trkpt>
      <trkpt lat="43.21509" lon="5.46976">
        <ele>500.5</ele>
        <time>2020-02-20T09:41:08Z</time>
      </trkpt>
      <trkpt lat="43.21516" lon="5.46975">
        <ele>499.54</ele>
        <time>2020-02-20T09:41:20Z</time>
      </trkpt>
      <trkpt lat="43.21518" lon="5.46974">
        <ele>499.06</ele>
        <time>2020-02-20T09:41:35Z</time>
      </trkpt>
      <trkpt lat="43.2152" lon="5.46979">
        <ele>497.62</ele>
        <time>2020-02-20T09:41:49Z</time>
      </trkpt>
      <trkpt lat="43.21522" lon="5.46982">
        <ele>497.62</ele>
        <time>2020-02-20T09:42:04Z</time>
      </trkpt>
      <trkpt lat="43.21527" lon="5.46986">
        <ele>497.14</ele>
        <time>2020-02-20T09:42:21Z</time>
      </trkpt>
      <trkpt lat="43.21531" lon="5.46989">
        <ele>496.18</ele>
        <time>2020-02-20T09:42:36Z</time>
      </trkpt>
      <trkpt lat="43.21527" lon="5.46993">
        <ele>495.7</ele>
        <time>2020-02-20T09:42:49Z</time>
      </trkpt>
      <trkpt lat="43.21523" lon="5.47">
        <ele>494.26</ele>
        <time>2020-02-20T09:43:02Z</time>
      </trkpt>
      <trkpt lat="43.21523" lon="5.46999">
        <ele>494.26</ele>
        <time>2020-02-20T09:43:30Z</time>
      </trkpt>
      <trkpt lat="43.21523" lon="5.46999">
        <ele>494.26</ele>
        <time>2020-02-20T09:43:52Z</time>
      </trkpt>
      <trkpt lat="43.21528" lon="5.46996">
        <ele>494.26</ele>
        <time>2020-02-20T09:44:08Z</time>
      </trkpt>
      <trkpt lat="43.21531" lon="5.46996">
        <ele>494.26</ele>
        <time>2020-02-20T09:44:31Z</time>
      </trkpt>
      <trkpt lat="43.21528" lon="5.47004">
        <ele>491.85</ele>
        <time>2020-02-20T09:44:44Z</time>
      </trkpt>
      <trkpt lat="43.21519" lon="5.47008">
        <ele>490.89</ele>
        <time>2020-02-20T09:45:03Z</time>
      </trkpt>
      <trkpt lat="43.21518" lon="5.47011">
        <ele>490.89</ele>
        <time>2020-02-20T09:45:24Z</time>
      </trkpt>
      <trkpt lat="43.21517" lon="5.47024">
        <ele>488.97</ele>
        <time>2020-02-20T09:45:36Z</time>
      </trkpt>
      <trkpt lat="43.2151" lon="5.47036">
        <ele>487.53</ele>
        <time>2020-02-20T09:45:51Z</time>
      </trkpt>
      <trkpt lat="43.2151" lon="5.47036">
        <ele>487.05</ele>
        <time>2020-02-20T09:46:13Z</time>
      </trkpt>
      <trkpt lat="43.2151" lon="5.47038">
        <ele>487.05</ele>
        <time>2020-02-20T09:46:29Z</time>
      </trkpt>
      <trkpt lat="43.21509" lon="5.47039">
        <ele>487.05</ele>
        <time>2020-02-20T09:46:49Z</time>
      </trkpt>
      <trkpt lat="43.21506" lon="5.47049">
        <ele>487.05</ele>
        <time>2020-02-20T09:47:10Z</time>
      </trkpt>
      <trkpt lat="43.21499" lon="5.47059">
        <ele>488.49</ele>
        <time>2020-02-20T09:47:25Z</time>
      </trkpt>
      <trkpt lat="43.21493" lon="5.47075">
        <ele>487.05</ele>
        <time>2020-02-20T09:47:43Z</time>
      </trkpt>
      <trkpt lat="43.21487" lon="5.47091">
        <ele>485.6</ele>
        <time>2020-02-20T09:48:00Z</time>
      </trkpt>
      <trkpt lat="43.21481" lon="5.47108">
        <ele>483.68</ele>
        <time>2020-02-20T09:48:16Z</time>
      </trkpt>
      <trkpt lat="43.21475" lon="5.47121">
        <ele>482.72</ele>
        <time>2020-02-20T09:48:31Z</time>
      </trkpt>
      <trkpt lat="43.21467" lon="5.47139">
        <ele>480.32</ele>
        <time>2020-02-20T09:48:48Z</time>
      </trkpt>
      <trkpt lat="43.21467" lon="5.47148">
        <ele>478.39</ele>
        <time>2020-02-20T09:49:02Z</time>
      </trkpt>
      <trkpt lat="43.21465" lon="5.47158">
        <ele>475.99</ele>
        <time>2020-02-20T09:49:17Z</time>
      </trkpt>
      <trkpt lat="43.21462" lon="5.47162">
        <ele>475.99</ele>
        <time>2020-02-20T09:49:45Z</time>
      </trkpt>
      <trkpt lat="43.21463" lon="5.47164">
        <ele>475.99</ele>
        <time>2020-02-20T09:50:04Z</time>
      </trkpt>
      <trkpt lat="43.21468" lon="5.47177">
        <ele>474.55</ele>
        <time>2020-02-20T09:50:19Z</time>
      </trkpt>
      <trkpt lat="43.21472" lon="5.47187">
        <ele>472.63</ele>
        <time>2020-02-20T09:50:37Z</time>
      </trkpt>
      <trkpt lat="43.21471" lon="5.4719">
        <ele>471.66</ele>
        <time>2020-02-20T09:51:03Z</time>
      </trkpt>
      <trkpt lat="43.21469" lon="5.47194">
        <ele>469.26</ele>
        <time>2020-02-20T09:51:18Z</time>
      </trkpt>
      <trkpt lat="43.21469" lon="5.47203">
        <ele>466.86</ele>
        <time>2020-02-20T09:51:32Z</time>
      </trkpt>
      <trkpt lat="43.21467" lon="5.47203">
        <ele>466.38</ele>
        <time>2020-02-20T09:51:52Z</time>
      </trkpt>
      <trkpt lat="43.21462" lon="5.47202">
        <ele>464.93</ele>
        <time>2020-02-20T09:52:18Z</time>
      </trkpt>
      <trkpt lat="43.21463" lon="5.472">
        <ele>463.49</ele>
        <time>2020-02-20T09:52:42Z</time>
      </trkpt>
      <trkpt lat="43.2146" lon="5.47201">
        <ele>462.05</ele>
        <time>2020-02-20T09:53:02Z</time>
      </trkpt>
      <trkpt lat="43.21456" lon="5.47196">
        <ele>459.17</ele>
        <time>2020-02-20T09:53:27Z</time>
      </trkpt>
      <trkpt lat="43.21451" lon="5.47197">
        <ele>456.28</ele>
        <time>2020-02-20T09:53:47Z</time>
      </trkpt>
      <trkpt lat="43.21446" lon="5.47201">
        <ele>454.36</ele>
        <time>2020-02-20T09:54:05Z</time>
      </trkpt>
      <trkpt lat="43.21445" lon="5.47201">
        <ele>453.4</ele>
        <time>2020-02-20T09:54:20Z</time>
      </trkpt>
      <trkpt lat="43.21444" lon="5.47203">
        <ele>452.92</ele>
        <time>2020-02-20T09:54:37Z</time>
      </trkpt>
      <trkpt lat="43.21446" lon="5.4721">
        <ele>451.48</ele>
        <time>2020-02-20T09:54:48Z</time>
      </trkpt>
      <trkpt lat="43.21447" lon="5.47216">
        <ele>450.03</ele>
        <time>2020-02-20T09:55:02Z</time>
      </trkpt>
      <trkpt lat="43.21446" lon="5.4723">
        <ele>449.07</ele>
        <time>2020-02-20T09:55:18Z</time>
      </trkpt>
      <trkpt lat="43.21445" lon="5.47233">
        <ele>448.59</ele>
        <time>2020-02-20T09:55:34Z</time>
      </trkpt>
      <trkpt lat="43.21441" lon="5.47242">
        <ele>446.19</ele>
        <time>2020-02-20T09:55:47Z</time>
      </trkpt>
      <trkpt lat="43.21436" lon="5.47249">
        <ele>442.82</ele>
        <time>2020-02-20T09:56:03Z</time>
      </trkpt>
      <trkpt lat="43.21436" lon="5.47253">
        <ele>442.34</ele>
        <time>2020-02-20T09:56:19Z</time>
      </trkpt>
      <trkpt lat="43.21438" lon="5.47254">
        <ele>442.34</ele>
        <time>2020-02-20T09:56:40Z</time>
      </trkpt>
      <trkpt lat="43.21436" lon="5.47252">
        <ele>442.82</ele>
        <time>2020-02-20T09:57:00Z</time>
      </trkpt>
      <trkpt lat="43.21437" lon="5.47253">
        <ele>441.38</ele>
        <time>2020-02-20T09:57:03Z</time>
      </trkpt>
      <trkpt lat="43.21433" lon="5.47254">
        <ele>440.42</ele>
        <time>2020-02-20T09:57:22Z</time>
      </trkpt>
      <trkpt lat="43.2143" lon="5.47258">
        <ele>438.5</ele>
        <time>2020-02-20T09:57:40Z</time>
      </trkpt>
      <trkpt lat="43.21427" lon="5.47262">
        <ele>436.1</ele>
        <time>2020-02-20T09:58:00Z</time>
      </trkpt>
      <trkpt lat="43.21424" lon="5.47264">
        <ele>434.17</ele>
        <time>2020-02-20T09:58:16Z</time>
      </trkpt>
      <trkpt lat="43.21425" lon="5.47257">
        <ele>432.73</ele>
        <time>2020-02-20T09:58:31Z</time>
      </trkpt>
      <trkpt lat="43.21421" lon="5.47265">
        <ele>429.85</ele>
        <time>2020-02-20T09:58:46Z</time>
      </trkpt>
      <trkpt lat="43.21417" lon="5.4727">
        <ele>428.4</ele>
        <time>2020-02-20T09:59:00Z</time>
      </trkpt>
      <trkpt lat="43.21416" lon="5.47274">
        <ele>427.44</ele>
        <time>2020-02-20T09:59:19Z</time>
      </trkpt>
      <trkpt lat="43.21415" lon="5.47278">
        <ele>428.89</ele>
        <time>2020-02-20T09:59:24Z</time>
      </trkpt>
      <trkpt lat="43.21415" lon="5.47286">
        <ele>430.81</ele>
        <time>2020-02-20T09:59:38Z</time>
      </trkpt>
      <trkpt lat="43.21415" lon="5.47287">
        <ele>429.85</ele>
        <time>2020-02-20T09:59:54Z</time>
      </trkpt>
      <trkpt lat="43.21414" lon="5.47287">
        <ele>429.85</ele>
        <time>2020-02-20T10:00:20Z</time>
      </trkpt>
      <trkpt lat="43.21414" lon="5.47284">
        <ele>428.89</ele>
        <time>2020-02-20T10:00:33Z</time>
      </trkpt>
      <trkpt lat="43.21415" lon="5.47281">
        <ele>428.4</ele>
        <time>2020-02-20T10:00:39Z</time>
      </trkpt>
      <trkpt lat="43.21416" lon="5.47276">
        <ele>427.44</ele>
        <time>2020-02-20T10:00:54Z</time>
      </trkpt>
      <trkpt lat="43.21418" lon="5.47272">
        <ele>426</ele>
        <time>2020-02-20T10:01:13Z</time>
      </trkpt>
      <trkpt lat="43.21415" lon="5.47267">
        <ele>424.08</ele>
        <time>2020-02-20T10:01:29Z</time>
      </trkpt>
      <trkpt lat="43.2141" lon="5.47271">
        <ele>422.16</ele>
        <time>2020-02-20T10:01:43Z</time>
      </trkpt>
      <trkpt lat="43.21406" lon="5.47272">
        <ele>420.71</ele>
        <time>2020-02-20T10:01:57Z</time>
      </trkpt>
      <trkpt lat="43.21403" lon="5.47271">
        <ele>418.79</ele>
        <time>2020-02-20T10:02:12Z</time>
      </trkpt>
      <trkpt lat="43.21403" lon="5.47267">
        <ele>415.43</ele>
        <time>2020-02-20T10:02:24Z</time>
      </trkpt>
      <trkpt lat="43.21403" lon="5.47267">
        <ele>415.43</ele>
        <time>2020-02-20T10:02:25Z</time>
      </trkpt>
      <trkpt lat="43.21403" lon="5.47266">
        <ele>414.95</ele>
        <time>2020-02-20T10:02:40Z</time>
      </trkpt>
      <trkpt lat="43.21402" lon="5.47267">
        <ele>413.98</ele>
        <time>2020-02-20T10:02:56Z</time>
      </trkpt>
      <trkpt lat="43.21404" lon="5.47262">
        <ele>415.91</ele>
        <time>2020-02-20T10:03:06Z</time>
      </trkpt>
      <trkpt lat="43.21405" lon="5.47263">
        <ele>416.39</ele>
        <time>2020-02-20T10:03:16Z</time>
      </trkpt>
      <trkpt lat="43.21408" lon="5.47249">
        <ele>415.43</ele>
        <time>2020-02-20T10:03:30Z</time>
      </trkpt>
      <trkpt lat="43.21406" lon="5.47235">
        <ele>412.06</ele>
        <time>2020-02-20T10:03:45Z</time>
      </trkpt>
      <trkpt lat="43.21405" lon="5.47229">
        <ele>410.14</ele>
        <time>2020-02-20T10:04:00Z</time>
      </trkpt>
      <trkpt lat="43.21404" lon="5.47219">
        <ele>407.26</ele>
        <time>2020-02-20T10:04:13Z</time>
      </trkpt>
      <trkpt lat="43.21403" lon="5.4721">
        <ele>404.85</ele>
        <time>2020-02-20T10:04:30Z</time>
      </trkpt>
      <trkpt lat="43.21402" lon="5.47206">
        <ele>403.41</ele>
        <time>2020-02-20T10:04:34Z</time>
      </trkpt>
      <trkpt lat="43.21396" lon="5.47192">
        <ele>400.53</ele>
        <time>2020-02-20T10:04:50Z</time>
      </trkpt>
      <trkpt lat="43.21391" lon="5.47185">
        <ele>399.08</ele>
        <time>2020-02-20T10:05:05Z</time>
      </trkpt>
      <trkpt lat="43.21386" lon="5.47178">
        <ele>399.08</ele>
        <time>2020-02-20T10:05:17Z</time>
      </trkpt>
      <trkpt lat="43.21383" lon="5.47172">
        <ele>399.57</ele>
        <time>2020-02-20T10:05:30Z</time>
      </trkpt>
      <trkpt lat="43.21385" lon="5.47171">
        <ele>400.05</ele>
        <time>2020-02-20T10:05:56Z</time>
      </trkpt>
      <trkpt lat="43.21391" lon="5.47169">
        <ele>401.01</ele>
        <time>2020-02-20T10:06:15Z</time>
      </trkpt>
      <trkpt lat="43.21391" lon="5.47163">
        <ele>399.57</ele>
        <time>2020-02-20T10:06:25Z</time>
      </trkpt>
      <trkpt lat="43.21387" lon="5.47161">
        <ele>397.64</ele>
        <time>2020-02-20T10:06:37Z</time>
      </trkpt>
      <trkpt lat="43.21384" lon="5.47156">
        <ele>395.72</ele>
        <time>2020-02-20T10:06:51Z</time>
      </trkpt>
      <trkpt lat="43.21378" lon="5.47153">
        <ele>392.84</ele>
        <time>2020-02-20T10:07:06Z</time>
      </trkpt>
      <trkpt lat="43.21377" lon="5.47159">
        <ele>390.43</ele>
        <time>2020-02-20T10:07:19Z</time>
      </trkpt>
      <trkpt lat="43.21374" lon="5.47165">
        <ele>388.99</ele>
        <time>2020-02-20T10:07:33Z</time>
      </trkpt>
      <trkpt lat="43.21369" lon="5.47166">
        <ele>386.11</ele>
        <time>2020-02-20T10:07:47Z</time>
      </trkpt>
      <trkpt lat="43.21369" lon="5.47166">
        <ele>386.11</ele>
        <time>2020-02-20T10:07:48Z</time>
      </trkpt>
      <trkpt lat="43.21365" lon="5.47167">
        <ele>384.66</ele>
        <time>2020-02-20T10:08:01Z</time>
      </trkpt>
      <trkpt lat="43.21363" lon="5.47163">
        <ele>382.74</ele>
        <time>2020-02-20T10:08:14Z</time>
      </trkpt>
      <trkpt lat="43.2136" lon="5.47155">
        <ele>378.9</ele>
        <time>2020-02-20T10:08:29Z</time>
      </trkpt>
      <trkpt lat="43.21354" lon="5.47156">
        <ele>376.97</ele>
        <time>2020-02-20T10:08:43Z</time>
      </trkpt>
      <trkpt lat="43.21357" lon="5.47155">
        <ele>376.97</ele>
        <time>2020-02-20T10:09:15Z</time>
      </trkpt>
      <trkpt lat="43.21359" lon="5.47155">
        <ele>376.97</ele>
        <time>2020-02-20T10:09:43Z</time>
      </trkpt>
      <trkpt lat="43.21363" lon="5.47155">
        <ele>376.49</ele>
        <time>2020-02-20T10:10:13Z</time>
      </trkpt>
      <trkpt lat="43.21359" lon="5.47154">
        <ele>376.49</ele>
        <time>2020-02-20T10:10:44Z</time>
      </trkpt>
      <trkpt lat="43.21355" lon="5.47154">
        <ele>376.49</ele>
        <time>2020-02-20T10:11:13Z</time>
      </trkpt>
      <trkpt lat="43.21355" lon="5.47153">
        <ele>376.49</ele>
        <time>2020-02-20T10:11:48Z</time>
      </trkpt>
      <trkpt lat="43.21353" lon="5.47154">
        <ele>376.49</ele>
        <time>2020-02-20T10:12:21Z</time>
      </trkpt>
      <trkpt lat="43.21357" lon="5.47154">
        <ele>376.01</ele>
        <time>2020-02-20T10:12:43Z</time>
      </trkpt>
      <trkpt lat="43.21354" lon="5.47152">
        <ele>376.01</ele>
        <time>2020-02-20T10:13:02Z</time>
      </trkpt>
      <trkpt lat="43.21354" lon="5.47151">
        <ele>375.05</ele>
        <time>2020-02-20T10:13:23Z</time>
      </trkpt>
      <trkpt lat="43.21346" lon="5.47144">
        <ele>373.13</ele>
        <time>2020-02-20T10:13:40Z</time>
      </trkpt>
      <trkpt lat="43.21339" lon="5.47143">
        <ele>370.24</ele>
        <time>2020-02-20T10:13:56Z</time>
      </trkpt>
      <trkpt lat="43.21337" lon="5.47141">
        <ele>370.73</ele>
        <time>2020-02-20T10:14:10Z</time>
      </trkpt>
      <trkpt lat="43.21336" lon="5.47142">
        <ele>369.28</ele>
        <time>2020-02-20T10:14:14Z</time>
      </trkpt>
      <trkpt lat="43.21331" lon="5.47136">
        <ele>368.8</ele>
        <time>2020-02-20T10:14:25Z</time>
      </trkpt>
      <trkpt lat="43.21336" lon="5.47131">
        <ele>368.8</ele>
        <time>2020-02-20T10:14:51Z</time>
      </trkpt>
      <trkpt lat="43.21334" lon="5.47141">
        <ele>368.8</ele>
        <time>2020-02-20T10:15:05Z</time>
      </trkpt>
      <trkpt lat="43.21335" lon="5.47141">
        <ele>368.32</ele>
        <time>2020-02-20T10:15:29Z</time>
      </trkpt>
      <trkpt lat="43.21333" lon="5.47143">
        <ele>369.28</ele>
        <time>2020-02-20T10:15:39Z</time>
      </trkpt>
      <trkpt lat="43.21331" lon="5.47144">
        <ele>367.84</ele>
        <time>2020-02-20T10:15:45Z</time>
      </trkpt>
      <trkpt lat="43.21331" lon="5.47143">
        <ele>367.84</ele>
        <time>2020-02-20T10:16:24Z</time>
      </trkpt>
      <trkpt lat="43.21333" lon="5.47142">
        <ele>368.32</ele>
        <time>2020-02-20T10:16:54Z</time>
      </trkpt>
      <trkpt lat="43.21335" lon="5.47137">
        <ele>366.88</ele>
        <time>2020-02-20T10:17:13Z</time>
      </trkpt>
      <trkpt lat="43.21344" lon="5.47126">
        <ele>366.88</ele>
        <time>2020-02-20T10:17:29Z</time>
      </trkpt>
      <trkpt lat="43.21341" lon="5.47108">
        <ele>366.4</ele>
        <time>2020-02-20T10:17:46Z</time>
      </trkpt>
      <trkpt lat="43.21338" lon="5.47095">
        <ele>366.4</ele>
        <time>2020-02-20T10:18:03Z</time>
      </trkpt>
      <trkpt lat="43.21337" lon="5.47087">
        <ele>366.88</ele>
        <time>2020-02-20T10:18:20Z</time>
      </trkpt>
      <trkpt lat="43.21336" lon="5.47077">
        <ele>364.96</ele>
        <time>2020-02-20T10:18:34Z</time>
      </trkpt>
      <trkpt lat="43.21339" lon="5.47071">
        <ele>364.48</ele>
        <time>2020-02-20T10:19:01Z</time>
      </trkpt>
      <trkpt lat="43.2134" lon="5.47057">
        <ele>364</ele>
        <time>2020-02-20T10:19:17Z</time>
      </trkpt>
      <trkpt lat="43.21342" lon="5.47051">
        <ele>364</ele>
        <time>2020-02-20T10:19:41Z</time>
      </trkpt>
      <trkpt lat="43.21337" lon="5.47038">
        <ele>366.4</ele>
        <time>2020-02-20T10:19:57Z</time>
      </trkpt>
      <trkpt lat="43.21336" lon="5.47023">
        <ele>369.28</ele>
        <time>2020-02-20T10:20:13Z</time>
      </trkpt>
      <trkpt lat="43.21335" lon="5.47013">
        <ele>369.28</ele>
        <time>2020-02-20T10:20:30Z</time>
      </trkpt>
      <trkpt lat="43.21345" lon="5.47006">
        <ele>367.84</ele>
        <time>2020-02-20T10:20:46Z</time>
      </trkpt>
      <trkpt lat="43.21349" lon="5.46999">
        <ele>367.84</ele>
        <time>2020-02-20T10:20:53Z</time>
      </trkpt>
      <trkpt lat="43.21349" lon="5.46996">
        <ele>367.84</ele>
        <time>2020-02-20T10:20:57Z</time>
      </trkpt>
      <trkpt lat="43.2135" lon="5.46986">
        <ele>369.28</ele>
        <time>2020-02-20T10:21:06Z</time>
      </trkpt>
      <trkpt lat="43.21355" lon="5.46969">
        <ele>371.21</ele>
        <time>2020-02-20T10:21:23Z</time>
      </trkpt>
      <trkpt lat="43.21359" lon="5.46961">
        <ele>373.13</ele>
        <time>2020-02-20T10:21:38Z</time>
      </trkpt>
      <trkpt lat="43.21366" lon="5.46956">
        <ele>375.53</ele>
        <time>2020-02-20T10:21:52Z</time>
      </trkpt>
      <trkpt lat="43.21372" lon="5.46948">
        <ele>378.42</ele>
        <time>2020-02-20T10:22:08Z</time>
      </trkpt>
      <trkpt lat="43.21377" lon="5.46941">
        <ele>380.82</ele>
        <time>2020-02-20T10:22:23Z</time>
      </trkpt>
      <trkpt lat="43.21379" lon="5.46937">
        <ele>382.26</ele>
        <time>2020-02-20T10:22:36Z</time>
      </trkpt>
      <trkpt lat="43.21381" lon="5.46924">
        <ele>384.66</ele>
        <time>2020-02-20T10:22:52Z</time>
      </trkpt>
      <trkpt lat="43.21384" lon="5.46917">
        <ele>387.55</ele>
        <time>2020-02-20T10:23:06Z</time>
      </trkpt>
      <trkpt lat="43.21388" lon="5.46911">
        <ele>389.95</ele>
        <time>2020-02-20T10:23:21Z</time>
      </trkpt>
      <trkpt lat="43.21393" lon="5.46894">
        <ele>392.84</ele>
        <time>2020-02-20T10:23:37Z</time>
      </trkpt>
      <trkpt lat="43.21398" lon="5.46877">
        <ele>394.76</ele>
        <time>2020-02-20T10:23:52Z</time>
      </trkpt>
      <trkpt lat="43.21401" lon="5.46874">
        <ele>395.72</ele>
        <time>2020-02-20T10:24:11Z</time>
      </trkpt>
      <trkpt lat="43.21402" lon="5.46872">
        <ele>396.2</ele>
        <time>2020-02-20T10:24:33Z</time>
      </trkpt>
      <trkpt lat="43.21405" lon="5.46871">
        <ele>396.68</ele>
        <time>2020-02-20T10:24:42Z</time>
      </trkpt>
      <trkpt lat="43.21415" lon="5.4686">
        <ele>399.08</ele>
        <time>2020-02-20T10:24:58Z</time>
      </trkpt>
      <trkpt lat="43.21424" lon="5.46846">
        <ele>400.05</ele>
        <time>2020-02-20T10:25:15Z</time>
      </trkpt>
      <trkpt lat="43.21441" lon="5.46831">
        <ele>400.53</ele>
        <time>2020-02-20T10:25:34Z</time>
      </trkpt>
      <trkpt lat="43.21448" lon="5.46818">
        <ele>400.53</ele>
        <time>2020-02-20T10:25:50Z</time>
      </trkpt>
      <trkpt lat="43.21451" lon="5.46811">
        <ele>399.08</ele>
        <time>2020-02-20T10:26:06Z</time>
      </trkpt>
      <trkpt lat="43.21449" lon="5.46813">
        <ele>399.08</ele>
        <time>2020-02-20T10:26:13Z</time>
      </trkpt>
      <trkpt lat="43.21451" lon="5.46809">
        <ele>399.08</ele>
        <time>2020-02-20T10:26:17Z</time>
      </trkpt>
      <trkpt lat="43.21462" lon="5.46797">
        <ele>400.53</ele>
        <time>2020-02-20T10:26:32Z</time>
      </trkpt>
      <trkpt lat="43.2148" lon="5.46796">
        <ele>399.08</ele>
        <time>2020-02-20T10:26:48Z</time>
      </trkpt>
      <trkpt lat="43.21483" lon="5.46794">
        <ele>398.12</ele>
        <time>2020-02-20T10:26:52Z</time>
      </trkpt>
      <trkpt lat="43.21494" lon="5.46783">
        <ele>396.68</ele>
        <time>2020-02-20T10:27:06Z</time>
      </trkpt>
      <trkpt lat="43.215" lon="5.46773">
        <ele>398.12</ele>
        <time>2020-02-20T10:27:15Z</time>
      </trkpt>
      <trkpt lat="43.2151" lon="5.46763">
        <ele>399.57</ele>
        <time>2020-02-20T10:27:28Z</time>
      </trkpt>
      <trkpt lat="43.21516" lon="5.46758">
        <ele>398.12</ele>
        <time>2020-02-20T10:27:36Z</time>
      </trkpt>
      <trkpt lat="43.21523" lon="5.46751">
        <ele>397.64</ele>
        <time>2020-02-20T10:27:44Z</time>
      </trkpt>
      <trkpt lat="43.21535" lon="5.4674">
        <ele>396.68</ele>
        <time>2020-02-20T10:27:58Z</time>
      </trkpt>
      <trkpt lat="43.21545" lon="5.46729">
        <ele>400.05</ele>
        <time>2020-02-20T10:28:11Z</time>
      </trkpt>
      <trkpt lat="43.21559" lon="5.46721">
        <ele>400.53</ele>
        <time>2020-02-20T10:28:24Z</time>
      </trkpt>
      <trkpt lat="43.21566" lon="5.46711">
        <ele>399.57</ele>
        <time>2020-02-20T10:28:37Z</time>
      </trkpt>
      <trkpt lat="43.21569" lon="5.467">
        <ele>399.08</ele>
        <time>2020-02-20T10:28:44Z</time>
      </trkpt>
      <trkpt lat="43.21577" lon="5.46688">
        <ele>397.64</ele>
        <time>2020-02-20T10:28:57Z</time>
      </trkpt>
      <trkpt lat="43.21584" lon="5.46683">
        <ele>397.64</ele>
        <time>2020-02-20T10:29:14Z</time>
      </trkpt>
      <trkpt lat="43.21585" lon="5.46679">
        <ele>399.08</ele>
        <time>2020-02-20T10:29:36Z</time>
      </trkpt>
      <trkpt lat="43.21584" lon="5.46678">
        <ele>399.57</ele>
        <time>2020-02-20T10:29:38Z</time>
      </trkpt>
      <trkpt lat="43.2158" lon="5.46673">
        <ele>401.01</ele>
        <time>2020-02-20T10:29:44Z</time>
      </trkpt>
      <trkpt lat="43.21576" lon="5.4667">
        <ele>401.49</ele>
        <time>2020-02-20T10:29:48Z</time>
      </trkpt>
      <trkpt lat="43.21561" lon="5.46658">
        <ele>405.33</ele>
        <time>2020-02-20T10:30:05Z</time>
      </trkpt>
      <trkpt lat="43.2155" lon="5.46648">
        <ele>408.22</ele>
        <time>2020-02-20T10:30:21Z</time>
      </trkpt>
      <trkpt lat="43.21539" lon="5.46647">
        <ele>411.1</ele>
        <time>2020-02-20T10:30:37Z</time>
      </trkpt>
      <trkpt lat="43.21535" lon="5.46653">
        <ele>412.06</ele>
        <time>2020-02-20T10:30:55Z</time>
      </trkpt>
      <trkpt lat="43.21529" lon="5.46648">
        <ele>413.5</ele>
        <time>2020-02-20T10:31:11Z</time>
      </trkpt>
      <trkpt lat="43.21507" lon="5.46647">
        <ele>413.98</ele>
        <time>2020-02-20T10:31:29Z</time>
      </trkpt>
      <trkpt lat="43.21487" lon="5.46652">
        <ele>412.54</ele>
        <time>2020-02-20T10:31:46Z</time>
      </trkpt>
      <trkpt lat="43.21466" lon="5.4665">
        <ele>412.06</ele>
        <time>2020-02-20T10:32:04Z</time>
      </trkpt>
      <trkpt lat="43.21459" lon="5.46643">
        <ele>414.95</ele>
        <time>2020-02-20T10:32:14Z</time>
      </trkpt>
      <trkpt lat="43.21453" lon="5.46637">
        <ele>417.83</ele>
        <time>2020-02-20T10:32:27Z</time>
      </trkpt>
      <trkpt lat="43.21443" lon="5.46626">
        <ele>421.19</ele>
        <time>2020-02-20T10:32:42Z</time>
      </trkpt>
      <trkpt lat="43.21432" lon="5.46621">
        <ele>423.12</ele>
        <time>2020-02-20T10:32:57Z</time>
      </trkpt>
      <trkpt lat="43.21421" lon="5.46615">
        <ele>426</ele>
        <time>2020-02-20T10:33:13Z</time>
      </trkpt>
      <trkpt lat="43.21415" lon="5.46609">
        <ele>428.89</ele>
        <time>2020-02-20T10:33:29Z</time>
      </trkpt>
      <trkpt lat="43.21411" lon="5.46606">
        <ele>429.37</ele>
        <time>2020-02-20T10:33:47Z</time>
      </trkpt>
      <trkpt lat="43.21404" lon="5.466">
        <ele>431.29</ele>
        <time>2020-02-20T10:34:05Z</time>
      </trkpt>
      <trkpt lat="43.21404" lon="5.46601">
        <ele>431.29</ele>
        <time>2020-02-20T10:34:27Z</time>
      </trkpt>
      <trkpt lat="43.21405" lon="5.46601">
        <ele>431.29</ele>
        <time>2020-02-20T10:34:51Z</time>
      </trkpt>
      <trkpt lat="43.21401" lon="5.46602">
        <ele>431.77</ele>
        <time>2020-02-20T10:35:12Z</time>
      </trkpt>
      <trkpt lat="43.214" lon="5.46608">
        <ele>430.33</ele>
        <time>2020-02-20T10:35:25Z</time>
      </trkpt>
      <trkpt lat="43.21388" lon="5.46613">
        <ele>429.85</ele>
        <time>2020-02-20T10:35:43Z</time>
      </trkpt>
      <trkpt lat="43.21375" lon="5.46616">
        <ele>428.89</ele>
        <time>2020-02-20T10:36:03Z</time>
      </trkpt>
      <trkpt lat="43.21375" lon="5.46611">
        <ele>430.33</ele>
        <time>2020-02-20T10:36:17Z</time>
      </trkpt>
      <trkpt lat="43.21374" lon="5.46602">
        <ele>433.69</ele>
        <time>2020-02-20T10:36:27Z</time>
      </trkpt>
      <trkpt lat="43.21368" lon="5.46594">
        <ele>434.65</ele>
        <time>2020-02-20T10:36:43Z</time>
      </trkpt>
      <trkpt lat="43.21363" lon="5.46593">
        <ele>433.69</ele>
        <time>2020-02-20T10:37:09Z</time>
      </trkpt>
      <trkpt lat="43.21358" lon="5.46597">
        <ele>432.25</ele>
        <time>2020-02-20T10:37:26Z</time>
      </trkpt>
      <trkpt lat="43.21355" lon="5.46594">
        <ele>432.25</ele>
        <time>2020-02-20T10:37:44Z</time>
      </trkpt>
      <trkpt lat="43.21355" lon="5.46599">
        <ele>431.77</ele>
        <time>2020-02-20T10:38:03Z</time>
      </trkpt>
      <trkpt lat="43.21343" lon="5.46598">
        <ele>427.92</ele>
        <time>2020-02-20T10:38:18Z</time>
      </trkpt>
      <trkpt lat="43.21337" lon="5.46598">
        <ele>426.96</ele>
        <time>2020-02-20T10:38:36Z</time>
      </trkpt>
      <trkpt lat="43.21333" lon="5.46598">
        <ele>426</ele>
        <time>2020-02-20T10:38:53Z</time>
      </trkpt>
      <trkpt lat="43.21327" lon="5.46601">
        <ele>425.52</ele>
        <time>2020-02-20T10:39:11Z</time>
      </trkpt>
      <trkpt lat="43.21319" lon="5.46609">
        <ele>424.56</ele>
        <time>2020-02-20T10:39:24Z</time>
      </trkpt>
      <trkpt lat="43.21309" lon="5.46607">
        <ele>423.6</ele>
        <time>2020-02-20T10:39:38Z</time>
      </trkpt>
      <trkpt lat="43.21297" lon="5.46597">
        <ele>422.64</ele>
        <time>2020-02-20T10:39:53Z</time>
      </trkpt>
      <trkpt lat="43.21289" lon="5.46598">
        <ele>422.64</ele>
        <time>2020-02-20T10:40:14Z</time>
      </trkpt>
      <trkpt lat="43.21289" lon="5.46597">
        <ele>422.64</ele>
        <time>2020-02-20T10:40:39Z</time>
      </trkpt>
      <trkpt lat="43.21294" lon="5.46601">
        <ele>422.64</ele>
        <time>2020-02-20T10:41:02Z</time>
      </trkpt>
      <trkpt lat="43.21294" lon="5.46599">
        <ele>422.64</ele>
        <time>2020-02-20T10:41:39Z</time>
      </trkpt>
      <trkpt lat="43.21291" lon="5.46596">
        <ele>422.64</ele>
        <time>2020-02-20T10:41:59Z</time>
      </trkpt>
      <trkpt lat="43.21292" lon="5.46596">
        <ele>422.16</ele>
        <time>2020-02-20T10:42:14Z</time>
      </trkpt>
      <trkpt lat="43.21295" lon="5.46598">
        <ele>423.6</ele>
        <time>2020-02-20T10:42:34Z</time>
      </trkpt>
      <trkpt lat="43.213" lon="5.46601">
        <ele>422.16</ele>
        <time>2020-02-20T10:42:39Z</time>
      </trkpt>
      <trkpt lat="43.21302" lon="5.46593">
        <ele>420.71</ele>
        <time>2020-02-20T10:42:52Z</time>
      </trkpt>
      <trkpt lat="43.21306" lon="5.46583">
        <ele>418.31</ele>
        <time>2020-02-20T10:43:08Z</time>
      </trkpt>
      <trkpt lat="43.21305" lon="5.46585">
        <ele>418.31</ele>
        <time>2020-02-20T10:43:35Z</time>
      </trkpt>
      <trkpt lat="43.21311" lon="5.46583">
        <ele>416.87</ele>
        <time>2020-02-20T10:43:51Z</time>
      </trkpt>
      <trkpt lat="43.21313" lon="5.46581">
        <ele>415.91</ele>
        <time>2020-02-20T10:43:57Z</time>
      </trkpt>
      <trkpt lat="43.21323" lon="5.46578">
        <ele>416.87</ele>
        <time>2020-02-20T10:44:11Z</time>
      </trkpt>
      <trkpt lat="43.21334" lon="5.46567">
        <ele>415.91</ele>
        <time>2020-02-20T10:44:25Z</time>
      </trkpt>
      <trkpt lat="43.21343" lon="5.46551">
        <ele>412.06</ele>
        <time>2020-02-20T10:44:42Z</time>
      </trkpt>
      <trkpt lat="43.21344" lon="5.46549">
        <ele>412.54</ele>
        <time>2020-02-20T10:44:44Z</time>
      </trkpt>
      <trkpt lat="43.21348" lon="5.46533">
        <ele>410.14</ele>
        <time>2020-02-20T10:44:56Z</time>
      </trkpt>
      <trkpt lat="43.21349" lon="5.46531">
        <ele>410.14</ele>
        <time>2020-02-20T10:44:58Z</time>
      </trkpt>
      <trkpt lat="43.2135" lon="5.4652">
        <ele>408.7</ele>
        <time>2020-02-20T10:45:15Z</time>
      </trkpt>
      <trkpt lat="43.2136" lon="5.46522">
        <ele>408.7</ele>
        <time>2020-02-20T10:45:32Z</time>
      </trkpt>
      <trkpt lat="43.21364" lon="5.46524">
        <ele>408.7</ele>
        <time>2020-02-20T10:45:48Z</time>
      </trkpt>
      <trkpt lat="43.21369" lon="5.46526">
        <ele>407.74</ele>
        <time>2020-02-20T10:46:04Z</time>
      </trkpt>
      <trkpt lat="43.21372" lon="5.46525">
        <ele>405.33</ele>
        <time>2020-02-20T10:46:20Z</time>
      </trkpt>
      <trkpt lat="43.21373" lon="5.46519">
        <ele>402.93</ele>
        <time>2020-02-20T10:46:35Z</time>
      </trkpt>
      <trkpt lat="43.21376" lon="5.46518">
        <ele>401.01</ele>
        <time>2020-02-20T10:46:51Z</time>
      </trkpt>
      <trkpt lat="43.21383" lon="5.46513">
        <ele>398.6</ele>
        <time>2020-02-20T10:47:06Z</time>
      </trkpt>
      <trkpt lat="43.21391" lon="5.46515">
        <ele>396.2</ele>
        <time>2020-02-20T10:47:20Z</time>
      </trkpt>
      <trkpt lat="43.21403" lon="5.46512">
        <ele>393.32</ele>
        <time>2020-02-20T10:47:34Z</time>
      </trkpt>
      <trkpt lat="43.21416" lon="5.46512">
        <ele>391.39</ele>
        <time>2020-02-20T10:47:50Z</time>
      </trkpt>
      <trkpt lat="43.21419" lon="5.4651">
        <ele>389.95</ele>
        <time>2020-02-20T10:48:04Z</time>
      </trkpt>
      <trkpt lat="43.21421" lon="5.46505">
        <ele>387.55</ele>
        <time>2020-02-20T10:48:16Z</time>
      </trkpt>
      <trkpt lat="43.21425" lon="5.46502">
        <ele>385.15</ele>
        <time>2020-02-20T10:48:29Z</time>
      </trkpt>
      <trkpt lat="43.21426" lon="5.46498">
        <ele>383.22</ele>
        <time>2020-02-20T10:48:44Z</time>
      </trkpt>
      <trkpt lat="43.21428" lon="5.46491">
        <ele>379.86</ele>
        <time>2020-02-20T10:48:58Z</time>
      </trkpt>
      <trkpt lat="43.2143" lon="5.46486">
        <ele>378.42</ele>
        <time>2020-02-20T10:49:12Z</time>
      </trkpt>
      <trkpt lat="43.21437" lon="5.46477">
        <ele>376.49</ele>
        <time>2020-02-20T10:49:28Z</time>
      </trkpt>
      <trkpt lat="43.21451" lon="5.4647">
        <ele>375.53</ele>
        <time>2020-02-20T10:49:45Z</time>
      </trkpt>
      <trkpt lat="43.21459" lon="5.46463">
        <ele>374.57</ele>
        <time>2020-02-20T10:50:06Z</time>
      </trkpt>
      <trkpt lat="43.21463" lon="5.46455">
        <ele>372.17</ele>
        <time>2020-02-20T10:50:20Z</time>
      </trkpt>
      <trkpt lat="43.21466" lon="5.46451">
        <ele>371.21</ele>
        <time>2020-02-20T10:50:36Z</time>
      </trkpt>
      <trkpt lat="43.21467" lon="5.46446">
        <ele>371.21</ele>
        <time>2020-02-20T10:50:57Z</time>
      </trkpt>
      <trkpt lat="43.21459" lon="5.46437">
        <ele>369.76</ele>
        <time>2020-02-20T10:51:11Z</time>
      </trkpt>
      <trkpt lat="43.21448" lon="5.46429">
        <ele>367.36</ele>
        <time>2020-02-20T10:51:26Z</time>
      </trkpt>
      <trkpt lat="43.21444" lon="5.46405">
        <ele>366.88</ele>
        <time>2020-02-20T10:51:42Z</time>
      </trkpt>
      <trkpt lat="43.2145" lon="5.46381">
        <ele>365.92</ele>
        <time>2020-02-20T10:52:01Z</time>
      </trkpt>
      <trkpt lat="43.21453" lon="5.46365">
        <ele>363.52</ele>
        <time>2020-02-20T10:52:16Z</time>
      </trkpt>
      <trkpt lat="43.21454" lon="5.46363">
        <ele>363.52</ele>
        <time>2020-02-20T10:52:18Z</time>
      </trkpt>
      <trkpt lat="43.21462" lon="5.46347">
        <ele>361.11</ele>
        <time>2020-02-20T10:52:33Z</time>
      </trkpt>
      <trkpt lat="43.21468" lon="5.46338">
        <ele>360.63</ele>
        <time>2020-02-20T10:52:42Z</time>
      </trkpt>
      <trkpt lat="43.21465" lon="5.46329">
        <ele>360.15</ele>
        <time>2020-02-20T10:52:53Z</time>
      </trkpt>
      <trkpt lat="43.21457" lon="5.46321">
        <ele>358.71</ele>
        <time>2020-02-20T10:53:03Z</time>
      </trkpt>
      <trkpt lat="43.21443" lon="5.46301">
        <ele>357.27</ele>
        <time>2020-02-20T10:53:23Z</time>
      </trkpt>
      <trkpt lat="43.21444" lon="5.46298">
        <ele>356.79</ele>
        <time>2020-02-20T10:53:41Z</time>
      </trkpt>
      <trkpt lat="43.21442" lon="5.46287">
        <ele>356.31</ele>
        <time>2020-02-20T10:53:59Z</time>
      </trkpt>
      <trkpt lat="43.21441" lon="5.46275">
        <ele>354.86</ele>
        <time>2020-02-20T10:54:12Z</time>
      </trkpt>
      <trkpt lat="43.21439" lon="5.4625">
        <ele>352.46</ele>
        <time>2020-02-20T10:54:29Z</time>
      </trkpt>
      <trkpt lat="43.21441" lon="5.46219">
        <ele>351.5</ele>
        <time>2020-02-20T10:54:49Z</time>
      </trkpt>
      <trkpt lat="43.21446" lon="5.462">
        <ele>352.46</ele>
        <time>2020-02-20T10:55:03Z</time>
      </trkpt>
      <trkpt lat="43.2145" lon="5.46192">
        <ele>352.94</ele>
        <time>2020-02-20T10:55:21Z</time>
      </trkpt>
      <trkpt lat="43.21455" lon="5.46189">
        <ele>353.42</ele>
        <time>2020-02-20T10:55:36Z</time>
      </trkpt>
      <trkpt lat="43.2146" lon="5.46191">
        <ele>353.42</ele>
        <time>2020-02-20T10:55:47Z</time>
      </trkpt>
      <trkpt lat="43.21472" lon="5.46181">
        <ele>353.42</ele>
        <time>2020-02-20T10:56:03Z</time>
      </trkpt>
      <trkpt lat="43.21482" lon="5.46179">
        <ele>353.9</ele>
        <time>2020-02-20T10:56:15Z</time>
      </trkpt>
      <trkpt lat="43.21496" lon="5.46168">
        <ele>354.38</ele>
        <time>2020-02-20T10:56:33Z</time>
      </trkpt>
      <trkpt lat="43.21508" lon="5.46164">
        <ele>354.86</ele>
        <time>2020-02-20T10:56:49Z</time>
      </trkpt>
      <trkpt lat="43.2152" lon="5.46146">
        <ele>352.46</ele>
        <time>2020-02-20T10:57:07Z</time>
      </trkpt>
      <trkpt lat="43.2153" lon="5.46126">
        <ele>351.5</ele>
        <time>2020-02-20T10:57:23Z</time>
      </trkpt>
      <trkpt lat="43.21534" lon="5.46106">
        <ele>351.5</ele>
        <time>2020-02-20T10:57:40Z</time>
      </trkpt>
      <trkpt lat="43.21528" lon="5.46087">
        <ele>353.9</ele>
        <time>2020-02-20T10:57:57Z</time>
      </trkpt>
      <trkpt lat="43.21532" lon="5.46068">
        <ele>356.31</ele>
        <time>2020-02-20T10:58:14Z</time>
      </trkpt>
      <trkpt lat="43.21536" lon="5.46047">
        <ele>358.23</ele>
        <time>2020-02-20T10:58:32Z</time>
      </trkpt>
      <trkpt lat="43.21535" lon="5.46045">
        <ele>358.23</ele>
        <time>2020-02-20T10:58:49Z</time>
      </trkpt>
      <trkpt lat="43.21538" lon="5.46047">
        <ele>358.23</ele>
        <time>2020-02-20T10:59:14Z</time>
      </trkpt>
      <trkpt lat="43.21543" lon="5.46049">
        <ele>356.79</ele>
        <time>2020-02-20T10:59:23Z</time>
      </trkpt>
      <trkpt lat="43.21559" lon="5.46054">
        <ele>356.79</ele>
        <time>2020-02-20T10:59:41Z</time>
      </trkpt>
      <trkpt lat="43.21562" lon="5.46056">
        <ele>358.23</ele>
        <time>2020-02-20T10:59:44Z</time>
      </trkpt>
      <trkpt lat="43.21576" lon="5.46059">
        <ele>360.63</ele>
        <time>2020-02-20T11:00:00Z</time>
      </trkpt>
      <trkpt lat="43.21578" lon="5.46061">
        <ele>361.11</ele>
        <time>2020-02-20T11:00:04Z</time>
      </trkpt>
      <trkpt lat="43.21587" lon="5.46062">
        <ele>362.07</ele>
        <time>2020-02-20T11:00:20Z</time>
      </trkpt>
      <trkpt lat="43.21589" lon="5.46062">
        <ele>360.63</ele>
        <time>2020-02-20T11:00:23Z</time>
      </trkpt>
      <trkpt lat="43.21604" lon="5.46059">
        <ele>358.71</ele>
        <time>2020-02-20T11:00:40Z</time>
      </trkpt>
      <trkpt lat="43.21618" lon="5.46054">
        <ele>358.71</ele>
        <time>2020-02-20T11:00:56Z</time>
      </trkpt>
      <trkpt lat="43.21632" lon="5.46051">
        <ele>358.71</ele>
        <time>2020-02-20T11:01:12Z</time>
      </trkpt>
      <trkpt lat="43.2164" lon="5.46058">
        <ele>357.75</ele>
        <time>2020-02-20T11:01:27Z</time>
      </trkpt>
      <trkpt lat="43.21651" lon="5.46062">
        <ele>355.34</ele>
        <time>2020-02-20T11:01:41Z</time>
      </trkpt>
      <trkpt lat="43.21665" lon="5.4606">
        <ele>355.34</ele>
        <time>2020-02-20T11:01:56Z</time>
      </trkpt>
      <trkpt lat="43.21684" lon="5.46049">
        <ele>355.34</ele>
        <time>2020-02-20T11:02:13Z</time>
      </trkpt>
      <trkpt lat="43.21695" lon="5.4605">
        <ele>356.31</ele>
        <time>2020-02-20T11:02:22Z</time>
      </trkpt>
      <trkpt lat="43.21713" lon="5.46046">
        <ele>357.75</ele>
        <time>2020-02-20T11:02:40Z</time>
      </trkpt>
      <trkpt lat="43.21713" lon="5.46046">
        <ele>358.23</ele>
        <time>2020-02-20T11:03:08Z</time>
      </trkpt>
      <trkpt lat="43.2171" lon="5.46037">
        <ele>358.23</ele>
        <time>2020-02-20T11:03:30Z</time>
      </trkpt>
      <trkpt lat="43.2171" lon="5.46026">
        <ele>358.71</ele>
        <time>2020-02-20T11:03:51Z</time>
      </trkpt>
      <trkpt lat="43.21707" lon="5.46023">
        <ele>358.71</ele>
        <time>2020-02-20T11:03:54Z</time>
      </trkpt>
      <trkpt lat="43.21695" lon="5.46007">
        <ele>357.27</ele>
        <time>2020-02-20T11:04:12Z</time>
      </trkpt>
      <trkpt lat="43.2169" lon="5.46002">
        <ele>358.71</ele>
        <time>2020-02-20T11:04:17Z</time>
      </trkpt>
      <trkpt lat="43.2169" lon="5.45986">
        <ele>361.11</ele>
        <time>2020-02-20T11:04:34Z</time>
      </trkpt>
      <trkpt lat="43.21689" lon="5.45962">
        <ele>363.04</ele>
        <time>2020-02-20T11:04:53Z</time>
      </trkpt>
      <trkpt lat="43.21686" lon="5.45945">
        <ele>364.96</ele>
        <time>2020-02-20T11:05:09Z</time>
      </trkpt>
      <trkpt lat="43.21688" lon="5.45931">
        <ele>366.4</ele>
        <time>2020-02-20T11:05:26Z</time>
      </trkpt>
      <trkpt lat="43.21689" lon="5.45925">
        <ele>366.4</ele>
        <time>2020-02-20T11:05:45Z</time>
      </trkpt>
      <trkpt lat="43.21693" lon="5.45909">
        <ele>367.36</ele>
        <time>2020-02-20T11:06:03Z</time>
      </trkpt>
      <trkpt lat="43.21692" lon="5.45901">
        <ele>367.84</ele>
        <time>2020-02-20T11:06:24Z</time>
      </trkpt>
      <trkpt lat="43.21695" lon="5.45893">
        <ele>366.4</ele>
        <time>2020-02-20T11:06:41Z</time>
      </trkpt>
      <trkpt lat="43.21687" lon="5.45889">
        <ele>364</ele>
        <time>2020-02-20T11:06:57Z</time>
      </trkpt>
      <trkpt lat="43.21681" lon="5.4589">
        <ele>363.52</ele>
        <time>2020-02-20T11:07:21Z</time>
      </trkpt>
      <trkpt lat="43.21683" lon="5.45893">
        <ele>363.52</ele>
        <time>2020-02-20T11:07:44Z</time>
      </trkpt>
      <trkpt lat="43.21685" lon="5.4589">
        <ele>363.52</ele>
        <time>2020-02-20T11:08:04Z</time>
      </trkpt>
      <trkpt lat="43.21684" lon="5.45891">
        <ele>363.52</ele>
        <time>2020-02-20T11:08:23Z</time>
      </trkpt>
      <trkpt lat="43.21683" lon="5.45889">
        <ele>363.52</ele>
        <time>2020-02-20T11:08:40Z</time>
      </trkpt>
      <trkpt lat="43.21685" lon="5.45891">
        <ele>365.92</ele>
        <time>2020-02-20T12:16:51Z</time>
      </trkpt>
      <trkpt lat="43.21696" lon="5.4589">
        <ele>365.92</ele>
        <time>2020-02-20T12:16:52Z</time>
      </trkpt>
      <trkpt lat="43.21694" lon="5.45891">
        <ele>367.84</ele>
        <time>2020-02-20T12:17:09Z</time>
      </trkpt>
      <trkpt lat="43.21696" lon="5.45892">
        <ele>370.73</ele>
        <time>2020-02-20T12:17:33Z</time>
      </trkpt>
      <trkpt lat="43.21696" lon="5.45892">
        <ele>366.4</ele>
        <time>2020-02-20T12:17:34Z</time>
      </trkpt>
      <trkpt lat="43.21696" lon="5.45892">
        <ele>371.21</ele>
        <time>2020-02-20T12:17:35Z</time>
      </trkpt>
      <trkpt lat="43.21697" lon="5.45891">
        <ele>371.21</ele>
        <time>2020-02-20T12:17:53Z</time>
      </trkpt>
      <trkpt lat="43.21697" lon="5.45889">
        <ele>371.69</ele>
        <time>2020-02-20T12:18:05Z</time>
      </trkpt>
      <trkpt lat="43.21703" lon="5.45889">
        <ele>371.69</ele>
        <time>2020-02-20T12:18:20Z</time>
      </trkpt>
      <trkpt lat="43.21715" lon="5.45887">
        <ele>372.17</ele>
        <time>2020-02-20T12:18:30Z</time>
      </trkpt>
      <trkpt lat="43.21719" lon="5.45884">
        <ele>372.65</ele>
        <time>2020-02-20T12:18:40Z</time>
      </trkpt>
      <trkpt lat="43.21732" lon="5.45881">
        <ele>374.57</ele>
        <time>2020-02-20T12:18:58Z</time>
      </trkpt>
      <trkpt lat="43.21744" lon="5.45876">
        <ele>376.97</ele>
        <time>2020-02-20T12:19:13Z</time>
      </trkpt>
      <trkpt lat="43.21758" lon="5.45872">
        <ele>379.38</ele>
        <time>2020-02-20T12:19:30Z</time>
      </trkpt>
      <trkpt lat="43.21774" lon="5.45871">
        <ele>379.86</ele>
        <time>2020-02-20T12:19:47Z</time>
      </trkpt>
      <trkpt lat="43.21785" lon="5.45865">
        <ele>380.34</ele>
        <time>2020-02-20T12:20:05Z</time>
      </trkpt>
      <trkpt lat="43.21793" lon="5.45857">
        <ele>380.82</ele>
        <time>2020-02-20T12:20:19Z</time>
      </trkpt>
      <trkpt lat="43.21792" lon="5.45851">
        <ele>384.18</ele>
        <time>2020-02-20T12:20:31Z</time>
      </trkpt>
      <trkpt lat="43.21791" lon="5.45837">
        <ele>385.63</ele>
        <time>2020-02-20T12:20:45Z</time>
      </trkpt>
      <trkpt lat="43.2179" lon="5.45823">
        <ele>388.99</ele>
        <time>2020-02-20T12:21:00Z</time>
      </trkpt>
      <trkpt lat="43.21794" lon="5.45811">
        <ele>389.47</ele>
        <time>2020-02-20T12:21:13Z</time>
      </trkpt>
      <trkpt lat="43.21806" lon="5.45808">
        <ele>390.43</ele>
        <time>2020-02-20T12:21:29Z</time>
      </trkpt>
      <trkpt lat="43.21816" lon="5.45807">
        <ele>390.91</ele>
        <time>2020-02-20T12:21:44Z</time>
      </trkpt>
      <trkpt lat="43.21818" lon="5.45804">
        <ele>390.91</ele>
        <time>2020-02-20T12:22:01Z</time>
      </trkpt>
      <trkpt lat="43.21819" lon="5.45803">
        <ele>389.47</ele>
        <time>2020-02-20T12:22:04Z</time>
      </trkpt>
      <trkpt lat="43.21819" lon="5.45797">
        <ele>388.03</ele>
        <time>2020-02-20T12:22:19Z</time>
      </trkpt>
      <trkpt lat="43.21815" lon="5.458">
        <ele>386.59</ele>
        <time>2020-02-20T12:22:34Z</time>
      </trkpt>
      <trkpt lat="43.21815" lon="5.45799">
        <ele>385.63</ele>
        <time>2020-02-20T12:22:36Z</time>
      </trkpt>
      <trkpt lat="43.21812" lon="5.45796">
        <ele>383.7</ele>
        <time>2020-02-20T12:22:50Z</time>
      </trkpt>
      <trkpt lat="43.21809" lon="5.45791">
        <ele>381.3</ele>
        <time>2020-02-20T12:23:06Z</time>
      </trkpt>
      <trkpt lat="43.21809" lon="5.45786">
        <ele>378.9</ele>
        <time>2020-02-20T12:23:23Z</time>
      </trkpt>
      <trkpt lat="43.218" lon="5.45789">
        <ele>376.49</ele>
        <time>2020-02-20T12:23:36Z</time>
      </trkpt>
      <trkpt lat="43.218" lon="5.45787">
        <ele>374.57</ele>
        <time>2020-02-20T12:23:51Z</time>
      </trkpt>
      <trkpt lat="43.21798" lon="5.45785">
        <ele>372.17</ele>
        <time>2020-02-20T12:24:05Z</time>
      </trkpt>
      <trkpt lat="43.21796" lon="5.45782">
        <ele>368.8</ele>
        <time>2020-02-20T12:24:22Z</time>
      </trkpt>
      <trkpt lat="43.21795" lon="5.45783">
        <ele>366.88</ele>
        <time>2020-02-20T12:24:38Z</time>
      </trkpt>
      <trkpt lat="43.21792" lon="5.45775">
        <ele>364.48</ele>
        <time>2020-02-20T12:24:52Z</time>
      </trkpt>
      <trkpt lat="43.2179" lon="5.45768">
        <ele>362.07</ele>
        <time>2020-02-20T12:25:06Z</time>
      </trkpt>
      <trkpt lat="43.21789" lon="5.45772">
        <ele>360.63</ele>
        <time>2020-02-20T12:25:23Z</time>
      </trkpt>
      <trkpt lat="43.21783" lon="5.45763">
        <ele>357.75</ele>
        <time>2020-02-20T12:25:37Z</time>
      </trkpt>
      <trkpt lat="43.2178" lon="5.45767">
        <ele>357.27</ele>
        <time>2020-02-20T12:25:49Z</time>
      </trkpt>
      <trkpt lat="43.21777" lon="5.4577">
        <ele>354.86</ele>
        <time>2020-02-20T12:26:02Z</time>
      </trkpt>
      <trkpt lat="43.21774" lon="5.45772">
        <ele>353.9</ele>
        <time>2020-02-20T12:26:14Z</time>
      </trkpt>
      <trkpt lat="43.21773" lon="5.4577">
        <ele>353.42</ele>
        <time>2020-02-20T12:26:30Z</time>
      </trkpt>
      <trkpt lat="43.21769" lon="5.45773">
        <ele>350.06</ele>
        <time>2020-02-20T12:26:45Z</time>
      </trkpt>
      <trkpt lat="43.21766" lon="5.45773">
        <ele>347.17</ele>
        <time>2020-02-20T12:27:00Z</time>
      </trkpt>
      <trkpt lat="43.21761" lon="5.45775">
        <ele>345.25</ele>
        <time>2020-02-20T12:27:16Z</time>
      </trkpt>
      <trkpt lat="43.21757" lon="5.4577">
        <ele>343.33</ele>
        <time>2020-02-20T12:27:31Z</time>
      </trkpt>
      <trkpt lat="43.21754" lon="5.45773">
        <ele>342.37</ele>
        <time>2020-02-20T12:27:53Z</time>
      </trkpt>
      <trkpt lat="43.21752" lon="5.45774">
        <ele>341.41</ele>
        <time>2020-02-20T12:27:55Z</time>
      </trkpt>
      <trkpt lat="43.21747" lon="5.45775">
        <ele>338.52</ele>
        <time>2020-02-20T12:28:09Z</time>
      </trkpt>
      <trkpt lat="43.21746" lon="5.45776">
        <ele>337.08</ele>
        <time>2020-02-20T12:28:15Z</time>
      </trkpt>
      <trkpt lat="43.21746" lon="5.45776">
        <ele>336.12</ele>
        <time>2020-02-20T12:28:34Z</time>
      </trkpt>
      <trkpt lat="43.21742" lon="5.45772">
        <ele>335.16</ele>
        <time>2020-02-20T12:29:01Z</time>
      </trkpt>
      <trkpt lat="43.2174" lon="5.45772">
        <ele>333.23</ele>
        <time>2020-02-20T12:29:17Z</time>
      </trkpt>
      <trkpt lat="43.21739" lon="5.45768">
        <ele>332.27</ele>
        <time>2020-02-20T12:29:35Z</time>
      </trkpt>
      <trkpt lat="43.21732" lon="5.45776">
        <ele>329.39</ele>
        <time>2020-02-20T12:29:52Z</time>
      </trkpt>
      <trkpt lat="43.21724" lon="5.45779">
        <ele>326.5</ele>
        <time>2020-02-20T12:30:06Z</time>
      </trkpt>
      <trkpt lat="43.21724" lon="5.45777">
        <ele>326.02</ele>
        <time>2020-02-20T12:30:22Z</time>
      </trkpt>
      <trkpt lat="43.21723" lon="5.45777">
        <ele>323.14</ele>
        <time>2020-02-20T12:30:40Z</time>
      </trkpt>
      <trkpt lat="43.21717" lon="5.45774">
        <ele>320.74</ele>
        <time>2020-02-20T12:30:54Z</time>
      </trkpt>
      <trkpt lat="43.21711" lon="5.45775">
        <ele>320.26</ele>
        <time>2020-02-20T12:31:11Z</time>
      </trkpt>
      <trkpt lat="43.21721" lon="5.45788">
        <ele>320.26</ele>
        <time>2020-02-20T12:31:46Z</time>
      </trkpt>
      <trkpt lat="43.21712" lon="5.45782">
        <ele>320.26</ele>
        <time>2020-02-20T12:32:22Z</time>
      </trkpt>
      <trkpt lat="43.21715" lon="5.4578">
        <ele>319.78</ele>
        <time>2020-02-20T12:32:44Z</time>
      </trkpt>
      <trkpt lat="43.21715" lon="5.45777">
        <ele>319.78</ele>
        <time>2020-02-20T12:33:12Z</time>
      </trkpt>
      <trkpt lat="43.21717" lon="5.45772">
        <ele>317.85</ele>
        <time>2020-02-20T12:33:34Z</time>
      </trkpt>
      <trkpt lat="43.21716" lon="5.45761">
        <ele>314.97</ele>
        <time>2020-02-20T12:33:50Z</time>
      </trkpt>
      <trkpt lat="43.2171" lon="5.45754">
        <ele>312.57</ele>
        <time>2020-02-20T12:34:11Z</time>
      </trkpt>
      <trkpt lat="43.21709" lon="5.45745">
        <ele>310.64</ele>
        <time>2020-02-20T12:34:29Z</time>
      </trkpt>
      <trkpt lat="43.21701" lon="5.45736">
        <ele>307.28</ele>
        <time>2020-02-20T12:34:45Z</time>
      </trkpt>
      <trkpt lat="43.21692" lon="5.45724">
        <ele>305.84</ele>
        <time>2020-02-20T12:35:03Z</time>
      </trkpt>
      <trkpt lat="43.21688" lon="5.45714">
        <ele>304.88</ele>
        <time>2020-02-20T12:35:22Z</time>
      </trkpt>
      <trkpt lat="43.21677" lon="5.457">
        <ele>303.43</ele>
        <time>2020-02-20T12:35:38Z</time>
      </trkpt>
      <trkpt lat="43.21668" lon="5.45689">
        <ele>301.51</ele>
        <time>2020-02-20T12:35:49Z</time>
      </trkpt>
      <trkpt lat="43.21665" lon="5.45685">
        <ele>301.03</ele>
        <time>2020-02-20T12:35:53Z</time>
      </trkpt>
      <trkpt lat="43.21664" lon="5.45683">
        <ele>301.03</ele>
        <time>2020-02-20T12:35:54Z</time>
      </trkpt>
      <trkpt lat="43.21662" lon="5.45679">
        <ele>301.03</ele>
        <time>2020-02-20T12:35:55Z</time>
      </trkpt>
      <trkpt lat="43.21662" lon="5.45679">
        <ele>300.55</ele>
        <time>2020-02-20T12:35:56Z</time>
      </trkpt>
      <trkpt lat="43.21661" lon="5.45677">
        <ele>300.55</ele>
        <time>2020-02-20T12:35:57Z</time>
      </trkpt>
      <trkpt lat="43.21659" lon="5.45673">
        <ele>300.55</ele>
        <time>2020-02-20T12:35:59Z</time>
      </trkpt>
      <trkpt lat="43.21658" lon="5.45672">
        <ele>300.07</ele>
        <time>2020-02-20T12:36:00Z</time>
      </trkpt>
      <trkpt lat="43.21651" lon="5.45657">
        <ele>298.15</ele>
        <time>2020-02-20T12:36:16Z</time>
      </trkpt>
      <trkpt lat="43.21647" lon="5.45639">
        <ele>295.74</ele>
        <time>2020-02-20T12:36:33Z</time>
      </trkpt>
      <trkpt lat="43.21646" lon="5.45617">
        <ele>293.82</ele>
        <time>2020-02-20T12:36:51Z</time>
      </trkpt>
      <trkpt lat="43.21641" lon="5.45602">
        <ele>291.9</ele>
        <time>2020-02-20T12:37:07Z</time>
      </trkpt>
      <trkpt lat="43.21637" lon="5.4558">
        <ele>289.97</ele>
        <time>2020-02-20T12:37:25Z</time>
      </trkpt>
      <trkpt lat="43.21636" lon="5.45574">
        <ele>289.01</ele>
        <time>2020-02-20T12:37:29Z</time>
      </trkpt>
      <trkpt lat="43.21635" lon="5.45571">
        <ele>288.53</ele>
        <time>2020-02-20T12:37:31Z</time>
      </trkpt>
      <trkpt lat="43.21632" lon="5.45561">
        <ele>287.57</ele>
        <time>2020-02-20T12:37:40Z</time>
      </trkpt>
      <trkpt lat="43.21626" lon="5.45545">
        <ele>285.17</ele>
        <time>2020-02-20T12:37:53Z</time>
      </trkpt>
      <trkpt lat="43.21626" lon="5.45544">
        <ele>285.17</ele>
        <time>2020-02-20T12:37:54Z</time>
      </trkpt>
      <trkpt lat="43.21626" lon="5.45542">
        <ele>284.69</ele>
        <time>2020-02-20T12:37:55Z</time>
      </trkpt>
      <trkpt lat="43.21625" lon="5.45541">
        <ele>284.69</ele>
        <time>2020-02-20T12:37:56Z</time>
      </trkpt>
      <trkpt lat="43.21625" lon="5.4554">
        <ele>284.69</ele>
        <time>2020-02-20T12:37:57Z</time>
      </trkpt>
      <trkpt lat="43.21624" lon="5.45538">
        <ele>284.21</ele>
        <time>2020-02-20T12:37:58Z</time>
      </trkpt>
      <trkpt lat="43.21624" lon="5.45537">
        <ele>284.21</ele>
        <time>2020-02-20T12:37:59Z</time>
      </trkpt>
      <trkpt lat="43.21623" lon="5.45535">
        <ele>284.21</ele>
        <time>2020-02-20T12:38:00Z</time>
      </trkpt>
      <trkpt lat="43.21623" lon="5.45534">
        <ele>284.21</ele>
        <time>2020-02-20T12:38:01Z</time>
      </trkpt>
      <trkpt lat="43.2162" lon="5.45508">
        <ele>282.77</ele>
        <time>2020-02-20T12:38:17Z</time>
      </trkpt>
      <trkpt lat="43.21617" lon="5.45488">
        <ele>280.84</ele>
        <time>2020-02-20T12:38:32Z</time>
      </trkpt>
      <trkpt lat="43.21612" lon="5.45485">
        <ele>279.4</ele>
        <time>2020-02-20T12:38:45Z</time>
      </trkpt>
      <trkpt lat="43.21608" lon="5.45479">
        <ele>277.96</ele>
        <time>2020-02-20T12:38:56Z</time>
      </trkpt>
      <trkpt lat="43.21608" lon="5.45477">
        <ele>277.48</ele>
        <time>2020-02-20T12:38:57Z</time>
      </trkpt>
      <trkpt lat="43.21607" lon="5.45476">
        <ele>277.48</ele>
        <time>2020-02-20T12:38:58Z</time>
      </trkpt>
      <trkpt lat="43.21607" lon="5.45475">
        <ele>277.48</ele>
        <time>2020-02-20T12:38:59Z</time>
      </trkpt>
      <trkpt lat="43.21596" lon="5.45465">
        <ele>275.56</ele>
        <time>2020-02-20T12:39:12Z</time>
      </trkpt>
      <trkpt lat="43.21585" lon="5.45453">
        <ele>273.63</ele>
        <time>2020-02-20T12:39:26Z</time>
      </trkpt>
      <trkpt lat="43.21585" lon="5.45452">
        <ele>273.63</ele>
        <time>2020-02-20T12:39:41Z</time>
      </trkpt>
      <trkpt lat="43.21584" lon="5.45451">
        <ele>273.63</ele>
        <time>2020-02-20T12:39:42Z</time>
      </trkpt>
      <trkpt lat="43.21581" lon="5.45448">
        <ele>272.67</ele>
        <time>2020-02-20T12:39:46Z</time>
      </trkpt>
      <trkpt lat="43.21574" lon="5.45443">
        <ele>271.71</ele>
        <time>2020-02-20T12:40:00Z</time>
      </trkpt>
      <trkpt lat="43.21571" lon="5.4544">
        <ele>271.23</ele>
        <time>2020-02-20T12:40:16Z</time>
      </trkpt>
      <trkpt lat="43.2157" lon="5.45442">
        <ele>270.75</ele>
        <time>2020-02-20T12:40:33Z</time>
      </trkpt>
      <trkpt lat="43.21574" lon="5.4544">
        <ele>270.75</ele>
        <time>2020-02-20T12:40:54Z</time>
      </trkpt>
      <trkpt lat="43.21571" lon="5.4544">
        <ele>270.27</ele>
        <time>2020-02-20T12:41:10Z</time>
      </trkpt>
      <trkpt lat="43.21572" lon="5.45439">
        <ele>270.27</ele>
        <time>2020-02-20T12:41:34Z</time>
      </trkpt>
      <trkpt lat="43.21572" lon="5.45433">
        <ele>270.27</ele>
        <time>2020-02-20T12:41:49Z</time>
      </trkpt>
      <trkpt lat="43.21574" lon="5.45421">
        <ele>269.31</ele>
        <time>2020-02-20T12:42:03Z</time>
      </trkpt>
      <trkpt lat="43.21576" lon="5.45415">
        <ele>268.35</ele>
        <time>2020-02-20T12:42:10Z</time>
      </trkpt>
      <trkpt lat="43.21578" lon="5.45402">
        <ele>267.38</ele>
        <time>2020-02-20T12:42:25Z</time>
      </trkpt>
      <trkpt lat="43.21579" lon="5.45373">
        <ele>266.9</ele>
        <time>2020-02-20T12:42:45Z</time>
      </trkpt>
      <trkpt lat="43.21579" lon="5.45365">
        <ele>266.9</ele>
        <time>2020-02-20T12:43:02Z</time>
      </trkpt>
      <trkpt lat="43.21579" lon="5.45358">
        <ele>266.9</ele>
        <time>2020-02-20T12:43:15Z</time>
      </trkpt>
      <trkpt lat="43.21579" lon="5.45355">
        <ele>266.9</ele>
        <time>2020-02-20T12:43:18Z</time>
      </trkpt>
      <trkpt lat="43.21578" lon="5.45351">
        <ele>266.42</ele>
        <time>2020-02-20T12:43:30Z</time>
      </trkpt>
      <trkpt lat="43.21581" lon="5.45346">
        <ele>265.46</ele>
        <time>2020-02-20T12:43:54Z</time>
      </trkpt>
      <trkpt lat="43.21582" lon="5.45341">
        <ele>264.02</ele>
        <time>2020-02-20T12:44:11Z</time>
      </trkpt>
      <trkpt lat="43.21585" lon="5.45335">
        <ele>262.58</ele>
        <time>2020-02-20T12:44:27Z</time>
      </trkpt>
      <trkpt lat="43.21588" lon="5.45331">
        <ele>261.14</ele>
        <time>2020-02-20T12:44:32Z</time>
      </trkpt>
      <trkpt lat="43.21594" lon="5.45318">
        <ele>258.25</ele>
        <time>2020-02-20T12:44:45Z</time>
      </trkpt>
      <trkpt lat="43.21599" lon="5.45309">
        <ele>255.37</ele>
        <time>2020-02-20T12:44:59Z</time>
      </trkpt>
      <trkpt lat="43.21598" lon="5.45301">
        <ele>252.48</ele>
        <time>2020-02-20T12:45:11Z</time>
      </trkpt>
      <trkpt lat="43.21587" lon="5.45301">
        <ele>249.6</ele>
        <time>2020-02-20T12:45:27Z</time>
      </trkpt>
      <trkpt lat="43.21579" lon="5.45303">
        <ele>247.2</ele>
        <time>2020-02-20T12:45:41Z</time>
      </trkpt>
      <trkpt lat="43.21568" lon="5.45308">
        <ele>243.83</ele>
        <time>2020-02-20T12:45:54Z</time>
      </trkpt>
      <trkpt lat="43.21559" lon="5.45313">
        <ele>240.95</ele>
        <time>2020-02-20T12:46:12Z</time>
      </trkpt>
      <trkpt lat="43.2155" lon="5.45301">
        <ele>238.06</ele>
        <time>2020-02-20T12:46:28Z</time>
      </trkpt>
      <trkpt lat="43.21551" lon="5.45283">
        <ele>235.18</ele>
        <time>2020-02-20T12:46:46Z</time>
      </trkpt>
      <trkpt lat="43.21562" lon="5.45273">
        <ele>231.81</ele>
        <time>2020-02-20T12:47:01Z</time>
      </trkpt>
      <trkpt lat="43.21568" lon="5.45261">
        <ele>228.93</ele>
        <time>2020-02-20T12:47:17Z</time>
      </trkpt>
      <trkpt lat="43.21574" lon="5.45249">
        <ele>225.57</ele>
        <time>2020-02-20T12:47:31Z</time>
      </trkpt>
      <trkpt lat="43.21581" lon="5.45235">
        <ele>222.68</ele>
        <time>2020-02-20T12:47:46Z</time>
      </trkpt>
      <trkpt lat="43.2159" lon="5.45217">
        <ele>219.8</ele>
        <time>2020-02-20T12:48:02Z</time>
      </trkpt>
      <trkpt lat="43.21597" lon="5.45203">
        <ele>216.91</ele>
        <time>2020-02-20T12:48:19Z</time>
      </trkpt>
      <trkpt lat="43.216" lon="5.45197">
        <ele>215.95</ele>
        <time>2020-02-20T12:48:34Z</time>
      </trkpt>
      <trkpt lat="43.216" lon="5.45195">
        <ele>215.47</ele>
        <time>2020-02-20T12:48:59Z</time>
      </trkpt>
      <trkpt lat="43.21599" lon="5.45197">
        <ele>215.47</ele>
        <time>2020-02-20T12:49:26Z</time>
      </trkpt>
      <trkpt lat="43.21598" lon="5.45196">
        <ele>214.99</ele>
        <time>2020-02-20T12:50:07Z</time>
      </trkpt>
      <trkpt lat="43.21599" lon="5.45197">
        <ele>214.99</ele>
        <time>2020-02-20T12:50:47Z</time>
      </trkpt>
      <trkpt lat="43.216" lon="5.45197">
        <ele>214.99</ele>
        <time>2020-02-20T12:51:16Z</time>
      </trkpt>
      <trkpt lat="43.21604" lon="5.45201">
        <ele>214.99</ele>
        <time>2020-02-20T12:51:28Z</time>
      </trkpt>
      <trkpt lat="43.21605" lon="5.45202">
        <ele>214.99</ele>
        <time>2020-02-20T12:51:29Z</time>
      </trkpt>
      <trkpt lat="43.21609" lon="5.45208">
        <ele>214.99</ele>
        <time>2020-02-20T12:51:43Z</time>
      </trkpt>
      <trkpt lat="43.21626" lon="5.45218">
        <ele>214.99</ele>
        <time>2020-02-20T12:51:59Z</time>
      </trkpt>
      <trkpt lat="43.21645" lon="5.4523">
        <ele>214.99</ele>
        <time>2020-02-20T12:52:18Z</time>
      </trkpt>
      <trkpt lat="43.21654" lon="5.4524">
        <ele>214.51</ele>
        <time>2020-02-20T12:52:32Z</time>
      </trkpt>
      <trkpt lat="43.21655" lon="5.45241">
        <ele>214.51</ele>
        <time>2020-02-20T12:52:33Z</time>
      </trkpt>
      <trkpt lat="43.21669" lon="5.45254">
        <ele>213.55</ele>
        <time>2020-02-20T12:52:51Z</time>
      </trkpt>
      <trkpt lat="43.21679" lon="5.45266">
        <ele>213.07</ele>
        <time>2020-02-20T12:53:08Z</time>
      </trkpt>
      <trkpt lat="43.21695" lon="5.4527">
        <ele>212.11</ele>
        <time>2020-02-20T12:53:25Z</time>
      </trkpt>
      <trkpt lat="43.21707" lon="5.45265">
        <ele>211.63</ele>
        <time>2020-02-20T12:53:39Z</time>
      </trkpt>
      <trkpt lat="43.21709" lon="5.45265">
        <ele>211.63</ele>
        <time>2020-02-20T12:53:40Z</time>
      </trkpt>
      <trkpt lat="43.21717" lon="5.45266">
        <ele>210.67</ele>
        <time>2020-02-20T12:53:52Z</time>
      </trkpt>
      <trkpt lat="43.2173" lon="5.45254">
        <ele>210.67</ele>
        <time>2020-02-20T12:54:10Z</time>
      </trkpt>
      <trkpt lat="43.21731" lon="5.45254">
        <ele>210.67</ele>
        <time>2020-02-20T12:54:12Z</time>
      </trkpt>
      <trkpt lat="43.2173" lon="5.45246">
        <ele>210.19</ele>
        <time>2020-02-20T12:54:23Z</time>
      </trkpt>
      <trkpt lat="43.2173" lon="5.45244">
        <ele>210.19</ele>
        <time>2020-02-20T12:54:25Z</time>
      </trkpt>
      <trkpt lat="43.21726" lon="5.4522">
        <ele>208.74</ele>
        <time>2020-02-20T12:54:43Z</time>
      </trkpt>
      <trkpt lat="43.21722" lon="5.45194">
        <ele>207.78</ele>
        <time>2020-02-20T12:55:01Z</time>
      </trkpt>
      <trkpt lat="43.21722" lon="5.45187">
        <ele>207.78</ele>
        <time>2020-02-20T12:55:05Z</time>
      </trkpt>
      <trkpt lat="43.2172" lon="5.45162">
        <ele>206.82</ele>
        <time>2020-02-20T12:55:22Z</time>
      </trkpt>
      <trkpt lat="43.2172" lon="5.45129">
        <ele>206.82</ele>
        <time>2020-02-20T12:55:42Z</time>
      </trkpt>
      <trkpt lat="43.21719" lon="5.45123">
        <ele>206.34</ele>
        <time>2020-02-20T12:55:56Z</time>
      </trkpt>
      <trkpt lat="43.21718" lon="5.45131">
        <ele>206.34</ele>
        <time>2020-02-20T12:56:13Z</time>
      </trkpt>
      <trkpt lat="43.2172" lon="5.45127">
        <ele>206.34</ele>
        <time>2020-02-20T12:56:20Z</time>
      </trkpt>
      <trkpt lat="43.2172" lon="5.45125">
        <ele>206.34</ele>
        <time>2020-02-20T12:56:22Z</time>
      </trkpt>
      <trkpt lat="43.21716" lon="5.45096">
        <ele>205.86</ele>
        <time>2020-02-20T12:56:41Z</time>
      </trkpt>
      <trkpt lat="43.21704" lon="5.45072">
        <ele>204.42</ele>
        <time>2020-02-20T12:56:58Z</time>
      </trkpt>
      <trkpt lat="43.21691" lon="5.4505">
        <ele>203.94</ele>
        <time>2020-02-20T12:57:17Z</time>
      </trkpt>
      <trkpt lat="43.21676" lon="5.45036">
        <ele>205.38</ele>
        <time>2020-02-20T12:57:33Z</time>
      </trkpt>
      <trkpt lat="43.21676" lon="5.45033">
        <ele>205.38</ele>
        <time>2020-02-20T12:57:35Z</time>
      </trkpt>
      <trkpt lat="43.21674" lon="5.45025">
        <ele>205.38</ele>
        <time>2020-02-20T12:57:40Z</time>
      </trkpt>
      <trkpt lat="43.21676" lon="5.45008">
        <ele>205.38</ele>
        <time>2020-02-20T12:57:52Z</time>
      </trkpt>
      <trkpt lat="43.21681" lon="5.44988">
        <ele>205.86</ele>
        <time>2020-02-20T12:58:08Z</time>
      </trkpt>
      <trkpt lat="43.21693" lon="5.44963">
        <ele>206.34</ele>
        <time>2020-02-20T12:58:28Z</time>
      </trkpt>
      <trkpt lat="43.21708" lon="5.44946">
        <ele>206.34</ele>
        <time>2020-02-20T12:58:46Z</time>
      </trkpt>
      <trkpt lat="43.21707" lon="5.44944">
        <ele>206.34</ele>
        <time>2020-02-20T12:59:06Z</time>
      </trkpt>
      <trkpt lat="43.21705" lon="5.44946">
        <ele>206.34</ele>
        <time>2020-02-20T12:59:28Z</time>
      </trkpt>
      <trkpt lat="43.21706" lon="5.44945">
        <ele>204.9</ele>
        <time>2020-02-20T12:59:53Z</time>
      </trkpt>
      <trkpt lat="43.21706" lon="5.44945">
        <ele>206.34</ele>
        <time>2020-02-20T12:59:55Z</time>
      </trkpt>
      <trkpt lat="43.21707" lon="5.44946">
        <ele>205.38</ele>
        <time>2020-02-20T12:59:58Z</time>
      </trkpt>
      <trkpt lat="43.21707" lon="5.44946">
        <ele>207.3</ele>
        <time>2020-02-20T13:00:00Z</time>
      </trkpt>
      <trkpt lat="43.21707" lon="5.44945">
        <ele>206.34</ele>
        <time>2020-02-20T13:00:02Z</time>
      </trkpt>
      <trkpt lat="43.21709" lon="5.44944">
        <ele>205.86</ele>
        <time>2020-02-20T13:00:14Z</time>
      </trkpt>
      <trkpt lat="43.21718" lon="5.44937">
        <ele>205.86</ele>
        <time>2020-02-20T13:00:26Z</time>
      </trkpt>
      <trkpt lat="43.21736" lon="5.44926">
        <ele>205.86</ele>
        <time>2020-02-20T13:00:43Z</time>
      </trkpt>
      <trkpt lat="43.21742" lon="5.44918">
        <ele>205.86</ele>
        <time>2020-02-20T13:00:58Z</time>
      </trkpt>
      <trkpt lat="43.21764" lon="5.44912">
        <ele>205.86</ele>
        <time>2020-02-20T13:01:19Z</time>
      </trkpt>
      <trkpt lat="43.21779" lon="5.4491">
        <ele>205.86</ele>
        <time>2020-02-20T13:01:34Z</time>
      </trkpt>
      <trkpt lat="43.21799" lon="5.44911">
        <ele>206.82</ele>
        <time>2020-02-20T13:01:52Z</time>
      </trkpt>
      <trkpt lat="43.21801" lon="5.44911">
        <ele>206.82</ele>
        <time>2020-02-20T13:01:54Z</time>
      </trkpt>
      <trkpt lat="43.21806" lon="5.44908">
        <ele>207.3</ele>
        <time>2020-02-20T13:02:08Z</time>
      </trkpt>
      <trkpt lat="43.21805" lon="5.44909">
        <ele>206.34</ele>
        <time>2020-02-20T13:02:10Z</time>
      </trkpt>
      <trkpt lat="43.21806" lon="5.44909">
        <ele>206.34</ele>
        <time>2020-02-20T13:02:41Z</time>
      </trkpt>
      <trkpt lat="43.21806" lon="5.44909">
        <ele>205.86</ele>
        <time>2020-02-20T13:03:15Z</time>
      </trkpt>
      <trkpt lat="43.21805" lon="5.4491">
        <ele>207.3</ele>
        <time>2020-02-20T13:03:43Z</time>
      </trkpt>
      <trkpt lat="43.21805" lon="5.44909">
        <ele>207.3</ele>
        <time>2020-02-20T13:03:50Z</time>
      </trkpt>
      <trkpt lat="43.21807" lon="5.449">
        <ele>207.3</ele>
        <time>2020-02-20T13:03:56Z</time>
      </trkpt>
      <trkpt lat="43.21811" lon="5.44866">
        <ele>207.78</ele>
        <time>2020-02-20T13:04:14Z</time>
      </trkpt>
      <trkpt lat="43.21831" lon="5.44854">
        <ele>208.74</ele>
        <time>2020-02-20T13:04:31Z</time>
      </trkpt>
      <trkpt lat="43.21856" lon="5.44855">
        <ele>209.22</ele>
        <time>2020-02-20T13:04:50Z</time>
      </trkpt>
      <trkpt lat="43.21866" lon="5.44851">
        <ele>210.19</ele>
        <time>2020-02-20T13:04:59Z</time>
      </trkpt>
      <trkpt lat="43.2187" lon="5.44849">
        <ele>210.19</ele>
        <time>2020-02-20T13:05:02Z</time>
      </trkpt>
      <trkpt lat="43.21878" lon="5.44826">
        <ele>211.15</ele>
        <time>2020-02-20T13:05:18Z</time>
      </trkpt>
      <trkpt lat="43.21878" lon="5.4482">
        <ele>211.15</ele>
        <time>2020-02-20T13:05:31Z</time>
      </trkpt>
      <trkpt lat="43.21878" lon="5.44818">
        <ele>211.15</ele>
        <time>2020-02-20T13:05:33Z</time>
      </trkpt>
      <trkpt lat="43.21873" lon="5.44788">
        <ele>212.59</ele>
        <time>2020-02-20T13:05:52Z</time>
      </trkpt>
      <trkpt lat="43.21874" lon="5.44782">
        <ele>213.07</ele>
        <time>2020-02-20T13:06:07Z</time>
      </trkpt>
      <trkpt lat="43.21873" lon="5.44782">
        <ele>213.07</ele>
        <time>2020-02-20T13:06:32Z</time>
      </trkpt>
      <trkpt lat="43.21874" lon="5.44783">
        <ele>213.07</ele>
        <time>2020-02-20T13:06:45Z</time>
      </trkpt>
      <trkpt lat="43.21873" lon="5.44784">
        <ele>213.55</ele>
        <time>2020-02-20T13:07:09Z</time>
      </trkpt>
      <trkpt lat="43.21873" lon="5.44782">
        <ele>213.55</ele>
        <time>2020-02-20T13:07:31Z</time>
      </trkpt>
      <trkpt lat="43.21875" lon="5.44779">
        <ele>213.55</ele>
        <time>2020-02-20T13:07:49Z</time>
      </trkpt>
      <trkpt lat="43.21889" lon="5.44755">
        <ele>213.55</ele>
        <time>2020-02-20T13:08:08Z</time>
      </trkpt>
      <trkpt lat="43.21889" lon="5.44741">
        <ele>214.03</ele>
        <time>2020-02-20T13:08:18Z</time>
      </trkpt>
      <trkpt lat="43.2188" lon="5.44707">
        <ele>214.03</ele>
        <time>2020-02-20T13:08:41Z</time>
      </trkpt>
      <trkpt lat="43.21879" lon="5.44705">
        <ele>214.03</ele>
        <time>2020-02-20T13:08:52Z</time>
      </trkpt>
      <trkpt lat="43.21877" lon="5.44702">
        <ele>214.03</ele>
        <time>2020-02-20T13:09:14Z</time>
      </trkpt>
      <trkpt lat="43.21871" lon="5.447">
        <ele>214.03</ele>
        <time>2020-02-20T13:09:31Z</time>
      </trkpt>
      <trkpt lat="43.21874" lon="5.44696">
        <ele>213.55</ele>
        <time>2020-02-20T13:09:37Z</time>
      </trkpt>
      <trkpt lat="43.21876" lon="5.44687">
        <ele>213.55</ele>
        <time>2020-02-20T13:09:44Z</time>
      </trkpt>
      <trkpt lat="43.21881" lon="5.44663">
        <ele>211.15</ele>
        <time>2020-02-20T13:10:03Z</time>
      </trkpt>
      <trkpt lat="43.21887" lon="5.44649">
        <ele>209.7</ele>
        <time>2020-02-20T13:10:17Z</time>
      </trkpt>
      <trkpt lat="43.21891" lon="5.44628">
        <ele>209.22</ele>
        <time>2020-02-20T13:10:33Z</time>
      </trkpt>
      <trkpt lat="43.21902" lon="5.44611">
        <ele>207.78</ele>
        <time>2020-02-20T13:10:50Z</time>
      </trkpt>
      <trkpt lat="43.21915" lon="5.44588">
        <ele>206.34</ele>
        <time>2020-02-20T13:11:09Z</time>
      </trkpt>
      <trkpt lat="43.21928" lon="5.44562">
        <ele>205.38</ele>
        <time>2020-02-20T13:11:28Z</time>
      </trkpt>
      <trkpt lat="43.21932" lon="5.44544">
        <ele>203.46</ele>
        <time>2020-02-20T13:11:41Z</time>
      </trkpt>
      <trkpt lat="43.21927" lon="5.44519">
        <ele>202.01</ele>
        <time>2020-02-20T13:11:57Z</time>
      </trkpt>
      <trkpt lat="43.21921" lon="5.44494">
        <ele>200.57</ele>
        <time>2020-02-20T13:12:14Z</time>
      </trkpt>
      <trkpt lat="43.21923" lon="5.44482">
        <ele>199.61</ele>
        <time>2020-02-20T13:12:22Z</time>
      </trkpt>
      <trkpt lat="43.21926" lon="5.44458">
        <ele>198.17</ele>
        <time>2020-02-20T13:12:38Z</time>
      </trkpt>
      <trkpt lat="43.21935" lon="5.44431">
        <ele>196.73</ele>
        <time>2020-02-20T13:12:55Z</time>
      </trkpt>
      <trkpt lat="43.2195" lon="5.4441">
        <ele>194.8</ele>
        <time>2020-02-20T13:13:13Z</time>
      </trkpt>
      <trkpt lat="43.21964" lon="5.44391">
        <ele>193.36</ele>
        <time>2020-02-20T13:13:31Z</time>
      </trkpt>
      <trkpt lat="43.21976" lon="5.44369">
        <ele>191.92</ele>
        <time>2020-02-20T13:13:48Z</time>
      </trkpt>
      <trkpt lat="43.21985" lon="5.44346">
        <ele>190.48</ele>
        <time>2020-02-20T13:14:06Z</time>
      </trkpt>
      <trkpt lat="43.21996" lon="5.44322">
        <ele>189.52</ele>
        <time>2020-02-20T13:14:24Z</time>
      </trkpt>
      <trkpt lat="43.2201" lon="5.44302">
        <ele>188.56</ele>
        <time>2020-02-20T13:14:42Z</time>
      </trkpt>
      <trkpt lat="43.22022" lon="5.44279">
        <ele>187.11</ele>
        <time>2020-02-20T13:15:00Z</time>
      </trkpt>
      <trkpt lat="43.22033" lon="5.44256">
        <ele>185.67</ele>
        <time>2020-02-20T13:15:17Z</time>
      </trkpt>
      <trkpt lat="43.22039" lon="5.44233">
        <ele>184.71</ele>
        <time>2020-02-20T13:15:32Z</time>
      </trkpt>
      <trkpt lat="43.22046" lon="5.44206">
        <ele>183.27</ele>
        <time>2020-02-20T13:15:51Z</time>
      </trkpt>
      <trkpt lat="43.22053" lon="5.44173">
        <ele>182.31</ele>
        <time>2020-02-20T13:16:13Z</time>
      </trkpt>
      <trkpt lat="43.22055" lon="5.44158">
        <ele>182.31</ele>
        <time>2020-02-20T13:16:23Z</time>
      </trkpt>
      <trkpt lat="43.22063" lon="5.44137">
        <ele>181.35</ele>
        <time>2020-02-20T13:16:38Z</time>
      </trkpt>
      <trkpt lat="43.22078" lon="5.4411">
        <ele>179.9</ele>
        <time>2020-02-20T13:16:58Z</time>
      </trkpt>
      <trkpt lat="43.22089" lon="5.4409">
        <ele>178.94</ele>
        <time>2020-02-20T13:17:11Z</time>
      </trkpt>
      <trkpt lat="43.22102" lon="5.44075">
        <ele>177.5</ele>
        <time>2020-02-20T13:17:24Z</time>
      </trkpt>
      <trkpt lat="43.22115" lon="5.44066">
        <ele>176.54</ele>
        <time>2020-02-20T13:17:37Z</time>
      </trkpt>
      <trkpt lat="43.22128" lon="5.44051">
        <ele>176.06</ele>
        <time>2020-02-20T13:17:50Z</time>
      </trkpt>
      <trkpt lat="43.22137" lon="5.44044">
        <ele>175.58</ele>
        <time>2020-02-20T13:18:02Z</time>
      </trkpt>
      <trkpt lat="43.22158" lon="5.44028">
        <ele>173.66</ele>
        <time>2020-02-20T13:18:23Z</time>
      </trkpt>
      <trkpt lat="43.22178" lon="5.44017">
        <ele>173.17</ele>
        <time>2020-02-20T13:18:42Z</time>
      </trkpt>
      <trkpt lat="43.22204" lon="5.4401">
        <ele>172.21</ele>
        <time>2020-02-20T13:19:05Z</time>
      </trkpt>
      <trkpt lat="43.22224" lon="5.44005">
        <ele>170.77</ele>
        <time>2020-02-20T13:19:24Z</time>
      </trkpt>
      <trkpt lat="43.22248" lon="5.43995">
        <ele>170.29</ele>
        <time>2020-02-20T13:19:44Z</time>
      </trkpt>
      <trkpt lat="43.22274" lon="5.43985">
        <ele>168.85</ele>
        <time>2020-02-20T13:20:05Z</time>
      </trkpt>
      <trkpt lat="43.22295" lon="5.43964">
        <ele>167.41</ele>
        <time>2020-02-20T13:20:26Z</time>
      </trkpt>
      <trkpt lat="43.22313" lon="5.43947">
        <ele>166.93</ele>
        <time>2020-02-20T13:20:45Z</time>
      </trkpt>
      <trkpt lat="43.22329" lon="5.43924">
        <ele>165.48</ele>
        <time>2020-02-20T13:21:03Z</time>
      </trkpt>
      <trkpt lat="43.22347" lon="5.43902">
        <ele>164.52</ele>
        <time>2020-02-20T13:21:22Z</time>
      </trkpt>
      <trkpt lat="43.22362" lon="5.43882">
        <ele>163.56</ele>
        <time>2020-02-20T13:21:40Z</time>
      </trkpt>
      <trkpt lat="43.22379" lon="5.43869">
        <ele>163.08</ele>
        <time>2020-02-20T13:21:57Z</time>
      </trkpt>
      <trkpt lat="43.22403" lon="5.43856">
        <ele>162.6</ele>
        <time>2020-02-20T13:22:18Z</time>
      </trkpt>
      <trkpt lat="43.22427" lon="5.43843">
        <ele>162.12</ele>
        <time>2020-02-20T13:22:40Z</time>
      </trkpt>
      <trkpt lat="43.22453" lon="5.43819">
        <ele>161.64</ele>
        <time>2020-02-20T13:23:04Z</time>
      </trkpt>
      <trkpt lat="43.22475" lon="5.43816">
        <ele>161.64</ele>
        <time>2020-02-20T13:23:24Z</time>
      </trkpt>
      <trkpt lat="43.22499" lon="5.43818">
        <ele>161.16</ele>
        <time>2020-02-20T13:23:43Z</time>
      </trkpt>
      <trkpt lat="43.22514" lon="5.43817">
        <ele>161.16</ele>
        <time>2020-02-20T13:23:55Z</time>
      </trkpt>
      <trkpt lat="43.22536" lon="5.43816">
        <ele>161.16</ele>
        <time>2020-02-20T13:24:15Z</time>
      </trkpt>
      <trkpt lat="43.22558" lon="5.43818">
        <ele>162.6</ele>
        <time>2020-02-20T13:24:34Z</time>
      </trkpt>
      <trkpt lat="43.22577" lon="5.43812">
        <ele>162.6</ele>
        <time>2020-02-20T13:24:51Z</time>
      </trkpt>
      <trkpt lat="43.22599" lon="5.43809">
        <ele>163.08</ele>
        <time>2020-02-20T13:25:11Z</time>
      </trkpt>
      <trkpt lat="43.22626" lon="5.43801">
        <ele>163.08</ele>
        <time>2020-02-20T13:25:31Z</time>
      </trkpt>
      <trkpt lat="43.22653" lon="5.43786">
        <ele>163.08</ele>
        <time>2020-02-20T13:25:52Z</time>
      </trkpt>
      <trkpt lat="43.22678" lon="5.43767">
        <ele>161.64</ele>
        <time>2020-02-20T13:26:14Z</time>
      </trkpt>
      <trkpt lat="43.22702" lon="5.43748">
        <ele>160.2</ele>
        <time>2020-02-20T13:26:37Z</time>
      </trkpt>
      <trkpt lat="43.22728" lon="5.43735">
        <ele>158.75</ele>
        <time>2020-02-20T13:26:59Z</time>
      </trkpt>
      <trkpt lat="43.22756" lon="5.43726">
        <ele>156.35</ele>
        <time>2020-02-20T13:27:23Z</time>
      </trkpt>
      <trkpt lat="43.22779" lon="5.43722">
        <ele>154.91</ele>
        <time>2020-02-20T13:27:41Z</time>
      </trkpt>
      <trkpt lat="43.22803" lon="5.43725">
        <ele>153.47</ele>
        <time>2020-02-20T13:28:01Z</time>
      </trkpt>
      <trkpt lat="43.22821" lon="5.43725">
        <ele>152.51</ele>
        <time>2020-02-20T13:28:19Z</time>
      </trkpt>
      <trkpt lat="43.22846" lon="5.43723">
        <ele>150.58</ele>
        <time>2020-02-20T13:28:39Z</time>
      </trkpt>
      <trkpt lat="43.2287" lon="5.43717">
        <ele>148.66</ele>
        <time>2020-02-20T13:28:59Z</time>
      </trkpt>
      <trkpt lat="43.22898" lon="5.43716">
        <ele>147.22</ele>
        <time>2020-02-20T13:29:22Z</time>
      </trkpt>
      <trkpt lat="43.22926" lon="5.43714">
        <ele>144.82</ele>
        <time>2020-02-20T13:29:43Z</time>
      </trkpt>
      <trkpt lat="43.22929" lon="5.43713">
        <ele>144.82</ele>
        <time>2020-02-20T13:29:44Z</time>
      </trkpt>
      <trkpt lat="43.22952" lon="5.4371">
        <ele>143.37</ele>
        <time>2020-02-20T13:30:04Z</time>
      </trkpt>
      <trkpt lat="43.22965" lon="5.43711">
        <ele>142.41</ele>
        <time>2020-02-20T13:30:20Z</time>
      </trkpt>
      <trkpt lat="43.22966" lon="5.43712">
        <ele>142.41</ele>
        <time>2020-02-20T13:30:40Z</time>
      </trkpt>
      <trkpt lat="43.22969" lon="5.43709">
        <ele>142.41</ele>
        <time>2020-02-20T13:30:47Z</time>
      </trkpt>
      <trkpt lat="43.22982" lon="5.43701">
        <ele>141.93</ele>
        <time>2020-02-20T13:31:02Z</time>
      </trkpt>
      <trkpt lat="43.22983" lon="5.437">
        <ele>141.93</ele>
        <time>2020-02-20T13:31:03Z</time>
      </trkpt>
      <trkpt lat="43.22983" lon="5.43699">
        <ele>141.93</ele>
        <time>2020-02-20T13:31:04Z</time>
      </trkpt>
      <trkpt lat="43.22987" lon="5.43694">
        <ele>141.45</ele>
        <time>2020-02-20T13:31:09Z</time>
      </trkpt>
      <trkpt lat="43.23003" lon="5.4368">
        <ele>140.49</ele>
        <time>2020-02-20T13:31:22Z</time>
      </trkpt>
      <trkpt lat="43.23005" lon="5.43679">
        <ele>140.49</ele>
        <time>2020-02-20T13:31:23Z</time>
      </trkpt>
      <trkpt lat="43.23006" lon="5.4368">
        <ele>140.49</ele>
        <time>2020-02-20T13:31:24Z</time>
      </trkpt>
      <trkpt lat="43.23008" lon="5.4368">
        <ele>140.01</ele>
        <time>2020-02-20T13:31:25Z</time>
      </trkpt>
      <trkpt lat="43.2301" lon="5.4368">
        <ele>140.01</ele>
        <time>2020-02-20T13:31:26Z</time>
      </trkpt>
      <trkpt lat="43.23011" lon="5.4368">
        <ele>140.01</ele>
        <time>2020-02-20T13:31:27Z</time>
      </trkpt>
      <trkpt lat="43.23023" lon="5.4368">
        <ele>139.05</ele>
        <time>2020-02-20T13:31:40Z</time>
      </trkpt>
      <trkpt lat="43.23028" lon="5.43679">
        <ele>139.05</ele>
        <time>2020-02-20T13:31:44Z</time>
      </trkpt>
      <trkpt lat="43.2303" lon="5.4368">
        <ele>139.05</ele>
        <time>2020-02-20T13:31:45Z</time>
      </trkpt>
      <trkpt lat="43.23031" lon="5.4368">
        <ele>138.57</ele>
        <time>2020-02-20T13:31:46Z</time>
      </trkpt>
      <trkpt lat="43.23046" lon="5.43672">
        <ele>137.61</ele>
        <time>2020-02-20T13:32:00Z</time>
      </trkpt>
      <trkpt lat="43.23045" lon="5.43666">
        <ele>137.61</ele>
        <time>2020-02-20T13:32:05Z</time>
      </trkpt>
      <trkpt lat="43.23044" lon="5.43656">
        <ele>137.13</ele>
        <time>2020-02-20T13:32:16Z</time>
      </trkpt>
      <trkpt lat="43.23041" lon="5.43641">
        <ele>137.61</ele>
        <time>2020-02-20T13:32:30Z</time>
      </trkpt>
      <trkpt lat="43.2304" lon="5.4364">
        <ele>137.61</ele>
        <time>2020-02-20T13:32:44Z</time>
      </trkpt>
    </trkseg>
  </trk>
</gpx>